<?xml version="1.0" encoding="UTF-8" standalone="no" ?>
<gpx xmlns="http://www.topografix.com/GPX/1/1" xmlns:xsi="http://www.w3.org/2001/XMLSchema-instance" xsi:schemaLocation="http://www.topografix.com/GPX/1/1 http://www.topografix.com/GPX/1/1/gpx.xsd" version="1.1" creator="VisuGPX - https://www.visugpx.com">
  <metadata>
    <name>la tour d\'aigue</name>
    <desc><![CDATA[D1 combe platte
D2 coteau des gamates
D3 mirail
]]></desc>
  </metadata>
  <trk>
    <name><![CDATA[la tour d\'aigue_1]]></name>
    <trkseg>
      <trkpt lat="43.75944" lon="5.50366">
        <ele>324.582275</ele>
        <time>2011-04-21T06:57:39Z</time>
      </trkpt>
      <trkpt lat="43.76019" lon="5.50325">
        <ele>325.543579</ele>
        <time>2011-04-21T06:58:05Z</time>
      </trkpt>
      <trkpt lat="43.76042" lon="5.50315">
        <ele>325.062988</ele>
        <time>2011-04-21T06:58:13Z</time>
      </trkpt>
      <trkpt lat="43.76058" lon="5.50303">
        <ele>323.140381</ele>
        <time>2011-04-21T06:58:19Z</time>
      </trkpt>
      <trkpt lat="43.76078" lon="5.50295">
        <ele>326.504883</ele>
        <time>2011-04-21T06:58:25Z</time>
      </trkpt>
      <trkpt lat="43.76094" lon="5.50291">
        <ele>326.985596</ele>
        <time>2011-04-21T06:58:30Z</time>
      </trkpt>
      <trkpt lat="43.76143" lon="5.50264">
        <ele>330.830933</ele>
        <time>2011-04-21T06:58:43Z</time>
      </trkpt>
      <trkpt lat="43.76168" lon="5.5026">
        <ele>329.869507</ele>
        <time>2011-04-21T06:58:50Z</time>
      </trkpt>
      <trkpt lat="43.76186" lon="5.50252">
        <ele>328.427612</ele>
        <time>2011-04-21T06:58:55Z</time>
      </trkpt>
      <trkpt lat="43.76223" lon="5.50225">
        <ele>323.620972</ele>
        <time>2011-04-21T06:59:07Z</time>
      </trkpt>
      <trkpt lat="43.76244" lon="5.50215">
        <ele>322.659668</ele>
        <time>2011-04-21T06:59:14Z</time>
      </trkpt>
      <trkpt lat="43.76259" lon="5.50196">
        <ele>322.178955</ele>
        <time>2011-04-21T06:59:20Z</time>
      </trkpt>
      <trkpt lat="43.76278" lon="5.50183">
        <ele>326.504883</ele>
        <time>2011-04-21T06:59:25Z</time>
      </trkpt>
      <trkpt lat="43.76288" lon="5.50183">
        <ele>328.908325</ele>
        <time>2011-04-21T06:59:28Z</time>
      </trkpt>
      <trkpt lat="43.76321" lon="5.50246">
        <ele>327.946777</ele>
        <time>2011-04-21T06:59:42Z</time>
      </trkpt>
      <trkpt lat="43.76335" lon="5.50296">
        <ele>329.388916</ele>
        <time>2011-04-21T06:59:53Z</time>
      </trkpt>
      <trkpt lat="43.76337" lon="5.50354">
        <ele>327.946777</ele>
        <time>2011-04-21T07:00:03Z</time>
      </trkpt>
      <trkpt lat="43.76333" lon="5.5037">
        <ele>327.946777</ele>
        <time>2011-04-21T07:00:06Z</time>
      </trkpt>
      <trkpt lat="43.76332" lon="5.50399">
        <ele>327.946777</ele>
        <time>2011-04-21T07:00:11Z</time>
      </trkpt>
      <trkpt lat="43.76336" lon="5.50457">
        <ele>327.946777</ele>
        <time>2011-04-21T07:00:23Z</time>
      </trkpt>
      <trkpt lat="43.7634" lon="5.50487">
        <ele>324.101562</ele>
        <time>2011-04-21T07:00:29Z</time>
      </trkpt>
      <trkpt lat="43.76344" lon="5.50494">
        <ele>324.582275</ele>
        <time>2011-04-21T07:00:31Z</time>
      </trkpt>
      <trkpt lat="43.7635" lon="5.5052">
        <ele>326.504883</ele>
        <time>2011-04-21T07:00:37Z</time>
      </trkpt>
      <trkpt lat="43.76357" lon="5.50538">
        <ele>328.908325</ele>
        <time>2011-04-21T07:00:42Z</time>
      </trkpt>
      <trkpt lat="43.76371" lon="5.5056">
        <ele>326.985596</ele>
        <time>2011-04-21T07:00:48Z</time>
      </trkpt>
      <trkpt lat="43.76374" lon="5.50583">
        <ele>327.946777</ele>
        <time>2011-04-21T07:00:52Z</time>
      </trkpt>
      <trkpt lat="43.76385" lon="5.50614">
        <ele>332.272827</ele>
        <time>2011-04-21T07:00:58Z</time>
      </trkpt>
      <trkpt lat="43.76398" lon="5.50644">
        <ele>338.040771</ele>
        <time>2011-04-21T07:01:05Z</time>
      </trkpt>
      <trkpt lat="43.76404" lon="5.50663">
        <ele>336.118164</ele>
        <time>2011-04-21T07:01:08Z</time>
      </trkpt>
      <trkpt lat="43.7642" lon="5.50687">
        <ele>336.118164</ele>
        <time>2011-04-21T07:01:13Z</time>
      </trkpt>
      <trkpt lat="43.76443" lon="5.50747">
        <ele>336.598877</ele>
        <time>2011-04-21T07:01:23Z</time>
      </trkpt>
      <trkpt lat="43.7645" lon="5.50762">
        <ele>336.118164</ele>
        <time>2011-04-21T07:01:25Z</time>
      </trkpt>
      <trkpt lat="43.76478" lon="5.50842">
        <ele>335.156738</ele>
        <time>2011-04-21T07:01:36Z</time>
      </trkpt>
      <trkpt lat="43.76498" lon="5.50863">
        <ele>325.062988</ele>
        <time>2011-04-21T07:01:41Z</time>
      </trkpt>
      <trkpt lat="43.76516" lon="5.50871">
        <ele>314.969116</ele>
        <time>2011-04-21T07:01:46Z</time>
      </trkpt>
      <trkpt lat="43.7653" lon="5.50873">
        <ele>320.737061</ele>
        <time>2011-04-21T07:01:51Z</time>
      </trkpt>
      <trkpt lat="43.76532" lon="5.50875">
        <ele>322.178955</ele>
        <time>2011-04-21T07:01:52Z</time>
      </trkpt>
      <trkpt lat="43.76548" lon="5.50876">
        <ele>320.737061</ele>
        <time>2011-04-21T07:02:07Z</time>
      </trkpt>
      <trkpt lat="43.7655" lon="5.50893">
        <ele>323.620972</ele>
        <time>2011-04-21T07:02:11Z</time>
      </trkpt>
      <trkpt lat="43.7655" lon="5.50917">
        <ele>321.217773</ele>
        <time>2011-04-21T07:02:14Z</time>
      </trkpt>
      <trkpt lat="43.76553" lon="5.50931">
        <ele>320.256348</ele>
        <time>2011-04-21T07:02:16Z</time>
      </trkpt>
      <trkpt lat="43.76553" lon="5.50963">
        <ele>317.853027</ele>
        <time>2011-04-21T07:02:21Z</time>
      </trkpt>
      <trkpt lat="43.76547" lon="5.50985">
        <ele>315.449829</ele>
        <time>2011-04-21T07:02:26Z</time>
      </trkpt>
      <trkpt lat="43.76542" lon="5.51037">
        <ele>312.085205</ele>
        <time>2011-04-21T07:02:40Z</time>
      </trkpt>
      <trkpt lat="43.76537" lon="5.51064">
        <ele>313.046509</ele>
        <time>2011-04-21T07:02:48Z</time>
      </trkpt>
      <trkpt lat="43.7654" lon="5.51087">
        <ele>312.565796</ele>
        <time>2011-04-21T07:02:55Z</time>
      </trkpt>
      <trkpt lat="43.76575" lon="5.51129">
        <ele>332.75354</ele>
        <time>2011-04-21T07:03:19Z</time>
      </trkpt>
      <trkpt lat="43.76584" lon="5.51136">
        <ele>335.156738</ele>
        <time>2011-04-21T07:03:25Z</time>
      </trkpt>
      <trkpt lat="43.76607" lon="5.51149">
        <ele>344.289429</ele>
        <time>2011-04-21T07:03:39Z</time>
      </trkpt>
      <trkpt lat="43.76614" lon="5.51159">
        <ele>349.576538</ele>
        <time>2011-04-21T07:03:45Z</time>
      </trkpt>
      <trkpt lat="43.7662" lon="5.51174">
        <ele>350.537842</ele>
        <time>2011-04-21T07:03:52Z</time>
      </trkpt>
      <trkpt lat="43.76643" lon="5.51188">
        <ele>345.731323</ele>
        <time>2011-04-21T07:04:04Z</time>
      </trkpt>
      <trkpt lat="43.76656" lon="5.51189">
        <ele>344.77002</ele>
        <time>2011-04-21T07:04:10Z</time>
      </trkpt>
      <trkpt lat="43.76668" lon="5.51179">
        <ele>347.173218</ele>
        <time>2011-04-21T07:04:17Z</time>
      </trkpt>
      <trkpt lat="43.76694" lon="5.51147">
        <ele>350.537842</ele>
        <time>2011-04-21T07:04:32Z</time>
      </trkpt>
      <trkpt lat="43.76719" lon="5.51113">
        <ele>352.460571</ele>
        <time>2011-04-21T07:04:45Z</time>
      </trkpt>
      <trkpt lat="43.76736" lon="5.51083">
        <ele>353.421875</ele>
        <time>2011-04-21T07:04:53Z</time>
      </trkpt>
      <trkpt lat="43.76754" lon="5.51045">
        <ele>354.86377</ele>
        <time>2011-04-21T07:05:02Z</time>
      </trkpt>
      <trkpt lat="43.76765" lon="5.51015">
        <ele>355.344482</ele>
        <time>2011-04-21T07:05:09Z</time>
      </trkpt>
      <trkpt lat="43.76766" lon="5.51006">
        <ele>355.344482</ele>
        <time>2011-04-21T07:05:11Z</time>
      </trkpt>
      <trkpt lat="43.76774" lon="5.50994">
        <ele>356.786377</ele>
        <time>2011-04-21T07:05:17Z</time>
      </trkpt>
      <trkpt lat="43.76825" lon="5.50936">
        <ele>361.59314</ele>
        <time>2011-04-21T07:05:40Z</time>
      </trkpt>
      <trkpt lat="43.76849" lon="5.50867">
        <ele>359.189697</ele>
        <time>2011-04-21T07:05:53Z</time>
      </trkpt>
      <trkpt lat="43.7686" lon="5.50846">
        <ele>359.67041</ele>
        <time>2011-04-21T07:05:58Z</time>
      </trkpt>
      <trkpt lat="43.76876" lon="5.50831">
        <ele>360.151123</ele>
        <time>2011-04-21T07:06:03Z</time>
      </trkpt>
      <trkpt lat="43.76884" lon="5.50816">
        <ele>361.112427</ele>
        <time>2011-04-21T07:06:07Z</time>
      </trkpt>
      <trkpt lat="43.76885" lon="5.508">
        <ele>360.631714</ele>
        <time>2011-04-21T07:06:10Z</time>
      </trkpt>
      <trkpt lat="43.76895" lon="5.50781">
        <ele>363.996338</ele>
        <time>2011-04-21T07:06:15Z</time>
      </trkpt>
      <trkpt lat="43.76925" lon="5.50743">
        <ele>364.957642</ele>
        <time>2011-04-21T07:06:27Z</time>
      </trkpt>
      <trkpt lat="43.76935" lon="5.50748">
        <ele>363.996338</ele>
        <time>2011-04-21T07:06:31Z</time>
      </trkpt>
      <trkpt lat="43.76954" lon="5.50779">
        <ele>362.07373</ele>
        <time>2011-04-21T07:06:40Z</time>
      </trkpt>
      <trkpt lat="43.7699" lon="5.50849">
        <ele>365.438354</ele>
        <time>2011-04-21T07:06:59Z</time>
      </trkpt>
      <trkpt lat="43.77001" lon="5.50873">
        <ele>367.841553</ele>
        <time>2011-04-21T07:07:06Z</time>
      </trkpt>
      <trkpt lat="43.77019" lon="5.50927">
        <ele>367.841553</ele>
        <time>2011-04-21T07:07:18Z</time>
      </trkpt>
      <trkpt lat="43.77039" lon="5.50969">
        <ele>367.841553</ele>
        <time>2011-04-21T07:07:26Z</time>
      </trkpt>
      <trkpt lat="43.77053" lon="5.50989">
        <ele>363.996338</ele>
        <time>2011-04-21T07:07:30Z</time>
      </trkpt>
      <trkpt lat="43.77065" lon="5.51014">
        <ele>362.554321</ele>
        <time>2011-04-21T07:07:35Z</time>
      </trkpt>
      <trkpt lat="43.77076" lon="5.51022">
        <ele>362.07373</ele>
        <time>2011-04-21T07:07:38Z</time>
      </trkpt>
      <trkpt lat="43.77085" lon="5.5102">
        <ele>360.631714</ele>
        <time>2011-04-21T07:07:40Z</time>
      </trkpt>
      <trkpt lat="43.77143" lon="5.50993">
        <ele>360.151123</ele>
        <time>2011-04-21T07:07:54Z</time>
      </trkpt>
      <trkpt lat="43.77228" lon="5.50949">
        <ele>364.957642</ele>
        <time>2011-04-21T07:08:18Z</time>
      </trkpt>
      <trkpt lat="43.77319" lon="5.50908">
        <ele>370.244873</ele>
        <time>2011-04-21T07:08:45Z</time>
      </trkpt>
      <trkpt lat="43.77421" lon="5.50874">
        <ele>371.206299</ele>
        <time>2011-04-21T07:09:13Z</time>
      </trkpt>
      <trkpt lat="43.77622" lon="5.50797">
        <ele>376.012817</ele>
        <time>2011-04-21T07:10:12Z</time>
      </trkpt>
      <trkpt lat="43.7766" lon="5.50788">
        <ele>379.377441</ele>
        <time>2011-04-21T07:10:23Z</time>
      </trkpt>
      <trkpt lat="43.77708" lon="5.50789">
        <ele>378.416138</ele>
        <time>2011-04-21T07:10:36Z</time>
      </trkpt>
      <trkpt lat="43.77732" lon="5.50785">
        <ele>377.935425</ele>
        <time>2011-04-21T07:10:43Z</time>
      </trkpt>
      <trkpt lat="43.77744" lon="5.50789">
        <ele>378.896851</ele>
        <time>2011-04-21T07:10:47Z</time>
      </trkpt>
      <trkpt lat="43.77758" lon="5.50797">
        <ele>381.300049</ele>
        <time>2011-04-21T07:10:52Z</time>
      </trkpt>
      <trkpt lat="43.77842" lon="5.50824">
        <ele>387.067993</ele>
        <time>2011-04-21T07:11:16Z</time>
      </trkpt>
      <trkpt lat="43.77907" lon="5.50838">
        <ele>390.913208</ele>
        <time>2011-04-21T07:11:35Z</time>
      </trkpt>
      <trkpt lat="43.77944" lon="5.50842">
        <ele>393.316528</ele>
        <time>2011-04-21T07:11:46Z</time>
      </trkpt>
      <trkpt lat="43.78028" lon="5.50845">
        <ele>396.200562</ele>
        <time>2011-04-21T07:12:13Z</time>
      </trkpt>
      <trkpt lat="43.78102" lon="5.50838">
        <ele>399.565063</ele>
        <time>2011-04-21T07:12:37Z</time>
      </trkpt>
      <trkpt lat="43.78131" lon="5.50846">
        <ele>401.968506</ele>
        <time>2011-04-21T07:12:46Z</time>
      </trkpt>
      <trkpt lat="43.78179" lon="5.50867">
        <ele>406.774902</ele>
        <time>2011-04-21T07:13:03Z</time>
      </trkpt>
      <trkpt lat="43.78355" lon="5.509">
        <ele>409.659058</ele>
        <time>2011-04-21T07:13:52Z</time>
      </trkpt>
      <trkpt lat="43.78392" lon="5.50901">
        <ele>411.581665</ele>
        <time>2011-04-21T07:14:01Z</time>
      </trkpt>
      <trkpt lat="43.78428" lon="5.50907">
        <ele>413.504272</ele>
        <time>2011-04-21T07:14:10Z</time>
      </trkpt>
      <trkpt lat="43.7846" lon="5.50916">
        <ele>415.42688</ele>
        <time>2011-04-21T07:14:19Z</time>
      </trkpt>
      <trkpt lat="43.78497" lon="5.50931">
        <ele>418.791504</ele>
        <time>2011-04-21T07:14:32Z</time>
      </trkpt>
      <trkpt lat="43.7855" lon="5.50938">
        <ele>418.791504</ele>
        <time>2011-04-21T07:14:49Z</time>
      </trkpt>
      <trkpt lat="43.78578" lon="5.50944">
        <ele>420.233398</ele>
        <time>2011-04-21T07:14:58Z</time>
      </trkpt>
      <trkpt lat="43.78607" lon="5.5096">
        <ele>422.156006</ele>
        <time>2011-04-21T07:15:07Z</time>
      </trkpt>
      <trkpt lat="43.78634" lon="5.50979">
        <ele>423.117432</ele>
        <time>2011-04-21T07:15:16Z</time>
      </trkpt>
      <trkpt lat="43.78664" lon="5.50988">
        <ele>424.078735</ele>
        <time>2011-04-21T07:15:25Z</time>
      </trkpt>
      <trkpt lat="43.78721" lon="5.50999">
        <ele>424.078735</ele>
        <time>2011-04-21T07:15:43Z</time>
      </trkpt>
      <trkpt lat="43.78786" lon="5.50991">
        <ele>429.365967</ele>
        <time>2011-04-21T07:16:04Z</time>
      </trkpt>
      <trkpt lat="43.78808" lon="5.50999">
        <ele>429.365967</ele>
        <time>2011-04-21T07:16:11Z</time>
      </trkpt>
      <trkpt lat="43.78854" lon="5.51007">
        <ele>428.885376</ele>
        <time>2011-04-21T07:16:27Z</time>
      </trkpt>
      <trkpt lat="43.78874" lon="5.51008">
        <ele>432.25</ele>
        <time>2011-04-21T07:16:34Z</time>
      </trkpt>
      <trkpt lat="43.79015" lon="5.51023">
        <ele>433.211304</ele>
        <time>2011-04-21T07:17:12Z</time>
      </trkpt>
      <trkpt lat="43.79105" lon="5.51036">
        <ele>434.65332</ele>
        <time>2011-04-21T07:17:38Z</time>
      </trkpt>
      <trkpt lat="43.79121" lon="5.51045">
        <ele>438.017822</ele>
        <time>2011-04-21T07:17:44Z</time>
      </trkpt>
      <trkpt lat="43.79138" lon="5.51047">
        <ele>442.343872</ele>
        <time>2011-04-21T07:17:50Z</time>
      </trkpt>
      <trkpt lat="43.79177" lon="5.5104">
        <ele>444.74707</ele>
        <time>2011-04-21T07:18:06Z</time>
      </trkpt>
      <trkpt lat="43.79195" lon="5.51033">
        <ele>444.74707</ele>
        <time>2011-04-21T07:18:14Z</time>
      </trkpt>
      <trkpt lat="43.79222" lon="5.51014">
        <ele>451.957031</ele>
        <time>2011-04-21T07:18:28Z</time>
      </trkpt>
      <trkpt lat="43.79248" lon="5.50999">
        <ele>457.724976</ele>
        <time>2011-04-21T07:18:41Z</time>
      </trkpt>
      <trkpt lat="43.79311" lon="5.50937">
        <ele>471.66394</ele>
        <time>2011-04-21T07:19:13Z</time>
      </trkpt>
      <trkpt lat="43.79326" lon="5.50927">
        <ele>470.221924</ele>
        <time>2011-04-21T07:19:19Z</time>
      </trkpt>
      <trkpt lat="43.79378" lon="5.50909">
        <ele>472.144653</ele>
        <time>2011-04-21T07:19:42Z</time>
      </trkpt>
      <trkpt lat="43.7941" lon="5.50894">
        <ele>475.028687</ele>
        <time>2011-04-21T07:19:56Z</time>
      </trkpt>
      <trkpt lat="43.79442" lon="5.50873">
        <ele>478.393188</ele>
        <time>2011-04-21T07:20:11Z</time>
      </trkpt>
      <trkpt lat="43.79457" lon="5.50859">
        <ele>479.835083</ele>
        <time>2011-04-21T07:20:18Z</time>
      </trkpt>
      <trkpt lat="43.7947" lon="5.5085">
        <ele>481.757812</ele>
        <time>2011-04-21T07:20:25Z</time>
      </trkpt>
      <trkpt lat="43.79496" lon="5.50824">
        <ele>484.161133</ele>
        <time>2011-04-21T07:20:39Z</time>
      </trkpt>
      <trkpt lat="43.79522" lon="5.50802">
        <ele>487.525635</ele>
        <time>2011-04-21T07:20:50Z</time>
      </trkpt>
      <trkpt lat="43.79539" lon="5.50798">
        <ele>485.603027</ele>
        <time>2011-04-21T07:20:54Z</time>
      </trkpt>
      <trkpt lat="43.79553" lon="5.50803">
        <ele>484.161133</ele>
        <time>2011-04-21T07:20:58Z</time>
      </trkpt>
      <trkpt lat="43.796" lon="5.50809">
        <ele>479.835083</ele>
        <time>2011-04-21T07:21:11Z</time>
      </trkpt>
      <trkpt lat="43.79622" lon="5.50811">
        <ele>478.873901</ele>
        <time>2011-04-21T07:21:17Z</time>
      </trkpt>
      <trkpt lat="43.79643" lon="5.50817">
        <ele>477.912476</ele>
        <time>2011-04-21T07:21:24Z</time>
      </trkpt>
      <trkpt lat="43.79668" lon="5.50834">
        <ele>481.757812</ele>
        <time>2011-04-21T07:21:36Z</time>
      </trkpt>
      <trkpt lat="43.79684" lon="5.50836">
        <ele>482.719238</ele>
        <time>2011-04-21T07:21:43Z</time>
      </trkpt>
      <trkpt lat="43.79694" lon="5.5083">
        <ele>486.08374</ele>
        <time>2011-04-21T07:21:49Z</time>
      </trkpt>
      <trkpt lat="43.797" lon="5.50823">
        <ele>490.40979</ele>
        <time>2011-04-21T07:21:55Z</time>
      </trkpt>
      <trkpt lat="43.79709" lon="5.50817">
        <ele>491.370972</ele>
        <time>2011-04-21T07:22:01Z</time>
      </trkpt>
      <trkpt lat="43.79736" lon="5.50809">
        <ele>492.812988</ele>
        <time>2011-04-21T07:22:15Z</time>
      </trkpt>
      <trkpt lat="43.79763" lon="5.50797">
        <ele>493.774292</ele>
        <time>2011-04-21T07:22:29Z</time>
      </trkpt>
      <trkpt lat="43.79778" lon="5.50794">
        <ele>496.658325</ele>
        <time>2011-04-21T07:22:37Z</time>
      </trkpt>
      <trkpt lat="43.79817" lon="5.50774">
        <ele>503.868164</ele>
        <time>2011-04-21T07:22:59Z</time>
      </trkpt>
      <trkpt lat="43.79835" lon="5.50767">
        <ele>502.906738</ele>
        <time>2011-04-21T07:23:07Z</time>
      </trkpt>
      <trkpt lat="43.79852" lon="5.50763">
        <ele>502.426147</ele>
        <time>2011-04-21T07:23:14Z</time>
      </trkpt>
      <trkpt lat="43.79863" lon="5.50757">
        <ele>506.271484</ele>
        <time>2011-04-21T07:23:21Z</time>
      </trkpt>
      <trkpt lat="43.79875" lon="5.50745">
        <ele>509.636108</ele>
        <time>2011-04-21T07:23:28Z</time>
      </trkpt>
      <trkpt lat="43.79887" lon="5.50737">
        <ele>509.636108</ele>
        <time>2011-04-21T07:23:34Z</time>
      </trkpt>
      <trkpt lat="43.79901" lon="5.50737">
        <ele>509.636108</ele>
        <time>2011-04-21T07:23:40Z</time>
      </trkpt>
      <trkpt lat="43.79913" lon="5.50747">
        <ele>510.59729</ele>
        <time>2011-04-21T07:23:46Z</time>
      </trkpt>
      <trkpt lat="43.79921" lon="5.5075">
        <ele>511.078003</ele>
        <time>2011-04-21T07:23:50Z</time>
      </trkpt>
      <trkpt lat="43.79951" lon="5.50739">
        <ele>514.92334</ele>
        <time>2011-04-21T07:24:06Z</time>
      </trkpt>
      <trkpt lat="43.79967" lon="5.50736">
        <ele>516.845947</ele>
        <time>2011-04-21T07:24:14Z</time>
      </trkpt>
      <trkpt lat="43.79982" lon="5.50724">
        <ele>518.287842</ele>
        <time>2011-04-21T07:24:23Z</time>
      </trkpt>
      <trkpt lat="43.7999" lon="5.50713">
        <ele>520.691284</ele>
        <time>2011-04-21T07:24:29Z</time>
      </trkpt>
      <trkpt lat="43.80003" lon="5.50704">
        <ele>524.536499</ele>
        <time>2011-04-21T07:24:37Z</time>
      </trkpt>
      <trkpt lat="43.80025" lon="5.50679">
        <ele>529.82373</ele>
        <time>2011-04-21T07:24:50Z</time>
      </trkpt>
      <trkpt lat="43.80046" lon="5.50659">
        <ele>533.668945</ele>
        <time>2011-04-21T07:25:03Z</time>
      </trkpt>
      <trkpt lat="43.80052" lon="5.50645">
        <ele>534.630371</ele>
        <time>2011-04-21T07:25:09Z</time>
      </trkpt>
      <trkpt lat="43.80055" lon="5.50631">
        <ele>537.514282</ele>
        <time>2011-04-21T07:25:15Z</time>
      </trkpt>
      <trkpt lat="43.8006" lon="5.50618">
        <ele>538.475708</ele>
        <time>2011-04-21T07:25:21Z</time>
      </trkpt>
      <trkpt lat="43.8007" lon="5.50609">
        <ele>539.917603</ele>
        <time>2011-04-21T07:25:27Z</time>
      </trkpt>
      <trkpt lat="43.80081" lon="5.50607">
        <ele>538.956299</ele>
        <time>2011-04-21T07:25:33Z</time>
      </trkpt>
      <trkpt lat="43.80094" lon="5.50611">
        <ele>536.553101</ele>
        <time>2011-04-21T07:25:41Z</time>
      </trkpt>
      <trkpt lat="43.80129" lon="5.50661">
        <ele>544.243652</ele>
        <time>2011-04-21T07:26:10Z</time>
      </trkpt>
      <trkpt lat="43.80149" lon="5.50681">
        <ele>547.127441</ele>
        <time>2011-04-21T07:26:22Z</time>
      </trkpt>
      <trkpt lat="43.80176" lon="5.50688">
        <ele>546.646851</ele>
        <time>2011-04-21T07:26:34Z</time>
      </trkpt>
      <trkpt lat="43.80191" lon="5.50687">
        <ele>543.762817</ele>
        <time>2011-04-21T07:26:39Z</time>
      </trkpt>
      <trkpt lat="43.80211" lon="5.5069">
        <ele>541.84021</ele>
        <time>2011-04-21T07:26:43Z</time>
      </trkpt>
      <trkpt lat="43.80231" lon="5.50706">
        <ele>541.359497</ele>
        <time>2011-04-21T07:26:47Z</time>
      </trkpt>
      <trkpt lat="43.80251" lon="5.50728">
        <ele>540.878906</ele>
        <time>2011-04-21T07:26:52Z</time>
      </trkpt>
      <trkpt lat="43.80279" lon="5.50748">
        <ele>540.398315</ele>
        <time>2011-04-21T07:27:00Z</time>
      </trkpt>
      <trkpt lat="43.80296" lon="5.50766">
        <ele>540.878906</ele>
        <time>2011-04-21T07:27:06Z</time>
      </trkpt>
      <trkpt lat="43.80319" lon="5.50812">
        <ele>545.685547</ele>
        <time>2011-04-21T07:27:18Z</time>
      </trkpt>
      <trkpt lat="43.80347" lon="5.50833">
        <ele>545.685547</ele>
        <time>2011-04-21T07:27:27Z</time>
      </trkpt>
      <trkpt lat="43.80376" lon="5.50835">
        <ele>547.127441</ele>
        <time>2011-04-21T07:27:36Z</time>
      </trkpt>
      <trkpt lat="43.80392" lon="5.50855">
        <ele>551.934082</ele>
        <time>2011-04-21T07:27:47Z</time>
      </trkpt>
      <trkpt lat="43.80407" lon="5.50905">
        <ele>561.547363</ele>
        <time>2011-04-21T07:28:10Z</time>
      </trkpt>
      <trkpt lat="43.80407" lon="5.50928">
        <ele>567.795654</ele>
        <time>2011-04-21T07:28:20Z</time>
      </trkpt>
      <trkpt lat="43.80401" lon="5.50987">
        <ele>578.851074</ele>
        <time>2011-04-21T07:28:47Z</time>
      </trkpt>
      <trkpt lat="43.80405" lon="5.51002">
        <ele>579.331543</ele>
        <time>2011-04-21T07:28:55Z</time>
      </trkpt>
      <trkpt lat="43.80412" lon="5.51015">
        <ele>580.292969</ele>
        <time>2011-04-21T07:29:02Z</time>
      </trkpt>
      <trkpt lat="43.80433" lon="5.51042">
        <ele>577.889648</ele>
        <time>2011-04-21T07:29:19Z</time>
      </trkpt>
      <trkpt lat="43.80445" lon="5.51052">
        <ele>578.370361</ele>
        <time>2011-04-21T07:29:26Z</time>
      </trkpt>
      <trkpt lat="43.80463" lon="5.51059">
        <ele>572.602539</ele>
        <time>2011-04-21T07:29:34Z</time>
      </trkpt>
      <trkpt lat="43.80468" lon="5.51068">
        <ele>572.121826</ele>
        <time>2011-04-21T07:29:38Z</time>
      </trkpt>
      <trkpt lat="43.80462" lon="5.511">
        <ele>575.005859</ele>
        <time>2011-04-21T07:29:50Z</time>
      </trkpt>
      <trkpt lat="43.80473" lon="5.51156">
        <ele>577.889648</ele>
        <time>2011-04-21T07:30:15Z</time>
      </trkpt>
      <trkpt lat="43.80482" lon="5.51186">
        <ele>582.696289</ele>
        <time>2011-04-21T07:30:29Z</time>
      </trkpt>
      <trkpt lat="43.805" lon="5.51233">
        <ele>589.425537</ele>
        <time>2011-04-21T07:30:50Z</time>
      </trkpt>
      <trkpt lat="43.805" lon="5.51243">
        <ele>590.386963</ele>
        <time>2011-04-21T07:30:54Z</time>
      </trkpt>
      <trkpt lat="43.80505" lon="5.51258">
        <ele>591.828857</ele>
        <time>2011-04-21T07:31:01Z</time>
      </trkpt>
      <trkpt lat="43.80524" lon="5.51284">
        <ele>594.712646</ele>
        <time>2011-04-21T07:31:16Z</time>
      </trkpt>
      <trkpt lat="43.80537" lon="5.51285">
        <ele>594.712646</ele>
        <time>2011-04-21T07:31:23Z</time>
      </trkpt>
      <trkpt lat="43.80541" lon="5.51298">
        <ele>599.038574</ele>
        <time>2011-04-21T07:32:19Z</time>
      </trkpt>
      <trkpt lat="43.8056" lon="5.51291">
        <ele>597.115967</ele>
        <time>2011-04-21T07:32:31Z</time>
      </trkpt>
      <trkpt lat="43.80577" lon="5.5129">
        <ele>597.115967</ele>
        <time>2011-04-21T07:32:38Z</time>
      </trkpt>
      <trkpt lat="43.80614" lon="5.51295">
        <ele>598.557861</ele>
        <time>2011-04-21T07:32:58Z</time>
      </trkpt>
      <trkpt lat="43.80627" lon="5.51307">
        <ele>598.557861</ele>
        <time>2011-04-21T07:33:05Z</time>
      </trkpt>
      <trkpt lat="43.8065" lon="5.51343">
        <ele>600.480713</ele>
        <time>2011-04-21T07:33:18Z</time>
      </trkpt>
      <trkpt lat="43.80675" lon="5.51368">
        <ele>600</ele>
        <time>2011-04-21T07:33:26Z</time>
      </trkpt>
      <trkpt lat="43.80683" lon="5.51417">
        <ele>600.961182</ele>
        <time>2011-04-21T07:33:36Z</time>
      </trkpt>
      <trkpt lat="43.80687" lon="5.51452">
        <ele>603.364502</ele>
        <time>2011-04-21T07:33:42Z</time>
      </trkpt>
      <trkpt lat="43.8068" lon="5.51509">
        <ele>610.574463</ele>
        <time>2011-04-21T07:33:55Z</time>
      </trkpt>
      <trkpt lat="43.80671" lon="5.51534">
        <ele>610.574463</ele>
        <time>2011-04-21T07:34:01Z</time>
      </trkpt>
      <trkpt lat="43.80647" lon="5.51562">
        <ele>607.690674</ele>
        <time>2011-04-21T07:34:12Z</time>
      </trkpt>
      <trkpt lat="43.80637" lon="5.51577">
        <ele>609.132568</ele>
        <time>2011-04-21T07:34:18Z</time>
      </trkpt>
      <trkpt lat="43.80624" lon="5.51615">
        <ele>613.938965</ele>
        <time>2011-04-21T07:34:33Z</time>
      </trkpt>
      <trkpt lat="43.80625" lon="5.51632">
        <ele>615.861816</ele>
        <time>2011-04-21T07:34:40Z</time>
      </trkpt>
      <trkpt lat="43.80632" lon="5.51675">
        <ele>619.707031</ele>
        <time>2011-04-21T07:35:00Z</time>
      </trkpt>
      <trkpt lat="43.8064" lon="5.51686">
        <ele>620.187744</ele>
        <time>2011-04-21T07:35:07Z</time>
      </trkpt>
      <trkpt lat="43.80652" lon="5.51695">
        <ele>622.110352</ele>
        <time>2011-04-21T07:35:15Z</time>
      </trkpt>
      <trkpt lat="43.80661" lon="5.51707">
        <ele>626.436279</ele>
        <time>2011-04-21T07:35:23Z</time>
      </trkpt>
      <trkpt lat="43.80674" lon="5.51752">
        <ele>630.762207</ele>
        <time>2011-04-21T07:35:45Z</time>
      </trkpt>
      <trkpt lat="43.80696" lon="5.51803">
        <ele>635.568604</ele>
        <time>2011-04-21T07:36:12Z</time>
      </trkpt>
      <trkpt lat="43.80703" lon="5.51824">
        <ele>637.491455</ele>
        <time>2011-04-21T07:36:21Z</time>
      </trkpt>
      <trkpt lat="43.80712" lon="5.51863">
        <ele>639.894775</ele>
        <time>2011-04-21T07:36:35Z</time>
      </trkpt>
      <trkpt lat="43.80722" lon="5.51921">
        <ele>636.530273</ele>
        <time>2011-04-21T07:36:54Z</time>
      </trkpt>
      <trkpt lat="43.80722" lon="5.5194">
        <ele>634.126709</ele>
        <time>2011-04-21T07:37:00Z</time>
      </trkpt>
      <trkpt lat="43.80713" lon="5.51949">
        <ele>633.165283</ele>
        <time>2011-04-21T07:37:04Z</time>
      </trkpt>
      <trkpt lat="43.80703" lon="5.51954">
        <ele>632.684814</ele>
        <time>2011-04-21T07:37:07Z</time>
      </trkpt>
      <trkpt lat="43.80691" lon="5.51982">
        <ele>631.24292</ele>
        <time>2011-04-21T07:37:12Z</time>
      </trkpt>
      <trkpt lat="43.80688" lon="5.52009">
        <ele>629.320068</ele>
        <time>2011-04-21T07:37:15Z</time>
      </trkpt>
      <trkpt lat="43.80698" lon="5.52042">
        <ele>627.878174</ele>
        <time>2011-04-21T07:37:19Z</time>
      </trkpt>
      <trkpt lat="43.80717" lon="5.52053">
        <ele>625.955566</ele>
        <time>2011-04-21T07:37:22Z</time>
      </trkpt>
      <trkpt lat="43.80729" lon="5.52056">
        <ele>624.994385</ele>
        <time>2011-04-21T07:37:24Z</time>
      </trkpt>
      <trkpt lat="43.80733" lon="5.52075">
        <ele>623.55249</ele>
        <time>2011-04-21T07:37:28Z</time>
      </trkpt>
      <trkpt lat="43.80722" lon="5.52092">
        <ele>624.513672</ele>
        <time>2011-04-21T07:37:32Z</time>
      </trkpt>
      <trkpt lat="43.80716" lon="5.52107">
        <ele>624.032959</ele>
        <time>2011-04-21T07:37:35Z</time>
      </trkpt>
      <trkpt lat="43.80708" lon="5.52143">
        <ele>624.994385</ele>
        <time>2011-04-21T07:37:43Z</time>
      </trkpt>
      <trkpt lat="43.80709" lon="5.52169">
        <ele>624.513672</ele>
        <time>2011-04-21T07:37:47Z</time>
      </trkpt>
      <trkpt lat="43.80693" lon="5.52232">
        <ele>620.668457</ele>
        <time>2011-04-21T07:37:56Z</time>
      </trkpt>
      <trkpt lat="43.807" lon="5.52261">
        <ele>618.745605</ele>
        <time>2011-04-21T07:38:00Z</time>
      </trkpt>
      <trkpt lat="43.80714" lon="5.52283">
        <ele>616.822998</ele>
        <time>2011-04-21T07:38:03Z</time>
      </trkpt>
      <trkpt lat="43.80718" lon="5.52293">
        <ele>616.342285</ele>
        <time>2011-04-21T07:38:04Z</time>
      </trkpt>
      <trkpt lat="43.80725" lon="5.52356">
        <ele>614.900391</ele>
        <time>2011-04-21T07:38:12Z</time>
      </trkpt>
      <trkpt lat="43.80745" lon="5.52419">
        <ele>617.78418</ele>
        <time>2011-04-21T07:38:23Z</time>
      </trkpt>
      <trkpt lat="43.80746" lon="5.52436">
        <ele>620.187744</ele>
        <time>2011-04-21T07:38:28Z</time>
      </trkpt>
      <trkpt lat="43.80748" lon="5.52444">
        <ele>622.110352</ele>
        <time>2011-04-21T07:38:32Z</time>
      </trkpt>
      <trkpt lat="43.80754" lon="5.52454">
        <ele>623.55249</ele>
        <time>2011-04-21T07:38:39Z</time>
      </trkpt>
      <trkpt lat="43.80765" lon="5.52463">
        <ele>622.110352</ele>
        <time>2011-04-21T07:38:47Z</time>
      </trkpt>
      <trkpt lat="43.80776" lon="5.52466">
        <ele>624.032959</ele>
        <time>2011-04-21T07:38:53Z</time>
      </trkpt>
      <trkpt lat="43.80802" lon="5.52477">
        <ele>625.955566</ele>
        <time>2011-04-21T07:39:08Z</time>
      </trkpt>
      <trkpt lat="43.80812" lon="5.52479">
        <ele>628.8396</ele>
        <time>2011-04-21T07:39:14Z</time>
      </trkpt>
      <trkpt lat="43.80824" lon="5.52472">
        <ele>633.165283</ele>
        <time>2011-04-21T07:39:22Z</time>
      </trkpt>
      <trkpt lat="43.80833" lon="5.52471">
        <ele>636.049561</ele>
        <time>2011-04-21T07:39:28Z</time>
      </trkpt>
      <trkpt lat="43.80877" lon="5.52444">
        <ele>639.894775</ele>
        <time>2011-04-21T07:39:56Z</time>
      </trkpt>
      <trkpt lat="43.80908" lon="5.52439">
        <ele>639.894775</ele>
        <time>2011-04-21T07:40:11Z</time>
      </trkpt>
      <trkpt lat="43.80924" lon="5.52439">
        <ele>637.972168</ele>
        <time>2011-04-21T07:40:15Z</time>
      </trkpt>
      <trkpt lat="43.8093" lon="5.52447">
        <ele>637.010742</ele>
        <time>2011-04-21T07:40:17Z</time>
      </trkpt>
      <trkpt lat="43.80923" lon="5.52487">
        <ele>640.375488</ele>
        <time>2011-04-21T07:40:28Z</time>
      </trkpt>
      <trkpt lat="43.80947" lon="5.52506">
        <ele>640.855957</ele>
        <time>2011-04-21T07:40:35Z</time>
      </trkpt>
      <trkpt lat="43.80946" lon="5.52526">
        <ele>640.855957</ele>
        <time>2011-04-21T07:40:39Z</time>
      </trkpt>
      <trkpt lat="43.80931" lon="5.52552">
        <ele>639.414062</ele>
        <time>2011-04-21T07:40:45Z</time>
      </trkpt>
      <trkpt lat="43.80911" lon="5.52569">
        <ele>637.010742</ele>
        <time>2011-04-21T07:40:51Z</time>
      </trkpt>
      <trkpt lat="43.80862" lon="5.52599">
        <ele>636.530273</ele>
        <time>2011-04-21T07:41:03Z</time>
      </trkpt>
      <trkpt lat="43.80844" lon="5.52617">
        <ele>636.049561</ele>
        <time>2011-04-21T07:41:07Z</time>
      </trkpt>
      <trkpt lat="43.80832" lon="5.52635">
        <ele>634.126709</ele>
        <time>2011-04-21T07:41:11Z</time>
      </trkpt>
      <trkpt lat="43.80821" lon="5.52655">
        <ele>637.010742</ele>
        <time>2011-04-21T07:41:15Z</time>
      </trkpt>
      <trkpt lat="43.8082" lon="5.52685">
        <ele>641.33667</ele>
        <time>2011-04-21T07:41:22Z</time>
      </trkpt>
      <trkpt lat="43.80827" lon="5.52711">
        <ele>643.259277</ele>
        <time>2011-04-21T07:41:29Z</time>
      </trkpt>
      <trkpt lat="43.80838" lon="5.52732">
        <ele>644.701172</ele>
        <time>2011-04-21T07:41:35Z</time>
      </trkpt>
      <trkpt lat="43.80851" lon="5.5275">
        <ele>645.662598</ele>
        <time>2011-04-21T07:41:41Z</time>
      </trkpt>
      <trkpt lat="43.80868" lon="5.52766">
        <ele>646.624023</ele>
        <time>2011-04-21T07:41:47Z</time>
      </trkpt>
      <trkpt lat="43.80897" lon="5.52764">
        <ele>647.104492</ele>
        <time>2011-04-21T07:41:57Z</time>
      </trkpt>
      <trkpt lat="43.80912" lon="5.52767">
        <ele>649.0271</ele>
        <time>2011-04-21T07:42:03Z</time>
      </trkpt>
      <trkpt lat="43.80932" lon="5.52765">
        <ele>650.469238</ele>
        <time>2011-04-21T07:42:10Z</time>
      </trkpt>
      <trkpt lat="43.80961" lon="5.52757">
        <ele>653.833984</ele>
        <time>2011-04-21T07:42:21Z</time>
      </trkpt>
      <trkpt lat="43.80979" lon="5.52749">
        <ele>655.756592</ele>
        <time>2011-04-21T07:42:28Z</time>
      </trkpt>
      <trkpt lat="43.81011" lon="5.52725">
        <ele>656.237061</ele>
        <time>2011-04-21T07:42:42Z</time>
      </trkpt>
      <trkpt lat="43.81031" lon="5.52716">
        <ele>654.795166</ele>
        <time>2011-04-21T07:42:50Z</time>
      </trkpt>
      <trkpt lat="43.81035" lon="5.52719">
        <ele>655.275879</ele>
        <time>2011-04-21T07:42:52Z</time>
      </trkpt>
      <trkpt lat="43.81039" lon="5.52729">
        <ele>656.717773</ele>
        <time>2011-04-21T07:42:56Z</time>
      </trkpt>
      <trkpt lat="43.81039" lon="5.52744">
        <ele>657.679199</ele>
        <time>2011-04-21T07:43:04Z</time>
      </trkpt>
      <trkpt lat="43.81046" lon="5.5276">
        <ele>661.043701</ele>
        <time>2011-04-21T07:43:13Z</time>
      </trkpt>
      <trkpt lat="43.81057" lon="5.5277">
        <ele>661.524414</ele>
        <time>2011-04-21T07:43:22Z</time>
      </trkpt>
      <trkpt lat="43.81064" lon="5.52781">
        <ele>663.92749</ele>
        <time>2011-04-21T07:43:29Z</time>
      </trkpt>
      <trkpt lat="43.81064" lon="5.52785">
        <ele>665.369629</ele>
        <time>2011-04-21T07:43:31Z</time>
      </trkpt>
      <trkpt lat="43.81057" lon="5.52797">
        <ele>664.888916</ele>
        <time>2011-04-21T07:43:36Z</time>
      </trkpt>
      <trkpt lat="43.81032" lon="5.52818">
        <ele>662.005127</ele>
        <time>2011-04-21T07:43:42Z</time>
      </trkpt>
      <trkpt lat="43.81011" lon="5.52845">
        <ele>659.121094</ele>
        <time>2011-04-21T07:43:46Z</time>
      </trkpt>
      <trkpt lat="43.80999" lon="5.52878">
        <ele>658.159912</ele>
        <time>2011-04-21T07:43:50Z</time>
      </trkpt>
      <trkpt lat="43.80995" lon="5.52914">
        <ele>658.640381</ele>
        <time>2011-04-21T07:43:54Z</time>
      </trkpt>
      <trkpt lat="43.80984" lon="5.52927">
        <ele>657.679199</ele>
        <time>2011-04-21T07:43:56Z</time>
      </trkpt>
      <trkpt lat="43.80954" lon="5.52972">
        <ele>649.507812</ele>
        <time>2011-04-21T07:44:01Z</time>
      </trkpt>
      <trkpt lat="43.80946" lon="5.52995">
        <ele>646.143311</ele>
        <time>2011-04-21T07:44:03Z</time>
      </trkpt>
      <trkpt lat="43.80905" lon="5.53056">
        <ele>635.568604</ele>
        <time>2011-04-21T07:44:10Z</time>
      </trkpt>
      <trkpt lat="43.80892" lon="5.53094">
        <ele>631.24292</ele>
        <time>2011-04-21T07:44:14Z</time>
      </trkpt>
      <trkpt lat="43.8089" lon="5.5313">
        <ele>628.358887</ele>
        <time>2011-04-21T07:44:17Z</time>
      </trkpt>
      <trkpt lat="43.80882" lon="5.53149">
        <ele>627.397705</ele>
        <time>2011-04-21T07:44:19Z</time>
      </trkpt>
      <trkpt lat="43.80872" lon="5.53167">
        <ele>626.916992</ele>
        <time>2011-04-21T07:44:21Z</time>
      </trkpt>
      <trkpt lat="43.80858" lon="5.53199">
        <ele>627.397705</ele>
        <time>2011-04-21T07:44:25Z</time>
      </trkpt>
      <trkpt lat="43.80851" lon="5.53231">
        <ele>629.320068</ele>
        <time>2011-04-21T07:44:31Z</time>
      </trkpt>
      <trkpt lat="43.80841" lon="5.53295">
        <ele>638.452881</ele>
        <time>2011-04-21T07:44:44Z</time>
      </trkpt>
      <trkpt lat="43.8083" lon="5.53316">
        <ele>636.049561</ele>
        <time>2011-04-21T07:44:48Z</time>
      </trkpt>
      <trkpt lat="43.80824" lon="5.53337">
        <ele>635.088135</ele>
        <time>2011-04-21T07:44:52Z</time>
      </trkpt>
      <trkpt lat="43.80852" lon="5.53357">
        <ele>634.607422</ele>
        <time>2011-04-21T07:45:10Z</time>
      </trkpt>
      <trkpt lat="43.80869" lon="5.53386">
        <ele>637.010742</ele>
        <time>2011-04-21T07:45:25Z</time>
      </trkpt>
      <trkpt lat="43.80881" lon="5.53387">
        <ele>636.530273</ele>
        <time>2011-04-21T07:45:33Z</time>
      </trkpt>
      <trkpt lat="43.80914" lon="5.53383">
        <ele>643.73999</ele>
        <time>2011-04-21T07:45:56Z</time>
      </trkpt>
      <trkpt lat="43.80951" lon="5.5339">
        <ele>652.872559</ele>
        <time>2011-04-21T07:46:25Z</time>
      </trkpt>
      <trkpt lat="43.80975" lon="5.53406">
        <ele>659.121094</ele>
        <time>2011-04-21T07:46:45Z</time>
      </trkpt>
      <trkpt lat="43.81014" lon="5.53441">
        <ele>664.408203</ele>
        <time>2011-04-21T07:47:12Z</time>
      </trkpt>
      <trkpt lat="43.81041" lon="5.53479">
        <ele>667.772705</ele>
        <time>2011-04-21T07:47:27Z</time>
      </trkpt>
      <trkpt lat="43.8106" lon="5.53495">
        <ele>669.695801</ele>
        <time>2011-04-21T07:47:39Z</time>
      </trkpt>
      <trkpt lat="43.81062" lon="5.53499">
        <ele>670.17627</ele>
        <time>2011-04-21T07:47:41Z</time>
      </trkpt>
      <trkpt lat="43.81063" lon="5.53519">
        <ele>668.734375</ele>
        <time>2011-04-21T07:47:48Z</time>
      </trkpt>
      <trkpt lat="43.8106" lon="5.53607">
        <ele>675.463379</ele>
        <time>2011-04-21T07:48:10Z</time>
      </trkpt>
      <trkpt lat="43.81061" lon="5.53642">
        <ele>673.060303</ele>
        <time>2011-04-21T07:48:16Z</time>
      </trkpt>
      <trkpt lat="43.81059" lon="5.53692">
        <ele>670.656982</ele>
        <time>2011-04-21T07:48:23Z</time>
      </trkpt>
      <trkpt lat="43.81054" lon="5.53744">
        <ele>668.734375</ele>
        <time>2011-04-21T07:48:30Z</time>
      </trkpt>
      <trkpt lat="43.81052" lon="5.53795">
        <ele>669.695801</ele>
        <time>2011-04-21T07:48:39Z</time>
      </trkpt>
      <trkpt lat="43.81058" lon="5.5383">
        <ele>671.618164</ele>
        <time>2011-04-21T07:48:47Z</time>
      </trkpt>
      <trkpt lat="43.8107" lon="5.53865">
        <ele>672.57959</ele>
        <time>2011-04-21T07:48:59Z</time>
      </trkpt>
      <trkpt lat="43.81078" lon="5.53901">
        <ele>675.463379</ele>
        <time>2011-04-21T07:49:12Z</time>
      </trkpt>
      <trkpt lat="43.81097" lon="5.53939">
        <ele>679.308594</ele>
        <time>2011-04-21T07:49:28Z</time>
      </trkpt>
      <trkpt lat="43.81103" lon="5.53961">
        <ele>679.789307</ele>
        <time>2011-04-21T07:49:36Z</time>
      </trkpt>
      <trkpt lat="43.81106" lon="5.54003">
        <ele>682.67334</ele>
        <time>2011-04-21T07:49:51Z</time>
      </trkpt>
      <trkpt lat="43.81105" lon="5.54035">
        <ele>687.960693</ele>
        <time>2011-04-21T07:50:03Z</time>
      </trkpt>
      <trkpt lat="43.81123" lon="5.54075">
        <ele>684.115479</ele>
        <time>2011-04-21T07:50:21Z</time>
      </trkpt>
      <trkpt lat="43.81132" lon="5.54108">
        <ele>688.441406</ele>
        <time>2011-04-21T07:50:34Z</time>
      </trkpt>
      <trkpt lat="43.81146" lon="5.54208">
        <ele>699.496338</ele>
        <time>2011-04-21T07:51:10Z</time>
      </trkpt>
      <trkpt lat="43.81155" lon="5.54244">
        <ele>705.264404</ele>
        <time>2011-04-21T07:51:23Z</time>
      </trkpt>
      <trkpt lat="43.81163" lon="5.54257">
        <ele>705.264404</ele>
        <time>2011-04-21T07:51:29Z</time>
      </trkpt>
      <trkpt lat="43.81172" lon="5.54279">
        <ele>706.225586</ele>
        <time>2011-04-21T07:51:37Z</time>
      </trkpt>
      <trkpt lat="43.81174" lon="5.54307">
        <ele>706.225586</ele>
        <time>2011-04-21T07:51:45Z</time>
      </trkpt>
      <trkpt lat="43.8117" lon="5.54369">
        <ele>707.667725</ele>
        <time>2011-04-21T07:51:59Z</time>
      </trkpt>
      <trkpt lat="43.81166" lon="5.54395">
        <ele>706.225586</ele>
        <time>2011-04-21T07:52:05Z</time>
      </trkpt>
      <trkpt lat="43.81158" lon="5.5443">
        <ele>706.706299</ele>
        <time>2011-04-21T07:52:13Z</time>
      </trkpt>
      <trkpt lat="43.81142" lon="5.54569">
        <ele>701.899902</ele>
        <time>2011-04-21T07:52:42Z</time>
      </trkpt>
      <trkpt lat="43.81133" lon="5.54611">
        <ele>702.380371</ele>
        <time>2011-04-21T07:52:51Z</time>
      </trkpt>
      <trkpt lat="43.81113" lon="5.54675">
        <ele>705.745117</ele>
        <time>2011-04-21T07:53:05Z</time>
      </trkpt>
      <trkpt lat="43.81097" lon="5.54751">
        <ele>703.82251</ele>
        <time>2011-04-21T07:53:22Z</time>
      </trkpt>
      <trkpt lat="43.81085" lon="5.54776">
        <ele>702.861084</ele>
        <time>2011-04-21T07:53:29Z</time>
      </trkpt>
      <trkpt lat="43.81074" lon="5.54802">
        <ele>701.899902</ele>
        <time>2011-04-21T07:53:36Z</time>
      </trkpt>
      <trkpt lat="43.81065" lon="5.54831">
        <ele>704.303223</ele>
        <time>2011-04-21T07:53:45Z</time>
      </trkpt>
      <trkpt lat="43.81067" lon="5.54832">
        <ele>706.225586</ele>
        <time>2011-04-21T07:53:50Z</time>
      </trkpt>
      <trkpt lat="43.81075" lon="5.54822">
        <ele>706.225586</ele>
        <time>2011-04-21T07:53:57Z</time>
      </trkpt>
      <trkpt lat="43.81084" lon="5.54821">
        <ele>706.225586</ele>
        <time>2011-04-21T07:54:03Z</time>
      </trkpt>
      <trkpt lat="43.81088" lon="5.54826">
        <ele>709.590332</ele>
        <time>2011-04-21T07:54:10Z</time>
      </trkpt>
      <trkpt lat="43.81089" lon="5.54839">
        <ele>713.435547</ele>
        <time>2011-04-21T07:54:17Z</time>
      </trkpt>
      <trkpt lat="43.81098" lon="5.54869">
        <ele>720.645508</ele>
        <time>2011-04-21T07:54:35Z</time>
      </trkpt>
      <trkpt lat="43.81117" lon="5.54915">
        <ele>725.932617</ele>
        <time>2011-04-21T07:55:05Z</time>
      </trkpt>
      <trkpt lat="43.81133" lon="5.54939">
        <ele>730.258545</ele>
        <time>2011-04-21T07:55:24Z</time>
      </trkpt>
      <trkpt lat="43.81131" lon="5.54954">
        <ele>732.662109</ele>
        <time>2011-04-21T07:55:31Z</time>
      </trkpt>
      <trkpt lat="43.81124" lon="5.54968">
        <ele>734.104004</ele>
        <time>2011-04-21T07:55:39Z</time>
      </trkpt>
      <trkpt lat="43.81108" lon="5.55007">
        <ele>736.026611</ele>
        <time>2011-04-21T07:56:03Z</time>
      </trkpt>
      <trkpt lat="43.81098" lon="5.55038">
        <ele>744.197754</ele>
        <time>2011-04-21T07:56:18Z</time>
      </trkpt>
      <trkpt lat="43.81096" lon="5.55052">
        <ele>748.043213</ele>
        <time>2011-04-21T07:56:25Z</time>
      </trkpt>
      <trkpt lat="43.81093" lon="5.55104">
        <ele>749.96582</ele>
        <time>2011-04-21T07:56:51Z</time>
      </trkpt>
      <trkpt lat="43.81086" lon="5.55179">
        <ele>759.098145</ele>
        <time>2011-04-21T07:57:27Z</time>
      </trkpt>
      <trkpt lat="43.81087" lon="5.55195">
        <ele>758.617432</ele>
        <time>2011-04-21T07:57:35Z</time>
      </trkpt>
      <trkpt lat="43.81083" lon="5.55215">
        <ele>760.540039</ele>
        <time>2011-04-21T07:57:45Z</time>
      </trkpt>
      <trkpt lat="43.81085" lon="5.55241">
        <ele>760.540039</ele>
        <time>2011-04-21T07:57:57Z</time>
      </trkpt>
      <trkpt lat="43.81087" lon="5.55256">
        <ele>761.982178</ele>
        <time>2011-04-21T07:58:06Z</time>
      </trkpt>
      <trkpt lat="43.81096" lon="5.55261">
        <ele>758.136963</ele>
        <time>2011-04-21T07:58:36Z</time>
      </trkpt>
      <trkpt lat="43.81089" lon="5.55263">
        <ele>764.866211</ele>
        <time>2011-04-21T07:59:23Z</time>
      </trkpt>
      <trkpt lat="43.81093" lon="5.55265">
        <ele>761.501465</ele>
        <time>2011-04-21T07:59:31Z</time>
      </trkpt>
      <trkpt lat="43.81094" lon="5.55261">
        <ele>757.65625</ele>
        <time>2011-04-21T08:02:10Z</time>
      </trkpt>
      <trkpt lat="43.81094" lon="5.55265">
        <ele>762.943359</ele>
        <time>2011-04-21T08:02:18Z</time>
      </trkpt>
      <trkpt lat="43.81095" lon="5.55258">
        <ele>768.711426</ele>
        <time>2011-04-21T08:02:50Z</time>
      </trkpt>
      <trkpt lat="43.81108" lon="5.55222">
        <ele>770.15332</ele>
        <time>2011-04-21T08:03:13Z</time>
      </trkpt>
      <trkpt lat="43.81128" lon="5.55188">
        <ele>762.462646</ele>
        <time>2011-04-21T08:03:35Z</time>
      </trkpt>
      <trkpt lat="43.81143" lon="5.55153">
        <ele>770.634033</ele>
        <time>2011-04-21T08:03:58Z</time>
      </trkpt>
      <trkpt lat="43.8116" lon="5.55128">
        <ele>764.866211</ele>
        <time>2011-04-21T08:04:14Z</time>
      </trkpt>
      <trkpt lat="43.8117" lon="5.55119">
        <ele>760.059326</ele>
        <time>2011-04-21T08:04:22Z</time>
      </trkpt>
      <trkpt lat="43.81173" lon="5.5512">
        <ele>761.020752</ele>
        <time>2011-04-21T08:04:24Z</time>
      </trkpt>
      <trkpt lat="43.81175" lon="5.55133">
        <ele>767.75</ele>
        <time>2011-04-21T08:04:32Z</time>
      </trkpt>
      <trkpt lat="43.81168" lon="5.55169">
        <ele>786.49585</ele>
        <time>2011-04-21T08:04:53Z</time>
      </trkpt>
      <trkpt lat="43.81169" lon="5.55176">
        <ele>786.976318</ele>
        <time>2011-04-21T08:04:57Z</time>
      </trkpt>
      <trkpt lat="43.81177" lon="5.5518">
        <ele>783.611816</ele>
        <time>2011-04-21T08:05:04Z</time>
      </trkpt>
      <trkpt lat="43.81193" lon="5.5516">
        <ele>781.20874</ele>
        <time>2011-04-21T08:05:19Z</time>
      </trkpt>
      <trkpt lat="43.81207" lon="5.55148">
        <ele>784.573242</ele>
        <time>2011-04-21T08:05:33Z</time>
      </trkpt>
      <trkpt lat="43.81243" lon="5.55127">
        <ele>787.937744</ele>
        <time>2011-04-21T08:06:04Z</time>
      </trkpt>
      <trkpt lat="43.81273" lon="5.55096">
        <ele>788.89917</ele>
        <time>2011-04-21T08:06:29Z</time>
      </trkpt>
      <trkpt lat="43.81311" lon="5.5503">
        <ele>800.915527</ele>
        <time>2011-04-21T08:07:12Z</time>
      </trkpt>
      <trkpt lat="43.81317" lon="5.55016">
        <ele>803.799561</ele>
        <time>2011-04-21T08:07:21Z</time>
      </trkpt>
      <trkpt lat="43.81328" lon="5.54956">
        <ele>818.219238</ele>
        <time>2011-04-21T08:07:56Z</time>
      </trkpt>
      <trkpt lat="43.81327" lon="5.54945">
        <ele>821.103271</ele>
        <time>2011-04-21T08:08:02Z</time>
      </trkpt>
      <trkpt lat="43.81329" lon="5.54932">
        <ele>822.064453</ele>
        <time>2011-04-21T08:08:09Z</time>
      </trkpt>
      <trkpt lat="43.81334" lon="5.54921">
        <ele>824.467773</ele>
        <time>2011-04-21T08:08:16Z</time>
      </trkpt>
      <trkpt lat="43.81343" lon="5.5491">
        <ele>820.141846</ele>
        <time>2011-04-21T08:08:24Z</time>
      </trkpt>
      <trkpt lat="43.8135" lon="5.549">
        <ele>819.180664</ele>
        <time>2011-04-21T08:08:31Z</time>
      </trkpt>
      <trkpt lat="43.81349" lon="5.54887">
        <ele>823.987061</ele>
        <time>2011-04-21T08:08:39Z</time>
      </trkpt>
      <trkpt lat="43.81354" lon="5.54873">
        <ele>824.948486</ele>
        <time>2011-04-21T08:08:48Z</time>
      </trkpt>
      <trkpt lat="43.81368" lon="5.54863">
        <ele>819.180664</ele>
        <time>2011-04-21T08:08:59Z</time>
      </trkpt>
      <trkpt lat="43.81392" lon="5.5485">
        <ele>825.909668</ele>
        <time>2011-04-21T08:09:20Z</time>
      </trkpt>
      <trkpt lat="43.81385" lon="5.54831">
        <ele>840.32959</ele>
        <time>2011-04-21T08:09:33Z</time>
      </trkpt>
      <trkpt lat="43.81385" lon="5.54819">
        <ele>846.578369</ele>
        <time>2011-04-21T08:09:40Z</time>
      </trkpt>
      <trkpt lat="43.81401" lon="5.54795">
        <ele>839.848877</ele>
        <time>2011-04-21T08:09:55Z</time>
      </trkpt>
      <trkpt lat="43.8142" lon="5.5476">
        <ele>838.887695</ele>
        <time>2011-04-21T08:10:19Z</time>
      </trkpt>
      <trkpt lat="43.81437" lon="5.54733">
        <ele>839.368164</ele>
        <time>2011-04-21T08:10:36Z</time>
      </trkpt>
      <trkpt lat="43.81437" lon="5.54716">
        <ele>860.517334</ele>
        <time>2011-04-21T08:10:53Z</time>
      </trkpt>
      <trkpt lat="43.81446" lon="5.5468">
        <ele>871.572266</ele>
        <time>2011-04-21T08:11:16Z</time>
      </trkpt>
      <trkpt lat="43.81465" lon="5.54641">
        <ele>873.975586</ele>
        <time>2011-04-21T08:11:42Z</time>
      </trkpt>
      <trkpt lat="43.81487" lon="5.54588">
        <ele>881.66626</ele>
        <time>2011-04-21T08:12:18Z</time>
      </trkpt>
      <trkpt lat="43.81529" lon="5.54506">
        <ele>891.279297</ele>
        <time>2011-04-21T08:13:21Z</time>
      </trkpt>
      <trkpt lat="43.81531" lon="5.54495">
        <ele>894.644043</ele>
        <time>2011-04-21T08:13:29Z</time>
      </trkpt>
      <trkpt lat="43.81542" lon="5.54471">
        <ele>898.489258</ele>
        <time>2011-04-21T08:13:45Z</time>
      </trkpt>
      <trkpt lat="43.81557" lon="5.54454">
        <ele>899.931396</ele>
        <time>2011-04-21T08:14:01Z</time>
      </trkpt>
      <trkpt lat="43.81567" lon="5.54452">
        <ele>913.870361</ele>
        <time>2011-04-21T08:14:16Z</time>
      </trkpt>
      <trkpt lat="43.81592" lon="5.54457">
        <ele>918.677002</ele>
        <time>2011-04-21T08:14:40Z</time>
      </trkpt>
      <trkpt lat="43.81622" lon="5.54457">
        <ele>918.677002</ele>
        <time>2011-04-21T08:15:04Z</time>
      </trkpt>
      <trkpt lat="43.81627" lon="5.54452">
        <ele>919.638428</ele>
        <time>2011-04-21T08:15:10Z</time>
      </trkpt>
      <trkpt lat="43.81634" lon="5.54448">
        <ele>919.157715</ele>
        <time>2011-04-21T08:15:15Z</time>
      </trkpt>
      <trkpt lat="43.81736" lon="5.54473">
        <ele>927.80957</ele>
        <time>2011-04-21T08:16:10Z</time>
      </trkpt>
      <trkpt lat="43.81752" lon="5.54475">
        <ele>926.848389</ele>
        <time>2011-04-21T08:16:22Z</time>
      </trkpt>
      <trkpt lat="43.81757" lon="5.54477">
        <ele>926.367676</ele>
        <time>2011-04-21T08:16:26Z</time>
      </trkpt>
      <trkpt lat="43.81765" lon="5.54476">
        <ele>931.654785</ele>
        <time>2011-04-21T08:16:39Z</time>
      </trkpt>
      <trkpt lat="43.81764" lon="5.54478">
        <ele>935.980713</ele>
        <time>2011-04-21T08:16:50Z</time>
      </trkpt>
      <trkpt lat="43.81764" lon="5.54486">
        <ele>936.941895</ele>
        <time>2011-04-21T08:17:06Z</time>
      </trkpt>
      <trkpt lat="43.81768" lon="5.54479">
        <ele>935.5</ele>
        <time>2011-04-21T08:17:25Z</time>
      </trkpt>
      <trkpt lat="43.81812" lon="5.54452">
        <ele>930.212891</ele>
        <time>2011-04-21T08:17:47Z</time>
      </trkpt>
      <trkpt lat="43.81821" lon="5.54441">
        <ele>931.654785</ele>
        <time>2011-04-21T08:17:53Z</time>
      </trkpt>
      <trkpt lat="43.81829" lon="5.54421">
        <ele>934.058105</ele>
        <time>2011-04-21T08:18:01Z</time>
      </trkpt>
      <trkpt lat="43.81833" lon="5.54402">
        <ele>936.941895</ele>
        <time>2011-04-21T08:18:07Z</time>
      </trkpt>
      <trkpt lat="43.8183" lon="5.5436">
        <ele>936.941895</ele>
        <time>2011-04-21T08:18:21Z</time>
      </trkpt>
      <trkpt lat="43.81824" lon="5.54318">
        <ele>937.90332</ele>
        <time>2011-04-21T08:18:34Z</time>
      </trkpt>
      <trkpt lat="43.81829" lon="5.54301">
        <ele>940.787354</ele>
        <time>2011-04-21T08:18:40Z</time>
      </trkpt>
      <trkpt lat="43.81842" lon="5.54287">
        <ele>941.268066</ele>
        <time>2011-04-21T08:18:47Z</time>
      </trkpt>
      <trkpt lat="43.81907" lon="5.54236">
        <ele>945.113281</ele>
        <time>2011-04-21T08:19:20Z</time>
      </trkpt>
      <trkpt lat="43.81936" lon="5.54221">
        <ele>946.074707</ele>
        <time>2011-04-21T08:19:34Z</time>
      </trkpt>
      <trkpt lat="43.81978" lon="5.54188">
        <ele>954.24585</ele>
        <time>2011-04-21T08:20:06Z</time>
      </trkpt>
      <trkpt lat="43.81984" lon="5.54191">
        <ele>953.765137</ele>
        <time>2011-04-21T08:23:16Z</time>
      </trkpt>
      <trkpt lat="43.81985" lon="5.54188">
        <ele>954.24585</ele>
        <time>2011-04-21T08:23:18Z</time>
      </trkpt>
      <trkpt lat="43.81997" lon="5.54186">
        <ele>952.322998</ele>
        <time>2011-04-21T08:23:24Z</time>
      </trkpt>
      <trkpt lat="43.81999" lon="5.54196">
        <ele>949.919922</ele>
        <time>2011-04-21T08:23:28Z</time>
      </trkpt>
      <trkpt lat="43.82018" lon="5.542">
        <ele>944.1521</ele>
        <time>2011-04-21T08:23:34Z</time>
      </trkpt>
      <trkpt lat="43.82034" lon="5.54197">
        <ele>940.787354</ele>
        <time>2011-04-21T08:23:38Z</time>
      </trkpt>
      <trkpt lat="43.82062" lon="5.54183">
        <ele>934.538818</ele>
        <time>2011-04-21T08:23:45Z</time>
      </trkpt>
      <trkpt lat="43.8208" lon="5.54178">
        <ele>929.732178</ele>
        <time>2011-04-21T08:23:50Z</time>
      </trkpt>
      <trkpt lat="43.82106" lon="5.5416">
        <ele>921.560791</ele>
        <time>2011-04-21T08:23:57Z</time>
      </trkpt>
      <trkpt lat="43.82113" lon="5.5415">
        <ele>919.157715</ele>
        <time>2011-04-21T08:24:00Z</time>
      </trkpt>
      <trkpt lat="43.82129" lon="5.54139">
        <ele>913.389893</ele>
        <time>2011-04-21T08:24:05Z</time>
      </trkpt>
      <trkpt lat="43.82139" lon="5.54124">
        <ele>907.621826</ele>
        <time>2011-04-21T08:24:10Z</time>
      </trkpt>
      <trkpt lat="43.82143" lon="5.54122">
        <ele>905.699219</ele>
        <time>2011-04-21T08:24:12Z</time>
      </trkpt>
      <trkpt lat="43.82162" lon="5.54059">
        <ele>885.511475</ele>
        <time>2011-04-21T08:24:33Z</time>
      </trkpt>
      <trkpt lat="43.82195" lon="5.53976">
        <ele>855.22998</ele>
        <time>2011-04-21T08:24:55Z</time>
      </trkpt>
      <trkpt lat="43.82207" lon="5.53957">
        <ele>853.307373</ele>
        <time>2011-04-21T08:24:59Z</time>
      </trkpt>
      <trkpt lat="43.82212" lon="5.53952">
        <ele>853.307373</ele>
        <time>2011-04-21T08:25:02Z</time>
      </trkpt>
      <trkpt lat="43.82223" lon="5.5396">
        <ele>874.456299</ele>
        <time>2011-04-21T08:25:48Z</time>
      </trkpt>
      <trkpt lat="43.82219" lon="5.53958">
        <ele>873.014404</ele>
        <time>2011-04-21T08:26:27Z</time>
      </trkpt>
      <trkpt lat="43.82224" lon="5.53954">
        <ele>865.804688</ele>
        <time>2011-04-21T08:26:49Z</time>
      </trkpt>
      <trkpt lat="43.82224" lon="5.53951">
        <ele>862.439941</ele>
        <time>2011-04-21T08:27:03Z</time>
      </trkpt>
      <trkpt lat="43.82235" lon="5.53941">
        <ele>857.152588</ele>
        <time>2011-04-21T08:27:08Z</time>
      </trkpt>
      <trkpt lat="43.82259" lon="5.53927">
        <ele>848.020264</ele>
        <time>2011-04-21T08:27:14Z</time>
      </trkpt>
      <trkpt lat="43.82275" lon="5.53925">
        <ele>842.73291</ele>
        <time>2011-04-21T08:27:18Z</time>
      </trkpt>
      <trkpt lat="43.82296" lon="5.53927">
        <ele>833.600342</ele>
        <time>2011-04-21T08:27:24Z</time>
      </trkpt>
      <trkpt lat="43.82313" lon="5.53924">
        <ele>824.948486</ele>
        <time>2011-04-21T08:27:29Z</time>
      </trkpt>
      <trkpt lat="43.82327" lon="5.53905">
        <ele>818.699951</ele>
        <time>2011-04-21T08:27:34Z</time>
      </trkpt>
      <trkpt lat="43.82355" lon="5.53847">
        <ele>806.68335</ele>
        <time>2011-04-21T08:27:50Z</time>
      </trkpt>
      <trkpt lat="43.82358" lon="5.53833">
        <ele>804.760742</ele>
        <time>2011-04-21T08:27:53Z</time>
      </trkpt>
      <trkpt lat="43.8237" lon="5.53815">
        <ele>800.915527</ele>
        <time>2011-04-21T08:28:00Z</time>
      </trkpt>
      <trkpt lat="43.82379" lon="5.53799">
        <ele>798.031738</ele>
        <time>2011-04-21T08:28:05Z</time>
      </trkpt>
      <trkpt lat="43.82388" lon="5.53751">
        <ele>793.224854</ele>
        <time>2011-04-21T08:28:16Z</time>
      </trkpt>
      <trkpt lat="43.82385" lon="5.53651">
        <ele>787.937744</ele>
        <time>2011-04-21T08:28:32Z</time>
      </trkpt>
      <trkpt lat="43.82376" lon="5.53591">
        <ele>781.689209</ele>
        <time>2011-04-21T08:28:40Z</time>
      </trkpt>
      <trkpt lat="43.82374" lon="5.5356">
        <ele>777.363281</ele>
        <time>2011-04-21T08:28:44Z</time>
      </trkpt>
      <trkpt lat="43.82389" lon="5.5355">
        <ele>772.075928</ele>
        <time>2011-04-21T08:28:48Z</time>
      </trkpt>
      <trkpt lat="43.82421" lon="5.5355">
        <ele>773.998535</ele>
        <time>2011-04-21T08:28:53Z</time>
      </trkpt>
      <trkpt lat="43.8246" lon="5.53546">
        <ele>767.269531</ele>
        <time>2011-04-21T08:29:01Z</time>
      </trkpt>
      <trkpt lat="43.82548" lon="5.5353">
        <ele>745.158936</ele>
        <time>2011-04-21T08:29:20Z</time>
      </trkpt>
      <trkpt lat="43.82572" lon="5.53514">
        <ele>738.910645</ele>
        <time>2011-04-21T08:29:27Z</time>
      </trkpt>
      <trkpt lat="43.82583" lon="5.53499">
        <ele>734.584717</ele>
        <time>2011-04-21T08:29:31Z</time>
      </trkpt>
      <trkpt lat="43.82587" lon="5.53487">
        <ele>732.662109</ele>
        <time>2011-04-21T08:29:33Z</time>
      </trkpt>
      <trkpt lat="43.82591" lon="5.53445">
        <ele>727.855225</ele>
        <time>2011-04-21T08:29:40Z</time>
      </trkpt>
      <trkpt lat="43.82589" lon="5.53405">
        <ele>725.451904</ele>
        <time>2011-04-21T08:29:46Z</time>
      </trkpt>
      <trkpt lat="43.82571" lon="5.53346">
        <ele>718.242188</ele>
        <time>2011-04-21T08:30:01Z</time>
      </trkpt>
      <trkpt lat="43.82576" lon="5.53345">
        <ele>714.396729</ele>
        <time>2011-04-21T08:30:53Z</time>
      </trkpt>
      <trkpt lat="43.82576" lon="5.53339">
        <ele>725.932617</ele>
        <time>2011-04-21T08:31:09Z</time>
      </trkpt>
      <trkpt lat="43.8257" lon="5.53318">
        <ele>724.971436</ele>
        <time>2011-04-21T08:31:20Z</time>
      </trkpt>
      <trkpt lat="43.82565" lon="5.53288">
        <ele>723.529541</ele>
        <time>2011-04-21T08:31:26Z</time>
      </trkpt>
      <trkpt lat="43.82569" lon="5.53254">
        <ele>724.01001</ele>
        <time>2011-04-21T08:31:31Z</time>
      </trkpt>
      <trkpt lat="43.82589" lon="5.5319">
        <ele>707.667725</ele>
        <time>2011-04-21T08:31:40Z</time>
      </trkpt>
      <trkpt lat="43.82603" lon="5.53163">
        <ele>699.977051</ele>
        <time>2011-04-21T08:31:45Z</time>
      </trkpt>
      <trkpt lat="43.82634" lon="5.53151">
        <ele>692.286621</ele>
        <time>2011-04-21T08:31:51Z</time>
      </trkpt>
      <trkpt lat="43.82655" lon="5.53154">
        <ele>686.038086</ele>
        <time>2011-04-21T08:31:55Z</time>
      </trkpt>
      <trkpt lat="43.82693" lon="5.53166">
        <ele>673.060303</ele>
        <time>2011-04-21T08:32:04Z</time>
      </trkpt>
      <trkpt lat="43.82703" lon="5.53163">
        <ele>671.137695</ele>
        <time>2011-04-21T08:32:06Z</time>
      </trkpt>
      <trkpt lat="43.82748" lon="5.53139">
        <ele>661.043701</ele>
        <time>2011-04-21T08:32:15Z</time>
      </trkpt>
      <trkpt lat="43.82773" lon="5.53144">
        <ele>653.353271</ele>
        <time>2011-04-21T08:32:20Z</time>
      </trkpt>
      <trkpt lat="43.82794" lon="5.53139">
        <ele>647.585205</ele>
        <time>2011-04-21T08:32:25Z</time>
      </trkpt>
      <trkpt lat="43.82829" lon="5.5312">
        <ele>640.375488</ele>
        <time>2011-04-21T08:32:32Z</time>
      </trkpt>
      <trkpt lat="43.8285" lon="5.53115">
        <ele>634.607422</ele>
        <time>2011-04-21T08:32:37Z</time>
      </trkpt>
      <trkpt lat="43.82867" lon="5.53121">
        <ele>630.762207</ele>
        <time>2011-04-21T08:32:41Z</time>
      </trkpt>
      <trkpt lat="43.82887" lon="5.53132">
        <ele>626.436279</ele>
        <time>2011-04-21T08:32:45Z</time>
      </trkpt>
      <trkpt lat="43.82906" lon="5.53136">
        <ele>623.55249</ele>
        <time>2011-04-21T08:32:49Z</time>
      </trkpt>
      <trkpt lat="43.82919" lon="5.53135">
        <ele>622.591064</ele>
        <time>2011-04-21T08:32:53Z</time>
      </trkpt>
      <trkpt lat="43.82915" lon="5.53125">
        <ele>621.629639</ele>
        <time>2011-04-21T08:32:56Z</time>
      </trkpt>
      <trkpt lat="43.82898" lon="5.53094">
        <ele>619.707031</ele>
        <time>2011-04-21T08:33:02Z</time>
      </trkpt>
      <trkpt lat="43.82874" lon="5.53062">
        <ele>615.381104</ele>
        <time>2011-04-21T08:33:08Z</time>
      </trkpt>
      <trkpt lat="43.82835" lon="5.53004">
        <ele>610.574463</ele>
        <time>2011-04-21T08:33:18Z</time>
      </trkpt>
      <trkpt lat="43.82834" lon="5.53002">
        <ele>609.132568</ele>
        <time>2011-04-21T08:33:20Z</time>
      </trkpt>
      <trkpt lat="43.82846" lon="5.52998">
        <ele>606.248535</ele>
        <time>2011-04-21T08:33:23Z</time>
      </trkpt>
      <trkpt lat="43.82866" lon="5.52987">
        <ele>606.729248</ele>
        <time>2011-04-21T08:33:26Z</time>
      </trkpt>
      <trkpt lat="43.82899" lon="5.5298">
        <ele>601.922607</ele>
        <time>2011-04-21T08:33:32Z</time>
      </trkpt>
      <trkpt lat="43.82961" lon="5.5298">
        <ele>582.696289</ele>
        <time>2011-04-21T08:33:46Z</time>
      </trkpt>
      <trkpt lat="43.8299" lon="5.52984">
        <ele>574.044434</ele>
        <time>2011-04-21T08:33:53Z</time>
      </trkpt>
      <trkpt lat="43.82998" lon="5.52988">
        <ele>571.1604</ele>
        <time>2011-04-21T08:33:58Z</time>
      </trkpt>
      <trkpt lat="43.83" lon="5.52994">
        <ele>572.602539</ele>
        <time>2011-04-21T08:34:29Z</time>
      </trkpt>
      <trkpt lat="43.82998" lon="5.53002">
        <ele>578.370361</ele>
        <time>2011-04-21T08:34:47Z</time>
      </trkpt>
      <trkpt lat="43.82999" lon="5.53004">
        <ele>577.889648</ele>
        <time>2011-04-21T08:34:49Z</time>
      </trkpt>
      <trkpt lat="43.83036" lon="5.5301">
        <ele>569.718506</ele>
        <time>2011-04-21T08:34:58Z</time>
      </trkpt>
      <trkpt lat="43.83085" lon="5.53009">
        <ele>557.702148</ele>
        <time>2011-04-21T08:35:08Z</time>
      </trkpt>
      <trkpt lat="43.83092" lon="5.53006">
        <ele>555.298584</ele>
        <time>2011-04-21T08:35:10Z</time>
      </trkpt>
      <trkpt lat="43.83118" lon="5.52989">
        <ele>550.492188</ele>
        <time>2011-04-21T08:35:16Z</time>
      </trkpt>
      <trkpt lat="43.83126" lon="5.52972">
        <ele>548.569336</ele>
        <time>2011-04-21T08:35:19Z</time>
      </trkpt>
      <trkpt lat="43.83133" lon="5.52941">
        <ele>544.243652</ele>
        <time>2011-04-21T08:35:24Z</time>
      </trkpt>
      <trkpt lat="43.83129" lon="5.5291">
        <ele>539.43689</ele>
        <time>2011-04-21T08:35:29Z</time>
      </trkpt>
      <trkpt lat="43.83119" lon="5.52884">
        <ele>535.591553</ele>
        <time>2011-04-21T08:35:34Z</time>
      </trkpt>
      <trkpt lat="43.83125" lon="5.52874">
        <ele>531.265747</ele>
        <time>2011-04-21T08:35:37Z</time>
      </trkpt>
      <trkpt lat="43.83216" lon="5.52843">
        <ele>520.210571</ele>
        <time>2011-04-21T08:35:49Z</time>
      </trkpt>
      <trkpt lat="43.83253" lon="5.52823">
        <ele>515.884644</ele>
        <time>2011-04-21T08:35:54Z</time>
      </trkpt>
      <trkpt lat="43.83294" lon="5.52778">
        <ele>508.674683</ele>
        <time>2011-04-21T08:36:00Z</time>
      </trkpt>
      <trkpt lat="43.83314" lon="5.52743">
        <ele>504.829468</ele>
        <time>2011-04-21T08:36:04Z</time>
      </trkpt>
      <trkpt lat="43.83329" lon="5.52701">
        <ele>504.348877</ele>
        <time>2011-04-21T08:36:08Z</time>
      </trkpt>
      <trkpt lat="43.83335" lon="5.52658">
        <ele>502.906738</ele>
        <time>2011-04-21T08:36:12Z</time>
      </trkpt>
      <trkpt lat="43.83326" lon="5.52624">
        <ele>500.022949</ele>
        <time>2011-04-21T08:36:16Z</time>
      </trkpt>
      <trkpt lat="43.83308" lon="5.5258">
        <ele>494.735596</ele>
        <time>2011-04-21T08:36:21Z</time>
      </trkpt>
      <trkpt lat="43.83288" lon="5.52539">
        <ele>491.851685</ele>
        <time>2011-04-21T08:36:25Z</time>
      </trkpt>
      <trkpt lat="43.83282" lon="5.52523">
        <ele>488.967773</ele>
        <time>2011-04-21T08:36:28Z</time>
      </trkpt>
      <trkpt lat="43.83285" lon="5.52525">
        <ele>487.045044</ele>
        <time>2011-04-21T08:36:35Z</time>
      </trkpt>
      <trkpt lat="43.83292" lon="5.52521">
        <ele>487.045044</ele>
        <time>2011-04-21T08:36:50Z</time>
      </trkpt>
      <trkpt lat="43.83327" lon="5.52537">
        <ele>485.122437</ele>
        <time>2011-04-21T08:37:05Z</time>
      </trkpt>
      <trkpt lat="43.83333" lon="5.52538">
        <ele>483.199829</ele>
        <time>2011-04-21T08:37:08Z</time>
      </trkpt>
      <trkpt lat="43.83334" lon="5.52541">
        <ele>484.161133</ele>
        <time>2011-04-21T08:37:20Z</time>
      </trkpt>
      <trkpt lat="43.83371" lon="5.52547">
        <ele>480.315918</ele>
        <time>2011-04-21T08:37:30Z</time>
      </trkpt>
      <trkpt lat="43.83377" lon="5.5255">
        <ele>478.873901</ele>
        <time>2011-04-21T08:37:31Z</time>
      </trkpt>
      <trkpt lat="43.8341" lon="5.52555">
        <ele>471.66394</ele>
        <time>2011-04-21T08:37:36Z</time>
      </trkpt>
      <trkpt lat="43.8346" lon="5.5254">
        <ele>462.531372</ele>
        <time>2011-04-21T08:37:44Z</time>
      </trkpt>
      <trkpt lat="43.83503" lon="5.52545">
        <ele>456.282959</ele>
        <time>2011-04-21T08:37:50Z</time>
      </trkpt>
      <trkpt lat="43.83543" lon="5.52557">
        <ele>445.708374</ele>
        <time>2011-04-21T08:37:57Z</time>
      </trkpt>
      <trkpt lat="43.83577" lon="5.52554">
        <ele>441.382446</ele>
        <time>2011-04-21T08:38:01Z</time>
      </trkpt>
      <trkpt lat="43.83596" lon="5.52538">
        <ele>437.537109</ele>
        <time>2011-04-21T08:38:05Z</time>
      </trkpt>
      <trkpt lat="43.83614" lon="5.52519">
        <ele>432.25</ele>
        <time>2011-04-21T08:38:09Z</time>
      </trkpt>
      <trkpt lat="43.83635" lon="5.52519">
        <ele>427.92395</ele>
        <time>2011-04-21T08:38:12Z</time>
      </trkpt>
      <trkpt lat="43.83705" lon="5.52541">
        <ele>412.062256</ele>
        <time>2011-04-21T08:38:21Z</time>
      </trkpt>
      <trkpt lat="43.83723" lon="5.5255">
        <ele>420.714111</ele>
        <time>2011-04-21T08:40:46Z</time>
      </trkpt>
      <trkpt lat="43.83725" lon="5.52547">
        <ele>418.310791</ele>
        <time>2011-04-21T08:40:56Z</time>
      </trkpt>
      <trkpt lat="43.83741" lon="5.52546">
        <ele>415.907471</ele>
        <time>2011-04-21T08:41:00Z</time>
      </trkpt>
      <trkpt lat="43.83756" lon="5.52553">
        <ele>410.620239</ele>
        <time>2011-04-21T08:41:03Z</time>
      </trkpt>
      <trkpt lat="43.83772" lon="5.52575">
        <ele>403.891113</ele>
        <time>2011-04-21T08:41:07Z</time>
      </trkpt>
      <trkpt lat="43.83816" lon="5.52616">
        <ele>395.239136</ele>
        <time>2011-04-21T08:41:14Z</time>
      </trkpt>
      <trkpt lat="43.83834" lon="5.5264">
        <ele>391.393799</ele>
        <time>2011-04-21T08:41:18Z</time>
      </trkpt>
      <trkpt lat="43.83843" lon="5.52644">
        <ele>390.432617</ele>
        <time>2011-04-21T08:41:20Z</time>
      </trkpt>
      <trkpt lat="43.83878" lon="5.52644">
        <ele>387.548584</ele>
        <time>2011-04-21T08:41:27Z</time>
      </trkpt>
      <trkpt lat="43.83901" lon="5.52641">
        <ele>388.51001</ele>
        <time>2011-04-21T08:41:36Z</time>
      </trkpt>
      <trkpt lat="43.83918" lon="5.52643">
        <ele>390.913208</ele>
        <time>2011-04-21T08:41:58Z</time>
      </trkpt>
      <trkpt lat="43.83913" lon="5.52655">
        <ele>396.200562</ele>
        <time>2011-04-21T08:42:59Z</time>
      </trkpt>
      <trkpt lat="43.83929" lon="5.5266">
        <ele>400.045898</ele>
        <time>2011-04-21T08:43:11Z</time>
      </trkpt>
      <trkpt lat="43.83958" lon="5.5266">
        <ele>401.968506</ele>
        <time>2011-04-21T08:43:28Z</time>
      </trkpt>
      <trkpt lat="43.8396" lon="5.52655">
        <ele>402.449097</ele>
        <time>2011-04-21T08:43:34Z</time>
      </trkpt>
      <trkpt lat="43.8396" lon="5.5266">
        <ele>402.449097</ele>
        <time>2011-04-21T08:43:37Z</time>
      </trkpt>
      <trkpt lat="43.83969" lon="5.52662">
        <ele>401.00708</ele>
        <time>2011-04-21T08:43:45Z</time>
      </trkpt>
      <trkpt lat="43.8397" lon="5.52656">
        <ele>400.526489</ele>
        <time>2011-04-21T08:43:50Z</time>
      </trkpt>
      <trkpt lat="43.8396" lon="5.52652">
        <ele>400.045898</ele>
        <time>2011-04-21T08:43:54Z</time>
      </trkpt>
      <trkpt lat="43.83959" lon="5.52614">
        <ele>402.929688</ele>
        <time>2011-04-21T08:44:07Z</time>
      </trkpt>
      <trkpt lat="43.83961" lon="5.52592">
        <ele>404.852295</ele>
        <time>2011-04-21T08:44:14Z</time>
      </trkpt>
      <trkpt lat="43.83956" lon="5.52544">
        <ele>402.929688</ele>
        <time>2011-04-21T08:44:22Z</time>
      </trkpt>
      <trkpt lat="43.83982" lon="5.52429">
        <ele>397.161743</ele>
        <time>2011-04-21T08:44:32Z</time>
      </trkpt>
      <trkpt lat="43.84012" lon="5.52325">
        <ele>396.200562</ele>
        <time>2011-04-21T08:44:41Z</time>
      </trkpt>
      <trkpt lat="43.84019" lon="5.52286">
        <ele>396.681152</ele>
        <time>2011-04-21T08:44:45Z</time>
      </trkpt>
      <trkpt lat="43.84012" lon="5.52161">
        <ele>396.200562</ele>
        <time>2011-04-21T08:45:00Z</time>
      </trkpt>
      <trkpt lat="43.8401" lon="5.52046">
        <ele>398.123169</ele>
        <time>2011-04-21T08:45:16Z</time>
      </trkpt>
      <trkpt lat="43.84004" lon="5.51982">
        <ele>401.487793</ele>
        <time>2011-04-21T08:45:29Z</time>
      </trkpt>
      <trkpt lat="43.83995" lon="5.51949">
        <ele>403.891113</ele>
        <time>2011-04-21T08:45:39Z</time>
      </trkpt>
      <trkpt lat="43.83988" lon="5.51932">
        <ele>402.929688</ele>
        <time>2011-04-21T08:45:44Z</time>
      </trkpt>
      <trkpt lat="43.83974" lon="5.51908">
        <ele>401.00708</ele>
        <time>2011-04-21T08:45:48Z</time>
      </trkpt>
      <trkpt lat="43.8396" lon="5.5189">
        <ele>400.045898</ele>
        <time>2011-04-21T08:45:51Z</time>
      </trkpt>
      <trkpt lat="43.8395" lon="5.51858">
        <ele>399.084351</ele>
        <time>2011-04-21T08:45:55Z</time>
      </trkpt>
      <trkpt lat="43.8395" lon="5.51829">
        <ele>397.642456</ele>
        <time>2011-04-21T08:45:58Z</time>
      </trkpt>
      <trkpt lat="43.83937" lon="5.51736">
        <ele>394.758545</ele>
        <time>2011-04-21T08:46:08Z</time>
      </trkpt>
      <trkpt lat="43.8394" lon="5.51673">
        <ele>393.316528</ele>
        <time>2011-04-21T08:46:15Z</time>
      </trkpt>
      <trkpt lat="43.83939" lon="5.51606">
        <ele>389.951904</ele>
        <time>2011-04-21T08:46:22Z</time>
      </trkpt>
      <trkpt lat="43.83936" lon="5.51577">
        <ele>388.990601</ele>
        <time>2011-04-21T08:46:25Z</time>
      </trkpt>
      <trkpt lat="43.83915" lon="5.51512">
        <ele>387.067993</ele>
        <time>2011-04-21T08:46:32Z</time>
      </trkpt>
      <trkpt lat="43.83909" lon="5.51456">
        <ele>385.625977</ele>
        <time>2011-04-21T08:46:37Z</time>
      </trkpt>
      <trkpt lat="43.83902" lon="5.51375">
        <ele>383.703247</ele>
        <time>2011-04-21T08:46:44Z</time>
      </trkpt>
      <trkpt lat="43.83909" lon="5.51303">
        <ele>379.377441</ele>
        <time>2011-04-21T08:46:49Z</time>
      </trkpt>
      <trkpt lat="43.8392" lon="5.51234">
        <ele>374.570801</ele>
        <time>2011-04-21T08:46:54Z</time>
      </trkpt>
      <trkpt lat="43.83925" lon="5.5121">
        <ele>372.16748</ele>
        <time>2011-04-21T08:46:56Z</time>
      </trkpt>
      <trkpt lat="43.83935" lon="5.51137">
        <ele>368.802979</ele>
        <time>2011-04-21T08:47:01Z</time>
      </trkpt>
      <trkpt lat="43.83944" lon="5.51094">
        <ele>367.360962</ele>
        <time>2011-04-21T08:47:04Z</time>
      </trkpt>
      <trkpt lat="43.83958" lon="5.51059">
        <ele>365.438354</ele>
        <time>2011-04-21T08:47:07Z</time>
      </trkpt>
      <trkpt lat="43.83968" lon="5.51018">
        <ele>363.035034</ele>
        <time>2011-04-21T08:47:11Z</time>
      </trkpt>
      <trkpt lat="43.83999" lon="5.50961">
        <ele>360.631714</ele>
        <time>2011-04-21T08:47:18Z</time>
      </trkpt>
      <trkpt lat="43.84021" lon="5.50843">
        <ele>356.305786</ele>
        <time>2011-04-21T08:47:28Z</time>
      </trkpt>
      <trkpt lat="43.84034" lon="5.50792">
        <ele>354.86377</ele>
        <time>2011-04-21T08:47:32Z</time>
      </trkpt>
      <trkpt lat="43.84072" lon="5.50679">
        <ele>350.537842</ele>
        <time>2011-04-21T08:47:42Z</time>
      </trkpt>
      <trkpt lat="43.84083" lon="5.50619">
        <ele>349.095825</ele>
        <time>2011-04-21T08:47:47Z</time>
      </trkpt>
      <trkpt lat="43.84103" lon="5.50567">
        <ele>348.134644</ele>
        <time>2011-04-21T08:47:52Z</time>
      </trkpt>
      <trkpt lat="43.8412" lon="5.50505">
        <ele>344.77002</ele>
        <time>2011-04-21T08:47:57Z</time>
      </trkpt>
      <trkpt lat="43.84136" lon="5.50391">
        <ele>341.405273</ele>
        <time>2011-04-21T08:48:06Z</time>
      </trkpt>
      <trkpt lat="43.84146" lon="5.50334">
        <ele>339.963379</ele>
        <time>2011-04-21T08:48:11Z</time>
      </trkpt>
      <trkpt lat="43.84176" lon="5.50252">
        <ele>341.885986</ele>
        <time>2011-04-21T08:48:21Z</time>
      </trkpt>
      <trkpt lat="43.84191" lon="5.50204">
        <ele>341.405273</ele>
        <time>2011-04-21T08:48:27Z</time>
      </trkpt>
      <trkpt lat="43.84198" lon="5.50167">
        <ele>341.885986</ele>
        <time>2011-04-21T08:48:32Z</time>
      </trkpt>
      <trkpt lat="43.84207" lon="5.50135">
        <ele>339.963379</ele>
        <time>2011-04-21T08:48:37Z</time>
      </trkpt>
      <trkpt lat="43.84229" lon="5.50113">
        <ele>337.560059</ele>
        <time>2011-04-21T08:48:42Z</time>
      </trkpt>
      <trkpt lat="43.84315" lon="5.50096">
        <ele>329.388916</ele>
        <time>2011-04-21T08:48:53Z</time>
      </trkpt>
      <trkpt lat="43.8433" lon="5.50082">
        <ele>328.427612</ele>
        <time>2011-04-21T08:48:57Z</time>
      </trkpt>
      <trkpt lat="43.84331" lon="5.50066">
        <ele>327.946777</ele>
        <time>2011-04-21T08:49:00Z</time>
      </trkpt>
      <trkpt lat="43.84317" lon="5.49955">
        <ele>332.272827</ele>
        <time>2011-04-21T08:49:26Z</time>
      </trkpt>
      <trkpt lat="43.84303" lon="5.49873">
        <ele>333.234131</ele>
        <time>2011-04-21T08:49:44Z</time>
      </trkpt>
      <trkpt lat="43.84299" lon="5.49839">
        <ele>334.676147</ele>
        <time>2011-04-21T08:49:51Z</time>
      </trkpt>
      <trkpt lat="43.84301" lon="5.49806">
        <ele>335.156738</ele>
        <time>2011-04-21T08:49:58Z</time>
      </trkpt>
      <trkpt lat="43.84309" lon="5.49777">
        <ele>335.156738</ele>
        <time>2011-04-21T08:50:04Z</time>
      </trkpt>
      <trkpt lat="43.84373" lon="5.49616">
        <ele>337.560059</ele>
        <time>2011-04-21T08:50:43Z</time>
      </trkpt>
      <trkpt lat="43.84383" lon="5.49583">
        <ele>338.040771</ele>
        <time>2011-04-21T08:50:50Z</time>
      </trkpt>
      <trkpt lat="43.84386" lon="5.49554">
        <ele>338.040771</ele>
        <time>2011-04-21T08:50:55Z</time>
      </trkpt>
      <trkpt lat="43.8438" lon="5.4952">
        <ele>336.598877</ele>
        <time>2011-04-21T08:51:00Z</time>
      </trkpt>
      <trkpt lat="43.84356" lon="5.49467">
        <ele>334.195435</ele>
        <time>2011-04-21T08:51:07Z</time>
      </trkpt>
      <trkpt lat="43.84315" lon="5.49386">
        <ele>331.792114</ele>
        <time>2011-04-21T08:51:17Z</time>
      </trkpt>
      <trkpt lat="43.84307" lon="5.49348">
        <ele>330.35022</ele>
        <time>2011-04-21T08:51:21Z</time>
      </trkpt>
      <trkpt lat="43.84313" lon="5.49318">
        <ele>329.869507</ele>
        <time>2011-04-21T08:51:24Z</time>
      </trkpt>
      <trkpt lat="43.84361" lon="5.49225">
        <ele>327.946777</ele>
        <time>2011-04-21T08:51:34Z</time>
      </trkpt>
      <trkpt lat="43.84375" lon="5.4917">
        <ele>328.908325</ele>
        <time>2011-04-21T08:51:39Z</time>
      </trkpt>
      <trkpt lat="43.84383" lon="5.49109">
        <ele>330.35022</ele>
        <time>2011-04-21T08:51:45Z</time>
      </trkpt>
      <trkpt lat="43.84384" lon="5.4909">
        <ele>330.830933</ele>
        <time>2011-04-21T08:51:47Z</time>
      </trkpt>
      <trkpt lat="43.84394" lon="5.4903">
        <ele>330.35022</ele>
        <time>2011-04-21T08:51:54Z</time>
      </trkpt>
      <trkpt lat="43.84389" lon="5.48999">
        <ele>330.35022</ele>
        <time>2011-04-21T08:51:58Z</time>
      </trkpt>
      <trkpt lat="43.84367" lon="5.48966">
        <ele>330.830933</ele>
        <time>2011-04-21T08:52:03Z</time>
      </trkpt>
      <trkpt lat="43.84346" lon="5.48919">
        <ele>331.311523</ele>
        <time>2011-04-21T08:52:09Z</time>
      </trkpt>
      <trkpt lat="43.84306" lon="5.48841">
        <ele>330.830933</ele>
        <time>2011-04-21T08:52:21Z</time>
      </trkpt>
      <trkpt lat="43.84288" lon="5.48788">
        <ele>329.869507</ele>
        <time>2011-04-21T08:52:29Z</time>
      </trkpt>
      <trkpt lat="43.8427" lon="5.4876">
        <ele>330.830933</ele>
        <time>2011-04-21T08:52:34Z</time>
      </trkpt>
      <trkpt lat="43.84235" lon="5.48738">
        <ele>331.792114</ele>
        <time>2011-04-21T08:52:45Z</time>
      </trkpt>
      <trkpt lat="43.84174" lon="5.48672">
        <ele>334.676147</ele>
        <time>2011-04-21T08:53:09Z</time>
      </trkpt>
      <trkpt lat="43.84174" lon="5.48647">
        <ele>333.714722</ele>
        <time>2011-04-21T08:53:14Z</time>
      </trkpt>
      <trkpt lat="43.84191" lon="5.48617">
        <ele>333.714722</ele>
        <time>2011-04-21T08:53:22Z</time>
      </trkpt>
      <trkpt lat="43.842" lon="5.48578">
        <ele>334.195435</ele>
        <time>2011-04-21T08:53:39Z</time>
      </trkpt>
      <trkpt lat="43.84206" lon="5.48563">
        <ele>337.560059</ele>
        <time>2011-04-21T08:53:48Z</time>
      </trkpt>
      <trkpt lat="43.84206" lon="5.48552">
        <ele>339.002075</ele>
        <time>2011-04-21T08:53:55Z</time>
      </trkpt>
      <trkpt lat="43.84202" lon="5.48545">
        <ele>339.002075</ele>
        <time>2011-04-21T08:54:01Z</time>
      </trkpt>
      <trkpt lat="43.84187" lon="5.48536">
        <ele>342.84729</ele>
        <time>2011-04-21T08:54:17Z</time>
      </trkpt>
      <trkpt lat="43.84185" lon="5.48532">
        <ele>343.327881</ele>
        <time>2011-04-21T08:54:24Z</time>
      </trkpt>
      <trkpt lat="43.84172" lon="5.48524">
        <ele>345.25061</ele>
        <time>2011-04-21T08:54:45Z</time>
      </trkpt>
      <trkpt lat="43.84167" lon="5.48518">
        <ele>345.731323</ele>
        <time>2011-04-21T08:54:53Z</time>
      </trkpt>
      <trkpt lat="43.84176" lon="5.48508">
        <ele>359.189697</ele>
        <time>2011-04-21T08:55:14Z</time>
      </trkpt>
      <trkpt lat="43.84189" lon="5.48487">
        <ele>366.880249</ele>
        <time>2011-04-21T08:55:38Z</time>
      </trkpt>
      <trkpt lat="43.84187" lon="5.48481">
        <ele>369.283691</ele>
        <time>2011-04-21T08:55:45Z</time>
      </trkpt>
      <trkpt lat="43.84173" lon="5.48485">
        <ele>368.802979</ele>
        <time>2011-04-21T08:56:05Z</time>
      </trkpt>
      <trkpt lat="43.84166" lon="5.48481">
        <ele>368.802979</ele>
        <time>2011-04-21T08:56:13Z</time>
      </trkpt>
      <trkpt lat="43.84159" lon="5.48468">
        <ele>369.283691</ele>
        <time>2011-04-21T08:56:31Z</time>
      </trkpt>
      <trkpt lat="43.84154" lon="5.48447">
        <ele>369.764282</ele>
        <time>2011-04-21T08:56:44Z</time>
      </trkpt>
      <trkpt lat="43.84143" lon="5.48416">
        <ele>373.609497</ele>
        <time>2011-04-21T08:57:01Z</time>
      </trkpt>
      <trkpt lat="43.84137" lon="5.48394">
        <ele>376.012817</ele>
        <time>2011-04-21T08:57:14Z</time>
      </trkpt>
      <trkpt lat="43.84129" lon="5.48377">
        <ele>380.819458</ele>
        <time>2011-04-21T08:57:26Z</time>
      </trkpt>
      <trkpt lat="43.84125" lon="5.48357">
        <ele>380.338745</ele>
        <time>2011-04-21T08:57:38Z</time>
      </trkpt>
      <trkpt lat="43.84119" lon="5.48343">
        <ele>380.338745</ele>
        <time>2011-04-21T08:57:45Z</time>
      </trkpt>
      <trkpt lat="43.84098" lon="5.4832">
        <ele>383.222656</ele>
        <time>2011-04-21T08:57:56Z</time>
      </trkpt>
      <trkpt lat="43.84095" lon="5.483">
        <ele>385.625977</ele>
        <time>2011-04-21T08:58:06Z</time>
      </trkpt>
      <trkpt lat="43.84101" lon="5.48263">
        <ele>390.913208</ele>
        <time>2011-04-21T08:58:24Z</time>
      </trkpt>
      <trkpt lat="43.84103" lon="5.48235">
        <ele>392.835938</ele>
        <time>2011-04-21T08:58:36Z</time>
      </trkpt>
      <trkpt lat="43.84099" lon="5.48229">
        <ele>393.316528</ele>
        <time>2011-04-21T08:58:42Z</time>
      </trkpt>
      <trkpt lat="43.841" lon="5.48231">
        <ele>397.161743</ele>
        <time>2011-04-21T08:59:14Z</time>
      </trkpt>
      <trkpt lat="43.84099" lon="5.48228">
        <ele>395.719849</ele>
        <time>2011-04-21T08:59:39Z</time>
      </trkpt>
      <trkpt lat="43.84094" lon="5.48227">
        <ele>395.239136</ele>
        <time>2011-04-21T08:59:45Z</time>
      </trkpt>
      <trkpt lat="43.84055" lon="5.48202">
        <ele>397.642456</ele>
        <time>2011-04-21T09:00:11Z</time>
      </trkpt>
      <trkpt lat="43.84048" lon="5.48186">
        <ele>399.084351</ele>
        <time>2011-04-21T09:00:16Z</time>
      </trkpt>
      <trkpt lat="43.84045" lon="5.48165">
        <ele>400.526489</ele>
        <time>2011-04-21T09:00:22Z</time>
      </trkpt>
      <trkpt lat="43.8405" lon="5.48141">
        <ele>402.929688</ele>
        <time>2011-04-21T09:00:28Z</time>
      </trkpt>
      <trkpt lat="43.8406" lon="5.48109">
        <ele>410.139648</ele>
        <time>2011-04-21T09:00:39Z</time>
      </trkpt>
      <trkpt lat="43.84057" lon="5.4809">
        <ele>409.659058</ele>
        <time>2011-04-21T09:00:45Z</time>
      </trkpt>
      <trkpt lat="43.84045" lon="5.48073">
        <ele>407.736328</ele>
        <time>2011-04-21T09:00:53Z</time>
      </trkpt>
      <trkpt lat="43.84029" lon="5.48063">
        <ele>406.774902</ele>
        <time>2011-04-21T09:01:01Z</time>
      </trkpt>
      <trkpt lat="43.84007" lon="5.48056">
        <ele>408.697632</ele>
        <time>2011-04-21T09:01:11Z</time>
      </trkpt>
      <trkpt lat="43.83989" lon="5.48053">
        <ele>409.659058</ele>
        <time>2011-04-21T09:01:18Z</time>
      </trkpt>
      <trkpt lat="43.83942" lon="5.48058">
        <ele>408.697632</ele>
        <time>2011-04-21T09:01:35Z</time>
      </trkpt>
      <trkpt lat="43.83924" lon="5.48056">
        <ele>412.062256</ele>
        <time>2011-04-21T09:01:42Z</time>
      </trkpt>
      <trkpt lat="43.83914" lon="5.48047">
        <ele>413.984863</ele>
        <time>2011-04-21T09:01:47Z</time>
      </trkpt>
      <trkpt lat="43.83913" lon="5.4803">
        <ele>415.42688</ele>
        <time>2011-04-21T09:01:52Z</time>
      </trkpt>
      <trkpt lat="43.83921" lon="5.48014">
        <ele>417.349609</ele>
        <time>2011-04-21T09:01:58Z</time>
      </trkpt>
      <trkpt lat="43.83929" lon="5.48">
        <ele>420.714111</ele>
        <time>2011-04-21T09:02:05Z</time>
      </trkpt>
      <trkpt lat="43.83959" lon="5.47983">
        <ele>426.001343</ele>
        <time>2011-04-21T09:02:19Z</time>
      </trkpt>
      <trkpt lat="43.83975" lon="5.47972">
        <ele>425.520752</ele>
        <time>2011-04-21T09:02:26Z</time>
      </trkpt>
      <trkpt lat="43.83991" lon="5.47952">
        <ele>426.962769</ele>
        <time>2011-04-21T09:02:34Z</time>
      </trkpt>
      <trkpt lat="43.84031" lon="5.47872">
        <ele>439.94043</ele>
        <time>2011-04-21T09:03:02Z</time>
      </trkpt>
      <trkpt lat="43.84033" lon="5.47862">
        <ele>439.459717</ele>
        <time>2011-04-21T09:03:05Z</time>
      </trkpt>
      <trkpt lat="43.84024" lon="5.47859">
        <ele>435.133911</ele>
        <time>2011-04-21T09:03:11Z</time>
      </trkpt>
      <trkpt lat="43.84013" lon="5.47875">
        <ele>433.211304</ele>
        <time>2011-04-21T09:03:18Z</time>
      </trkpt>
      <trkpt lat="43.84" lon="5.47883">
        <ele>434.172607</ele>
        <time>2011-04-21T09:03:24Z</time>
      </trkpt>
      <trkpt lat="43.83987" lon="5.47882">
        <ele>436.095215</ele>
        <time>2011-04-21T09:03:30Z</time>
      </trkpt>
      <trkpt lat="43.83929" lon="5.4785">
        <ele>438.498535</ele>
        <time>2011-04-21T09:03:54Z</time>
      </trkpt>
      <trkpt lat="43.83918" lon="5.47838">
        <ele>439.94043</ele>
        <time>2011-04-21T09:04:00Z</time>
      </trkpt>
      <trkpt lat="43.83919" lon="5.47819">
        <ele>440.901855</ele>
        <time>2011-04-21T09:04:06Z</time>
      </trkpt>
      <trkpt lat="43.83939" lon="5.47748">
        <ele>445.708374</ele>
        <time>2011-04-21T09:04:35Z</time>
      </trkpt>
      <trkpt lat="43.83962" lon="5.47714">
        <ele>450.995605</ele>
        <time>2011-04-21T09:04:50Z</time>
      </trkpt>
      <trkpt lat="43.83966" lon="5.47698">
        <ele>452.918213</ele>
        <time>2011-04-21T09:04:55Z</time>
      </trkpt>
      <trkpt lat="43.8396" lon="5.4769">
        <ele>454.360229</ele>
        <time>2011-04-21T09:04:59Z</time>
      </trkpt>
      <trkpt lat="43.83951" lon="5.47692">
        <ele>454.360229</ele>
        <time>2011-04-21T09:05:03Z</time>
      </trkpt>
      <trkpt lat="43.83905" lon="5.47723">
        <ele>454.84082</ele>
        <time>2011-04-21T09:05:25Z</time>
      </trkpt>
      <trkpt lat="43.83885" lon="5.47733">
        <ele>455.321533</ele>
        <time>2011-04-21T09:05:34Z</time>
      </trkpt>
      <trkpt lat="43.83871" lon="5.47727">
        <ele>456.76355</ele>
        <time>2011-04-21T09:05:40Z</time>
      </trkpt>
      <trkpt lat="43.83867" lon="5.4771">
        <ele>458.205566</ele>
        <time>2011-04-21T09:05:45Z</time>
      </trkpt>
      <trkpt lat="43.8387" lon="5.47684">
        <ele>458.205566</ele>
        <time>2011-04-21T09:05:52Z</time>
      </trkpt>
      <trkpt lat="43.83902" lon="5.47524">
        <ele>465.415527</ele>
        <time>2011-04-21T09:06:36Z</time>
      </trkpt>
      <trkpt lat="43.83919" lon="5.47472">
        <ele>468.299316</ele>
        <time>2011-04-21T09:07:01Z</time>
      </trkpt>
      <trkpt lat="43.83928" lon="5.47451">
        <ele>467.338135</ele>
        <time>2011-04-21T09:07:09Z</time>
      </trkpt>
      <trkpt lat="43.83944" lon="5.47403">
        <ele>469.260742</ele>
        <time>2011-04-21T09:07:23Z</time>
      </trkpt>
      <trkpt lat="43.83958" lon="5.4737">
        <ele>473.58667</ele>
        <time>2011-04-21T09:07:33Z</time>
      </trkpt>
      <trkpt lat="43.83972" lon="5.47348">
        <ele>475.028687</ele>
        <time>2011-04-21T09:07:41Z</time>
      </trkpt>
      <trkpt lat="43.83998" lon="5.47288">
        <ele>484.641846</ele>
        <time>2011-04-21T09:08:00Z</time>
      </trkpt>
      <trkpt lat="43.84003" lon="5.47267">
        <ele>483.199829</ele>
        <time>2011-04-21T09:08:06Z</time>
      </trkpt>
      <trkpt lat="43.84004" lon="5.47216">
        <ele>482.719238</ele>
        <time>2011-04-21T09:08:20Z</time>
      </trkpt>
      <trkpt lat="43.83997" lon="5.47106">
        <ele>491.370972</ele>
        <time>2011-04-21T09:08:49Z</time>
      </trkpt>
      <trkpt lat="43.83997" lon="5.47054">
        <ele>493.774292</ele>
        <time>2011-04-21T09:09:02Z</time>
      </trkpt>
      <trkpt lat="43.8399" lon="5.4701">
        <ele>492.332397</ele>
        <time>2011-04-21T09:09:13Z</time>
      </trkpt>
      <trkpt lat="43.8395" lon="5.46875">
        <ele>495.216187</ele>
        <time>2011-04-21T09:09:49Z</time>
      </trkpt>
      <trkpt lat="43.83925" lon="5.46814">
        <ele>496.177734</ele>
        <time>2011-04-21T09:10:06Z</time>
      </trkpt>
      <trkpt lat="43.8392" lon="5.46792">
        <ele>499.542236</ele>
        <time>2011-04-21T09:10:12Z</time>
      </trkpt>
      <trkpt lat="43.83921" lon="5.46762">
        <ele>504.829468</ele>
        <time>2011-04-21T09:10:19Z</time>
      </trkpt>
      <trkpt lat="43.83931" lon="5.46709">
        <ele>509.155396</ele>
        <time>2011-04-21T09:10:32Z</time>
      </trkpt>
      <trkpt lat="43.83929" lon="5.46683">
        <ele>511.078003</ele>
        <time>2011-04-21T09:10:39Z</time>
      </trkpt>
      <trkpt lat="43.83915" lon="5.46669">
        <ele>511.078003</ele>
        <time>2011-04-21T09:10:45Z</time>
      </trkpt>
      <trkpt lat="43.83898" lon="5.46665">
        <ele>510.116699</ele>
        <time>2011-04-21T09:10:51Z</time>
      </trkpt>
      <trkpt lat="43.83875" lon="5.46664">
        <ele>512.039429</ele>
        <time>2011-04-21T09:10:59Z</time>
      </trkpt>
      <trkpt lat="43.83856" lon="5.46658">
        <ele>514.442627</ele>
        <time>2011-04-21T09:11:06Z</time>
      </trkpt>
      <trkpt lat="43.83838" lon="5.46638">
        <ele>513.481445</ele>
        <time>2011-04-21T09:11:13Z</time>
      </trkpt>
      <trkpt lat="43.83796" lon="5.46568">
        <ele>514.442627</ele>
        <time>2011-04-21T09:11:35Z</time>
      </trkpt>
      <trkpt lat="43.83766" lon="5.4651">
        <ele>513.000732</ele>
        <time>2011-04-21T09:11:53Z</time>
      </trkpt>
      <trkpt lat="43.83753" lon="5.4649">
        <ele>513.962036</ele>
        <time>2011-04-21T09:12:00Z</time>
      </trkpt>
      <trkpt lat="43.83735" lon="5.46474">
        <ele>515.404053</ele>
        <time>2011-04-21T09:12:08Z</time>
      </trkpt>
      <trkpt lat="43.83724" lon="5.46455">
        <ele>517.32666</ele>
        <time>2011-04-21T09:12:14Z</time>
      </trkpt>
      <trkpt lat="43.83726" lon="5.46433">
        <ele>521.652588</ele>
        <time>2011-04-21T09:12:19Z</time>
      </trkpt>
      <trkpt lat="43.83736" lon="5.46415">
        <ele>525.978394</ele>
        <time>2011-04-21T09:12:25Z</time>
      </trkpt>
      <trkpt lat="43.83754" lon="5.46393">
        <ele>528.862549</ele>
        <time>2011-04-21T09:12:33Z</time>
      </trkpt>
      <trkpt lat="43.83766" lon="5.46369">
        <ele>527.901001</ele>
        <time>2011-04-21T09:12:41Z</time>
      </trkpt>
      <trkpt lat="43.83779" lon="5.46356">
        <ele>529.34314</ele>
        <time>2011-04-21T09:12:47Z</time>
      </trkpt>
      <trkpt lat="43.8381" lon="5.46343">
        <ele>533.668945</ele>
        <time>2011-04-21T09:13:00Z</time>
      </trkpt>
      <trkpt lat="43.83819" lon="5.4633">
        <ele>534.630371</ele>
        <time>2011-04-21T09:13:05Z</time>
      </trkpt>
      <trkpt lat="43.83821" lon="5.46311">
        <ele>536.072388</ele>
        <time>2011-04-21T09:13:10Z</time>
      </trkpt>
      <trkpt lat="43.83821" lon="5.46282">
        <ele>537.514282</ele>
        <time>2011-04-21T09:13:17Z</time>
      </trkpt>
      <trkpt lat="43.83817" lon="5.46258">
        <ele>536.553101</ele>
        <time>2011-04-21T09:13:24Z</time>
      </trkpt>
      <trkpt lat="43.83807" lon="5.4624">
        <ele>536.553101</ele>
        <time>2011-04-21T09:13:31Z</time>
      </trkpt>
      <trkpt lat="43.83791" lon="5.46225">
        <ele>538.475708</ele>
        <time>2011-04-21T09:13:39Z</time>
      </trkpt>
      <trkpt lat="43.83774" lon="5.46202">
        <ele>539.917603</ele>
        <time>2011-04-21T09:13:49Z</time>
      </trkpt>
      <trkpt lat="43.83714" lon="5.46108">
        <ele>549.530762</ele>
        <time>2011-04-21T09:14:29Z</time>
      </trkpt>
      <trkpt lat="43.83708" lon="5.46088">
        <ele>550.492188</ele>
        <time>2011-04-21T09:14:36Z</time>
      </trkpt>
      <trkpt lat="43.83712" lon="5.4607">
        <ele>552.414551</ele>
        <time>2011-04-21T09:14:42Z</time>
      </trkpt>
      <trkpt lat="43.83723" lon="5.46057">
        <ele>553.375977</ele>
        <time>2011-04-21T09:14:48Z</time>
      </trkpt>
      <trkpt lat="43.83756" lon="5.46025">
        <ele>558.182861</ele>
        <time>2011-04-21T09:15:05Z</time>
      </trkpt>
      <trkpt lat="43.8378" lon="5.45995">
        <ele>564.431152</ele>
        <time>2011-04-21T09:15:20Z</time>
      </trkpt>
      <trkpt lat="43.83784" lon="5.45976">
        <ele>566.834473</ele>
        <time>2011-04-21T09:15:26Z</time>
      </trkpt>
      <trkpt lat="43.83778" lon="5.45968">
        <ele>566.35376</ele>
        <time>2011-04-21T09:15:30Z</time>
      </trkpt>
      <trkpt lat="43.8376" lon="5.4597">
        <ele>565.873291</ele>
        <time>2011-04-21T09:15:37Z</time>
      </trkpt>
      <trkpt lat="43.83675" lon="5.46003">
        <ele>573.563965</ele>
        <time>2011-04-21T09:16:16Z</time>
      </trkpt>
      <trkpt lat="43.83667" lon="5.46003">
        <ele>574.525146</ele>
        <time>2011-04-21T09:16:19Z</time>
      </trkpt>
      <trkpt lat="43.83663" lon="5.4599">
        <ele>575.967041</ele>
        <time>2011-04-21T09:16:24Z</time>
      </trkpt>
      <trkpt lat="43.83667" lon="5.45982">
        <ele>577.889648</ele>
        <time>2011-04-21T09:16:27Z</time>
      </trkpt>
      <trkpt lat="43.83683" lon="5.45968">
        <ele>580.773682</ele>
        <time>2011-04-21T09:16:35Z</time>
      </trkpt>
      <trkpt lat="43.83699" lon="5.4595">
        <ele>581.734863</ele>
        <time>2011-04-21T09:16:44Z</time>
      </trkpt>
      <trkpt lat="43.8371" lon="5.4593">
        <ele>583.657471</ele>
        <time>2011-04-21T09:16:52Z</time>
      </trkpt>
      <trkpt lat="43.8371" lon="5.45912">
        <ele>583.657471</ele>
        <time>2011-04-21T09:16:58Z</time>
      </trkpt>
      <trkpt lat="43.83704" lon="5.45894">
        <ele>585.099609</ele>
        <time>2011-04-21T09:17:05Z</time>
      </trkpt>
      <trkpt lat="43.83699" lon="5.45875">
        <ele>586.541504</ele>
        <time>2011-04-21T09:17:16Z</time>
      </trkpt>
      <trkpt lat="43.83708" lon="5.4585">
        <ele>586.060791</ele>
        <time>2011-04-21T09:17:38Z</time>
      </trkpt>
      <trkpt lat="43.83739" lon="5.45799">
        <ele>584.138184</ele>
        <time>2011-04-21T09:17:50Z</time>
      </trkpt>
      <trkpt lat="43.83751" lon="5.45784">
        <ele>584.138184</ele>
        <time>2011-04-21T09:17:53Z</time>
      </trkpt>
      <trkpt lat="43.8376" lon="5.45776">
        <ele>584.138184</ele>
        <time>2011-04-21T09:17:55Z</time>
      </trkpt>
      <trkpt lat="43.83783" lon="5.45768">
        <ele>583.657471</ele>
        <time>2011-04-21T09:17:59Z</time>
      </trkpt>
      <trkpt lat="43.83899" lon="5.45761">
        <ele>577.889648</ele>
        <time>2011-04-21T09:18:16Z</time>
      </trkpt>
      <trkpt lat="43.83921" lon="5.45749">
        <ele>578.370361</ele>
        <time>2011-04-21T09:18:20Z</time>
      </trkpt>
      <trkpt lat="43.83949" lon="5.45705">
        <ele>580.773682</ele>
        <time>2011-04-21T09:18:29Z</time>
      </trkpt>
      <trkpt lat="43.83995" lon="5.45622">
        <ele>588.945068</ele>
        <time>2011-04-21T09:18:52Z</time>
      </trkpt>
      <trkpt lat="43.84013" lon="5.45605">
        <ele>589.425537</ele>
        <time>2011-04-21T09:18:59Z</time>
      </trkpt>
      <trkpt lat="43.84032" lon="5.45604">
        <ele>588.945068</ele>
        <time>2011-04-21T09:19:05Z</time>
      </trkpt>
      <trkpt lat="43.84053" lon="5.45613">
        <ele>589.425537</ele>
        <time>2011-04-21T09:19:12Z</time>
      </trkpt>
      <trkpt lat="43.84082" lon="5.45629">
        <ele>588.945068</ele>
        <time>2011-04-21T09:19:22Z</time>
      </trkpt>
      <trkpt lat="43.84086" lon="5.45619">
        <ele>589.425537</ele>
        <time>2011-04-21T09:19:27Z</time>
      </trkpt>
      <trkpt lat="43.84091" lon="5.45553">
        <ele>592.790283</ele>
        <time>2011-04-21T09:19:50Z</time>
      </trkpt>
      <trkpt lat="43.84089" lon="5.45541">
        <ele>595.674072</ele>
        <time>2011-04-21T09:19:57Z</time>
      </trkpt>
      <trkpt lat="43.8409" lon="5.45541">
        <ele>598.077393</ele>
        <time>2011-04-21T09:20:04Z</time>
      </trkpt>
      <trkpt lat="43.8409" lon="5.45544">
        <ele>605.287354</ele>
        <time>2011-04-21T09:20:37Z</time>
      </trkpt>
      <trkpt lat="43.84092" lon="5.45546">
        <ele>612.977783</ele>
        <time>2011-04-21T09:21:49Z</time>
      </trkpt>
      <trkpt lat="43.8409" lon="5.45544">
        <ele>609.613281</ele>
        <time>2011-04-21T09:22:00Z</time>
      </trkpt>
      <trkpt lat="43.84091" lon="5.45537">
        <ele>606.729248</ele>
        <time>2011-04-21T09:27:05Z</time>
      </trkpt>
      <trkpt lat="43.84086" lon="5.45539">
        <ele>607.690674</ele>
        <time>2011-04-21T09:28:11Z</time>
      </trkpt>
      <trkpt lat="43.84073" lon="5.4553">
        <ele>608.171387</ele>
        <time>2011-04-21T09:28:22Z</time>
      </trkpt>
      <trkpt lat="43.8403" lon="5.45517">
        <ele>612.977783</ele>
        <time>2011-04-21T09:28:49Z</time>
      </trkpt>
      <trkpt lat="43.84007" lon="5.45515">
        <ele>615.381104</ele>
        <time>2011-04-21T09:29:04Z</time>
      </trkpt>
      <trkpt lat="43.83973" lon="5.455">
        <ele>619.226318</ele>
        <time>2011-04-21T09:29:27Z</time>
      </trkpt>
      <trkpt lat="43.83916" lon="5.4546">
        <ele>623.071777</ele>
        <time>2011-04-21T09:30:04Z</time>
      </trkpt>
      <trkpt lat="43.83902" lon="5.45453">
        <ele>623.071777</ele>
        <time>2011-04-21T09:30:12Z</time>
      </trkpt>
      <trkpt lat="43.83868" lon="5.4543">
        <ele>628.8396</ele>
        <time>2011-04-21T09:30:35Z</time>
      </trkpt>
      <trkpt lat="43.83801" lon="5.45393">
        <ele>636.530273</ele>
        <time>2011-04-21T09:31:19Z</time>
      </trkpt>
      <trkpt lat="43.83741" lon="5.45375">
        <ele>638.452881</ele>
        <time>2011-04-21T09:31:53Z</time>
      </trkpt>
      <trkpt lat="43.83681" lon="5.45362">
        <ele>646.143311</ele>
        <time>2011-04-21T09:32:28Z</time>
      </trkpt>
      <trkpt lat="43.83655" lon="5.45351">
        <ele>648.065918</ele>
        <time>2011-04-21T09:32:42Z</time>
      </trkpt>
      <trkpt lat="43.83636" lon="5.45337">
        <ele>649.988525</ele>
        <time>2011-04-21T09:32:54Z</time>
      </trkpt>
      <trkpt lat="43.83617" lon="5.45316">
        <ele>654.795166</ele>
        <time>2011-04-21T09:33:08Z</time>
      </trkpt>
      <trkpt lat="43.83606" lon="5.45309">
        <ele>655.275879</ele>
        <time>2011-04-21T09:33:14Z</time>
      </trkpt>
      <trkpt lat="43.83582" lon="5.45302">
        <ele>657.198486</ele>
        <time>2011-04-21T09:33:27Z</time>
      </trkpt>
      <trkpt lat="43.83564" lon="5.45301">
        <ele>658.159912</ele>
        <time>2011-04-21T09:33:35Z</time>
      </trkpt>
      <trkpt lat="43.83524" lon="5.45302">
        <ele>660.082275</ele>
        <time>2011-04-21T09:33:54Z</time>
      </trkpt>
      <trkpt lat="43.83493" lon="5.4529">
        <ele>664.888916</ele>
        <time>2011-04-21T09:34:12Z</time>
      </trkpt>
      <trkpt lat="43.83449" lon="5.45253">
        <ele>670.656982</ele>
        <time>2011-04-21T09:34:40Z</time>
      </trkpt>
      <trkpt lat="43.8343" lon="5.45231">
        <ele>674.98291</ele>
        <time>2011-04-21T09:34:54Z</time>
      </trkpt>
      <trkpt lat="43.83379" lon="5.45152">
        <ele>675.463379</ele>
        <time>2011-04-21T09:35:32Z</time>
      </trkpt>
      <trkpt lat="43.83368" lon="5.45139">
        <ele>678.828125</ele>
        <time>2011-04-21T09:35:40Z</time>
      </trkpt>
      <trkpt lat="43.83361" lon="5.45134">
        <ele>680.750732</ele>
        <time>2011-04-21T09:35:45Z</time>
      </trkpt>
      <trkpt lat="43.8334" lon="5.45115">
        <ele>687.47998</ele>
        <time>2011-04-21T09:36:01Z</time>
      </trkpt>
      <trkpt lat="43.8333" lon="5.4511">
        <ele>689.883301</ele>
        <time>2011-04-21T09:36:07Z</time>
      </trkpt>
      <trkpt lat="43.83303" lon="5.4509">
        <ele>693.728516</ele>
        <time>2011-04-21T09:36:23Z</time>
      </trkpt>
      <trkpt lat="43.83267" lon="5.45035">
        <ele>693.728516</ele>
        <time>2011-04-21T09:36:45Z</time>
      </trkpt>
      <trkpt lat="43.8325" lon="5.45028">
        <ele>694.209229</ele>
        <time>2011-04-21T09:36:51Z</time>
      </trkpt>
      <trkpt lat="43.83228" lon="5.45033">
        <ele>694.689697</ele>
        <time>2011-04-21T09:36:58Z</time>
      </trkpt>
      <trkpt lat="43.83209" lon="5.45045">
        <ele>692.767334</ele>
        <time>2011-04-21T09:37:04Z</time>
      </trkpt>
      <trkpt lat="43.83192" lon="5.45064">
        <ele>691.325195</ele>
        <time>2011-04-21T09:37:11Z</time>
      </trkpt>
      <trkpt lat="43.83122" lon="5.45176">
        <ele>697.093018</ele>
        <time>2011-04-21T09:37:55Z</time>
      </trkpt>
      <trkpt lat="43.83114" lon="5.45193">
        <ele>697.57373</ele>
        <time>2011-04-21T09:38:01Z</time>
      </trkpt>
      <trkpt lat="43.83102" lon="5.45205">
        <ele>697.57373</ele>
        <time>2011-04-21T09:38:08Z</time>
      </trkpt>
      <trkpt lat="43.8309" lon="5.45212">
        <ele>699.977051</ele>
        <time>2011-04-21T09:38:14Z</time>
      </trkpt>
      <trkpt lat="43.83072" lon="5.45215">
        <ele>702.861084</ele>
        <time>2011-04-21T09:38:22Z</time>
      </trkpt>
      <trkpt lat="43.83055" lon="5.45211">
        <ele>704.783691</ele>
        <time>2011-04-21T09:38:30Z</time>
      </trkpt>
      <trkpt lat="43.83044" lon="5.452">
        <ele>707.187012</ele>
        <time>2011-04-21T09:38:37Z</time>
      </trkpt>
      <trkpt lat="43.83033" lon="5.45183">
        <ele>708.628906</ele>
        <time>2011-04-21T09:38:44Z</time>
      </trkpt>
      <trkpt lat="43.83025" lon="5.45162">
        <ele>709.109619</ele>
        <time>2011-04-21T09:38:51Z</time>
      </trkpt>
      <trkpt lat="43.83012" lon="5.45141">
        <ele>709.590332</ele>
        <time>2011-04-21T09:38:59Z</time>
      </trkpt>
      <trkpt lat="43.83002" lon="5.45123">
        <ele>709.590332</ele>
        <time>2011-04-21T09:39:06Z</time>
      </trkpt>
      <trkpt lat="43.82994" lon="5.45102">
        <ele>709.109619</ele>
        <time>2011-04-21T09:39:13Z</time>
      </trkpt>
      <trkpt lat="43.82988" lon="5.45047">
        <ele>714.396729</ele>
        <time>2011-04-21T09:39:33Z</time>
      </trkpt>
      <trkpt lat="43.82991" lon="5.45032">
        <ele>718.242188</ele>
        <time>2011-04-21T09:39:39Z</time>
      </trkpt>
      <trkpt lat="43.82992" lon="5.45014">
        <ele>720.645508</ele>
        <time>2011-04-21T09:39:46Z</time>
      </trkpt>
      <trkpt lat="43.82988" lon="5.45006">
        <ele>721.126221</ele>
        <time>2011-04-21T09:39:50Z</time>
      </trkpt>
      <trkpt lat="43.82979" lon="5.45004">
        <ele>722.568115</ele>
        <time>2011-04-21T09:39:56Z</time>
      </trkpt>
      <trkpt lat="43.82974" lon="5.45013">
        <ele>727.374756</ele>
        <time>2011-04-21T09:40:01Z</time>
      </trkpt>
      <trkpt lat="43.82967" lon="5.45035">
        <ele>728.335938</ele>
        <time>2011-04-21T09:40:11Z</time>
      </trkpt>
      <trkpt lat="43.82963" lon="5.45089">
        <ele>726.894043</ele>
        <time>2011-04-21T09:40:30Z</time>
      </trkpt>
      <trkpt lat="43.82958" lon="5.45113">
        <ele>726.41333</ele>
        <time>2011-04-21T09:40:39Z</time>
      </trkpt>
      <trkpt lat="43.82948" lon="5.45136">
        <ele>730.739258</ele>
        <time>2011-04-21T09:40:48Z</time>
      </trkpt>
      <trkpt lat="43.82928" lon="5.45165">
        <ele>734.584717</ele>
        <time>2011-04-21T09:41:03Z</time>
      </trkpt>
      <trkpt lat="43.82887" lon="5.45261">
        <ele>742.275146</ele>
        <time>2011-04-21T09:41:49Z</time>
      </trkpt>
      <trkpt lat="43.82878" lon="5.45302">
        <ele>744.678223</ele>
        <time>2011-04-21T09:42:06Z</time>
      </trkpt>
      <trkpt lat="43.8288" lon="5.45316">
        <ele>746.120361</ele>
        <time>2011-04-21T09:42:12Z</time>
      </trkpt>
      <trkpt lat="43.82879" lon="5.45332">
        <ele>747.081543</ele>
        <time>2011-04-21T09:42:19Z</time>
      </trkpt>
      <trkpt lat="43.82875" lon="5.45347">
        <ele>748.523682</ele>
        <time>2011-04-21T09:42:25Z</time>
      </trkpt>
      <trkpt lat="43.82867" lon="5.45353">
        <ele>750.446533</ele>
        <time>2011-04-21T09:42:30Z</time>
      </trkpt>
      <trkpt lat="43.8286" lon="5.45346">
        <ele>750.446533</ele>
        <time>2011-04-21T09:42:35Z</time>
      </trkpt>
      <trkpt lat="43.82858" lon="5.45329">
        <ele>750.927002</ele>
        <time>2011-04-21T09:42:41Z</time>
      </trkpt>
      <trkpt lat="43.82861" lon="5.45313">
        <ele>753.811035</ele>
        <time>2011-04-21T09:42:47Z</time>
      </trkpt>
      <trkpt lat="43.82857" lon="5.4529">
        <ele>751.407715</ele>
        <time>2011-04-21T09:42:55Z</time>
      </trkpt>
      <trkpt lat="43.8285" lon="5.45273">
        <ele>750.446533</ele>
        <time>2011-04-21T09:43:02Z</time>
      </trkpt>
      <trkpt lat="43.82839" lon="5.45255">
        <ele>750.446533</ele>
        <time>2011-04-21T09:43:10Z</time>
      </trkpt>
      <trkpt lat="43.82833" lon="5.45239">
        <ele>750.927002</ele>
        <time>2011-04-21T09:43:16Z</time>
      </trkpt>
      <trkpt lat="43.82822" lon="5.45222">
        <ele>751.407715</ele>
        <time>2011-04-21T09:43:24Z</time>
      </trkpt>
      <trkpt lat="43.82816" lon="5.45221">
        <ele>756.694824</ele>
        <time>2011-04-21T09:43:30Z</time>
      </trkpt>
      <trkpt lat="43.82809" lon="5.45231">
        <ele>758.136963</ele>
        <time>2011-04-21T09:43:35Z</time>
      </trkpt>
      <trkpt lat="43.82808" lon="5.45243">
        <ele>757.175537</ele>
        <time>2011-04-21T09:43:40Z</time>
      </trkpt>
      <trkpt lat="43.82825" lon="5.45268">
        <ele>759.098145</ele>
        <time>2011-04-21T09:43:54Z</time>
      </trkpt>
      <trkpt lat="43.8283" lon="5.45288">
        <ele>759.578857</ele>
        <time>2011-04-21T09:44:02Z</time>
      </trkpt>
      <trkpt lat="43.82829" lon="5.45307">
        <ele>761.501465</ele>
        <time>2011-04-21T09:44:09Z</time>
      </trkpt>
      <trkpt lat="43.82821" lon="5.45349">
        <ele>765.346924</ele>
        <time>2011-04-21T09:44:25Z</time>
      </trkpt>
      <trkpt lat="43.82818" lon="5.45369">
        <ele>766.308105</ele>
        <time>2011-04-21T09:44:33Z</time>
      </trkpt>
      <trkpt lat="43.82825" lon="5.45413">
        <ele>769.672852</ele>
        <time>2011-04-21T09:44:50Z</time>
      </trkpt>
      <trkpt lat="43.8283" lon="5.45431">
        <ele>771.595215</ele>
        <time>2011-04-21T09:44:58Z</time>
      </trkpt>
      <trkpt lat="43.82829" lon="5.45451">
        <ele>773.518066</ele>
        <time>2011-04-21T09:45:05Z</time>
      </trkpt>
      <trkpt lat="43.82819" lon="5.45453">
        <ele>773.037354</ele>
        <time>2011-04-21T09:45:11Z</time>
      </trkpt>
      <trkpt lat="43.82815" lon="5.45445">
        <ele>772.556641</ele>
        <time>2011-04-21T09:45:15Z</time>
      </trkpt>
      <trkpt lat="43.82802" lon="5.45383">
        <ele>774.479248</ele>
        <time>2011-04-21T09:45:39Z</time>
      </trkpt>
      <trkpt lat="43.82787" lon="5.45344">
        <ele>776.882568</ele>
        <time>2011-04-21T09:45:55Z</time>
      </trkpt>
      <trkpt lat="43.82775" lon="5.45328">
        <ele>776.401855</ele>
        <time>2011-04-21T09:46:03Z</time>
      </trkpt>
      <trkpt lat="43.82766" lon="5.4532">
        <ele>779.285645</ele>
        <time>2011-04-21T09:46:10Z</time>
      </trkpt>
      <trkpt lat="43.82756" lon="5.45325">
        <ele>785.534424</ele>
        <time>2011-04-21T09:46:18Z</time>
      </trkpt>
      <trkpt lat="43.82729" lon="5.45345">
        <ele>786.976318</ele>
        <time>2011-04-21T09:46:34Z</time>
      </trkpt>
      <trkpt lat="43.82711" lon="5.4535">
        <ele>788.89917</ele>
        <time>2011-04-21T09:46:43Z</time>
      </trkpt>
      <trkpt lat="43.82703" lon="5.45339">
        <ele>789.379639</ele>
        <time>2011-04-21T09:46:48Z</time>
      </trkpt>
      <trkpt lat="43.827" lon="5.45324">
        <ele>788.418457</ele>
        <time>2011-04-21T09:46:53Z</time>
      </trkpt>
      <trkpt lat="43.82704" lon="5.45284">
        <ele>794.666748</ele>
        <time>2011-04-21T09:47:07Z</time>
      </trkpt>
      <trkpt lat="43.82699" lon="5.45267">
        <ele>793.705566</ele>
        <time>2011-04-21T09:47:13Z</time>
      </trkpt>
      <trkpt lat="43.82689" lon="5.45257">
        <ele>793.705566</ele>
        <time>2011-04-21T09:47:19Z</time>
      </trkpt>
      <trkpt lat="43.82674" lon="5.4526">
        <ele>796.109131</ele>
        <time>2011-04-21T09:47:27Z</time>
      </trkpt>
      <trkpt lat="43.8265" lon="5.45277">
        <ele>798.99292</ele>
        <time>2011-04-21T09:47:41Z</time>
      </trkpt>
      <trkpt lat="43.82584" lon="5.45311">
        <ele>810.528564</ele>
        <time>2011-04-21T09:48:20Z</time>
      </trkpt>
      <trkpt lat="43.82568" lon="5.45317">
        <ele>812.451416</ele>
        <time>2011-04-21T09:48:29Z</time>
      </trkpt>
      <trkpt lat="43.82555" lon="5.45319">
        <ele>814.854736</ele>
        <time>2011-04-21T09:48:36Z</time>
      </trkpt>
      <trkpt lat="43.8254" lon="5.45316">
        <ele>817.738525</ele>
        <time>2011-04-21T09:48:45Z</time>
      </trkpt>
      <trkpt lat="43.82528" lon="5.4531">
        <ele>823.025879</ele>
        <time>2011-04-21T09:48:53Z</time>
      </trkpt>
      <trkpt lat="43.82517" lon="5.453">
        <ele>829.274414</ele>
        <time>2011-04-21T09:49:01Z</time>
      </trkpt>
      <trkpt lat="43.825" lon="5.45289">
        <ele>827.832275</ele>
        <time>2011-04-21T09:49:09Z</time>
      </trkpt>
      <trkpt lat="43.82442" lon="5.45266">
        <ele>830.716553</ele>
        <time>2011-04-21T09:49:41Z</time>
      </trkpt>
      <trkpt lat="43.82427" lon="5.45265">
        <ele>830.716553</ele>
        <time>2011-04-21T09:49:49Z</time>
      </trkpt>
      <trkpt lat="43.82415" lon="5.45259">
        <ele>831.197266</ele>
        <time>2011-04-21T09:49:56Z</time>
      </trkpt>
      <trkpt lat="43.82409" lon="5.4524">
        <ele>829.755127</ele>
        <time>2011-04-21T09:50:03Z</time>
      </trkpt>
      <trkpt lat="43.82411" lon="5.45229">
        <ele>827.832275</ele>
        <time>2011-04-21T09:50:08Z</time>
      </trkpt>
      <trkpt lat="43.82421" lon="5.4522">
        <ele>831.677734</ele>
        <time>2011-04-21T09:50:16Z</time>
      </trkpt>
      <trkpt lat="43.82442" lon="5.45205">
        <ele>837.445557</ele>
        <time>2011-04-21T09:50:30Z</time>
      </trkpt>
      <trkpt lat="43.82477" lon="5.4519">
        <ele>836.964844</ele>
        <time>2011-04-21T09:50:49Z</time>
      </trkpt>
      <trkpt lat="43.82494" lon="5.45187">
        <ele>836.003662</ele>
        <time>2011-04-21T09:50:57Z</time>
      </trkpt>
      <trkpt lat="43.82508" lon="5.45186">
        <ele>834.081055</ele>
        <time>2011-04-21T09:51:04Z</time>
      </trkpt>
      <trkpt lat="43.82523" lon="5.45182">
        <ele>838.887695</ele>
        <time>2011-04-21T09:51:13Z</time>
      </trkpt>
      <trkpt lat="43.82546" lon="5.45159">
        <ele>844.175049</ele>
        <time>2011-04-21T09:51:29Z</time>
      </trkpt>
      <trkpt lat="43.82572" lon="5.45122">
        <ele>848.500732</ele>
        <time>2011-04-21T09:51:49Z</time>
      </trkpt>
      <trkpt lat="43.82604" lon="5.45061">
        <ele>854.268799</ele>
        <time>2011-04-21T09:52:17Z</time>
      </trkpt>
      <trkpt lat="43.82639" lon="5.45018">
        <ele>860.517334</ele>
        <time>2011-04-21T09:52:41Z</time>
      </trkpt>
      <trkpt lat="43.82641" lon="5.45">
        <ele>862.439941</ele>
        <time>2011-04-21T09:52:48Z</time>
      </trkpt>
      <trkpt lat="43.82638" lon="5.44977">
        <ele>860.998047</ele>
        <time>2011-04-21T09:52:56Z</time>
      </trkpt>
      <trkpt lat="43.82632" lon="5.44959">
        <ele>859.555908</ele>
        <time>2011-04-21T09:53:03Z</time>
      </trkpt>
      <trkpt lat="43.82628" lon="5.44939">
        <ele>858.114014</ele>
        <time>2011-04-21T09:53:10Z</time>
      </trkpt>
      <trkpt lat="43.82623" lon="5.44897">
        <ele>858.594482</ele>
        <time>2011-04-21T09:53:26Z</time>
      </trkpt>
      <trkpt lat="43.8262" lon="5.44814">
        <ele>864.843262</ele>
        <time>2011-04-21T09:53:56Z</time>
      </trkpt>
      <trkpt lat="43.82613" lon="5.44787">
        <ele>865.804688</ele>
        <time>2011-04-21T09:54:06Z</time>
      </trkpt>
      <trkpt lat="43.82604" lon="5.44765">
        <ele>867.246582</ele>
        <time>2011-04-21T09:54:15Z</time>
      </trkpt>
      <trkpt lat="43.82555" lon="5.44711">
        <ele>875.41748</ele>
        <time>2011-04-21T09:54:48Z</time>
      </trkpt>
      <trkpt lat="43.82537" lon="5.44686">
        <ele>879.743652</ele>
        <time>2011-04-21T09:55:01Z</time>
      </trkpt>
      <trkpt lat="43.82524" lon="5.44677">
        <ele>883.108154</ele>
        <time>2011-04-21T09:55:09Z</time>
      </trkpt>
      <trkpt lat="43.82512" lon="5.44677">
        <ele>887.434082</ele>
        <time>2011-04-21T09:55:17Z</time>
      </trkpt>
      <trkpt lat="43.825" lon="5.44684">
        <ele>889.837402</ele>
        <time>2011-04-21T09:55:24Z</time>
      </trkpt>
      <trkpt lat="43.82447" lon="5.44736">
        <ele>886.953369</ele>
        <time>2011-04-21T09:55:58Z</time>
      </trkpt>
      <trkpt lat="43.82405" lon="5.44771">
        <ele>890.798584</ele>
        <time>2011-04-21T09:56:21Z</time>
      </trkpt>
      <trkpt lat="43.82367" lon="5.44793">
        <ele>895.605469</ele>
        <time>2011-04-21T09:56:41Z</time>
      </trkpt>
      <trkpt lat="43.82346" lon="5.4481">
        <ele>898.969971</ele>
        <time>2011-04-21T09:56:53Z</time>
      </trkpt>
      <trkpt lat="43.82289" lon="5.44849">
        <ele>906.6604</ele>
        <time>2011-04-21T09:57:25Z</time>
      </trkpt>
      <trkpt lat="43.82256" lon="5.44863">
        <ele>912.90918</ele>
        <time>2011-04-21T09:57:43Z</time>
      </trkpt>
      <trkpt lat="43.82238" lon="5.44867">
        <ele>914.351074</ele>
        <time>2011-04-21T09:57:52Z</time>
      </trkpt>
      <trkpt lat="43.8221" lon="5.44864">
        <ele>919.157715</ele>
        <time>2011-04-21T09:58:07Z</time>
      </trkpt>
      <trkpt lat="43.8218" lon="5.44871">
        <ele>921.080322</ele>
        <time>2011-04-21T09:58:22Z</time>
      </trkpt>
      <trkpt lat="43.82168" lon="5.4488">
        <ele>921.560791</ele>
        <time>2011-04-21T09:58:29Z</time>
      </trkpt>
      <trkpt lat="43.82101" lon="5.44909">
        <ele>924.925781</ele>
        <time>2011-04-21T09:59:04Z</time>
      </trkpt>
      <trkpt lat="43.82059" lon="5.44922">
        <ele>929.251465</ele>
        <time>2011-04-21T09:59:25Z</time>
      </trkpt>
      <trkpt lat="43.81988" lon="5.44925">
        <ele>939.345215</ele>
        <time>2011-04-21T10:00:02Z</time>
      </trkpt>
      <trkpt lat="43.8197" lon="5.44919">
        <ele>944.632568</ele>
        <time>2011-04-21T10:00:12Z</time>
      </trkpt>
      <trkpt lat="43.81929" lon="5.44894">
        <ele>942.710205</ele>
        <time>2011-04-21T10:00:33Z</time>
      </trkpt>
      <trkpt lat="43.81872" lon="5.44855">
        <ele>947.035889</ele>
        <time>2011-04-21T10:01:05Z</time>
      </trkpt>
      <trkpt lat="43.81863" lon="5.44851">
        <ele>948.958496</ele>
        <time>2011-04-21T10:01:13Z</time>
      </trkpt>
      <trkpt lat="43.81858" lon="5.44859">
        <ele>948.958496</ele>
        <time>2011-04-21T10:01:22Z</time>
      </trkpt>
      <trkpt lat="43.81859" lon="5.44858">
        <ele>946.074707</ele>
        <time>2011-04-21T10:01:33Z</time>
      </trkpt>
      <trkpt lat="43.81851" lon="5.44849">
        <ele>958.091309</ele>
        <time>2011-04-21T10:08:02Z</time>
      </trkpt>
      <trkpt lat="43.81853" lon="5.44851">
        <ele>957.610596</ele>
        <time>2011-04-21T10:08:10Z</time>
      </trkpt>
      <trkpt lat="43.81843" lon="5.44905">
        <ele>953.284424</ele>
        <time>2011-04-21T10:08:37Z</time>
      </trkpt>
      <trkpt lat="43.81821" lon="5.44981">
        <ele>953.765137</ele>
        <time>2011-04-21T10:09:05Z</time>
      </trkpt>
      <trkpt lat="43.81823" lon="5.45">
        <ele>953.765137</ele>
        <time>2011-04-21T10:09:11Z</time>
      </trkpt>
      <trkpt lat="43.81829" lon="5.45016">
        <ele>956.168457</ele>
        <time>2011-04-21T10:09:18Z</time>
      </trkpt>
      <trkpt lat="43.81838" lon="5.45023">
        <ele>957.129883</ele>
        <time>2011-04-21T10:09:24Z</time>
      </trkpt>
      <trkpt lat="43.81865" lon="5.45056">
        <ele>961.936523</ele>
        <time>2011-04-21T10:09:40Z</time>
      </trkpt>
      <trkpt lat="43.81887" lon="5.45102">
        <ele>964.3396</ele>
        <time>2011-04-21T10:09:55Z</time>
      </trkpt>
      <trkpt lat="43.81897" lon="5.45136">
        <ele>966.262207</ele>
        <time>2011-04-21T10:10:05Z</time>
      </trkpt>
      <trkpt lat="43.81907" lon="5.45182">
        <ele>969.14624</ele>
        <time>2011-04-21T10:10:18Z</time>
      </trkpt>
      <trkpt lat="43.8191" lon="5.45208">
        <ele>969.626953</ele>
        <time>2011-04-21T10:10:25Z</time>
      </trkpt>
      <trkpt lat="43.8191" lon="5.45232">
        <ele>969.626953</ele>
        <time>2011-04-21T10:10:31Z</time>
      </trkpt>
      <trkpt lat="43.81912" lon="5.45262">
        <ele>970.588135</ele>
        <time>2011-04-21T10:10:39Z</time>
      </trkpt>
      <trkpt lat="43.81921" lon="5.45307">
        <ele>971.549316</ele>
        <time>2011-04-21T10:10:53Z</time>
      </trkpt>
      <trkpt lat="43.81929" lon="5.45327">
        <ele>972.510986</ele>
        <time>2011-04-21T10:11:00Z</time>
      </trkpt>
      <trkpt lat="43.81936" lon="5.45352">
        <ele>972.991699</ele>
        <time>2011-04-21T10:11:07Z</time>
      </trkpt>
      <trkpt lat="43.81938" lon="5.45375">
        <ele>973.472412</ele>
        <time>2011-04-21T10:11:14Z</time>
      </trkpt>
      <trkpt lat="43.81938" lon="5.45393">
        <ele>973.952881</ele>
        <time>2011-04-21T10:11:19Z</time>
      </trkpt>
      <trkpt lat="43.81943" lon="5.45421">
        <ele>974.433594</ele>
        <time>2011-04-21T10:11:27Z</time>
      </trkpt>
      <trkpt lat="43.81948" lon="5.45436">
        <ele>975.394775</ele>
        <time>2011-04-21T10:11:32Z</time>
      </trkpt>
      <trkpt lat="43.81948" lon="5.45463">
        <ele>975.394775</ele>
        <time>2011-04-21T10:11:40Z</time>
      </trkpt>
      <trkpt lat="43.81945" lon="5.45501">
        <ele>975.394775</ele>
        <time>2011-04-21T10:11:53Z</time>
      </trkpt>
      <trkpt lat="43.8194" lon="5.45516">
        <ele>975.394775</ele>
        <time>2011-04-21T10:11:58Z</time>
      </trkpt>
      <trkpt lat="43.81943" lon="5.4557">
        <ele>978.759521</ele>
        <time>2011-04-21T10:12:15Z</time>
      </trkpt>
      <trkpt lat="43.81948" lon="5.4559">
        <ele>980.201416</ele>
        <time>2011-04-21T10:12:22Z</time>
      </trkpt>
      <trkpt lat="43.81954" lon="5.45609">
        <ele>981.643311</ele>
        <time>2011-04-21T10:12:29Z</time>
      </trkpt>
      <trkpt lat="43.81959" lon="5.45634">
        <ele>982.604736</ele>
        <time>2011-04-21T10:12:37Z</time>
      </trkpt>
      <trkpt lat="43.81957" lon="5.45672">
        <ele>985.008057</ele>
        <time>2011-04-21T10:12:50Z</time>
      </trkpt>
      <trkpt lat="43.81944" lon="5.45707">
        <ele>987.411133</ele>
        <time>2011-04-21T10:13:03Z</time>
      </trkpt>
      <trkpt lat="43.8193" lon="5.45761">
        <ele>987.411133</ele>
        <time>2011-04-21T10:13:24Z</time>
      </trkpt>
      <trkpt lat="43.81912" lon="5.45804">
        <ele>992.218018</ele>
        <time>2011-04-21T10:13:43Z</time>
      </trkpt>
      <trkpt lat="43.81907" lon="5.45809">
        <ele>994.140625</ele>
        <time>2011-04-21T10:13:46Z</time>
      </trkpt>
      <trkpt lat="43.819" lon="5.45829">
        <ele>995.58252</ele>
        <time>2011-04-21T10:13:54Z</time>
      </trkpt>
      <trkpt lat="43.81897" lon="5.45848">
        <ele>994.621094</ele>
        <time>2011-04-21T10:14:00Z</time>
      </trkpt>
      <trkpt lat="43.81898" lon="5.45908">
        <ele>999.908447</ele>
        <time>2011-04-21T10:14:20Z</time>
      </trkpt>
      <trkpt lat="43.81903" lon="5.45933">
        <ele>1001.350342</ele>
        <time>2011-04-21T10:14:28Z</time>
      </trkpt>
      <trkpt lat="43.8192" lon="5.45992">
        <ele>1003.272949</ele>
        <time>2011-04-21T10:14:44Z</time>
      </trkpt>
      <trkpt lat="43.81935" lon="5.46034">
        <ele>1005.676514</ele>
        <time>2011-04-21T10:14:54Z</time>
      </trkpt>
      <trkpt lat="43.81941" lon="5.46062">
        <ele>1006.637695</ele>
        <time>2011-04-21T10:15:00Z</time>
      </trkpt>
      <trkpt lat="43.81945" lon="5.46094">
        <ele>1006.637695</ele>
        <time>2011-04-21T10:15:06Z</time>
      </trkpt>
      <trkpt lat="43.81949" lon="5.46159">
        <ele>1011.444336</ele>
        <time>2011-04-21T10:15:26Z</time>
      </trkpt>
      <trkpt lat="43.81952" lon="5.46177">
        <ele>1015.770264</ele>
        <time>2011-04-21T10:15:33Z</time>
      </trkpt>
      <trkpt lat="43.81959" lon="5.46201">
        <ele>1020.096191</ele>
        <time>2011-04-21T10:15:42Z</time>
      </trkpt>
      <trkpt lat="43.81973" lon="5.46234">
        <ele>1024.422119</ele>
        <time>2011-04-21T10:15:55Z</time>
      </trkpt>
      <trkpt lat="43.81986" lon="5.46274">
        <ele>1024.422119</ele>
        <time>2011-04-21T10:16:12Z</time>
      </trkpt>
      <trkpt lat="43.81987" lon="5.46296">
        <ele>1024.902832</ele>
        <time>2011-04-21T10:16:23Z</time>
      </trkpt>
      <trkpt lat="43.81986" lon="5.46348">
        <ele>1022.499512</ele>
        <time>2011-04-21T10:16:42Z</time>
      </trkpt>
      <trkpt lat="43.81978" lon="5.46377">
        <ele>1028.267334</ele>
        <time>2011-04-21T10:16:54Z</time>
      </trkpt>
      <trkpt lat="43.81974" lon="5.46401">
        <ele>1031.151367</ele>
        <time>2011-04-21T10:17:03Z</time>
      </trkpt>
      <trkpt lat="43.81954" lon="5.46463">
        <ele>1035.957764</ele>
        <time>2011-04-21T10:17:26Z</time>
      </trkpt>
      <trkpt lat="43.81948" lon="5.46493">
        <ele>1037.880615</ele>
        <time>2011-04-21T10:17:41Z</time>
      </trkpt>
      <trkpt lat="43.81947" lon="5.4651">
        <ele>1043.167725</ele>
        <time>2011-04-21T10:17:49Z</time>
      </trkpt>
      <trkpt lat="43.81963" lon="5.46578">
        <ele>1059.510254</ele>
        <time>2011-04-21T10:18:16Z</time>
      </trkpt>
      <trkpt lat="43.8197" lon="5.46595">
        <ele>1061.432861</ele>
        <time>2011-04-21T10:18:23Z</time>
      </trkpt>
      <trkpt lat="43.81974" lon="5.46608">
        <ele>1060.952148</ele>
        <time>2011-04-21T10:18:29Z</time>
      </trkpt>
      <trkpt lat="43.81976" lon="5.46644">
        <ele>1052.781006</ele>
        <time>2011-04-21T10:18:44Z</time>
      </trkpt>
      <trkpt lat="43.81974" lon="5.46668">
        <ele>1047.493652</ele>
        <time>2011-04-21T10:18:52Z</time>
      </trkpt>
      <trkpt lat="43.81967" lon="5.46689">
        <ele>1048.454834</ele>
        <time>2011-04-21T10:18:59Z</time>
      </trkpt>
      <trkpt lat="43.81952" lon="5.46722">
        <ele>1049.896973</ele>
        <time>2011-04-21T10:19:13Z</time>
      </trkpt>
      <trkpt lat="43.81927" lon="5.4675">
        <ele>1055.184326</ele>
        <time>2011-04-21T10:19:29Z</time>
      </trkpt>
      <trkpt lat="43.81883" lon="5.46776">
        <ele>1057.587646</ele>
        <time>2011-04-21T10:19:53Z</time>
      </trkpt>
      <trkpt lat="43.81863" lon="5.46783">
        <ele>1058.548828</ele>
        <time>2011-04-21T10:20:03Z</time>
      </trkpt>
      <trkpt lat="43.81789" lon="5.46798">
        <ele>1069.123535</ele>
        <time>2011-04-21T10:20:40Z</time>
      </trkpt>
      <trkpt lat="43.81728" lon="5.46821">
        <ele>1072.488037</ele>
        <time>2011-04-21T10:21:11Z</time>
      </trkpt>
      <trkpt lat="43.81698" lon="5.46835">
        <ele>1071.526611</ele>
        <time>2011-04-21T10:21:25Z</time>
      </trkpt>
      <trkpt lat="43.81681" lon="5.46847">
        <ele>1074.891357</ele>
        <time>2011-04-21T10:21:33Z</time>
      </trkpt>
      <trkpt lat="43.81636" lon="5.46887">
        <ele>1087.388428</ele>
        <time>2011-04-21T10:21:55Z</time>
      </trkpt>
      <trkpt lat="43.81595" lon="5.46926">
        <ele>1093.15625</ele>
        <time>2011-04-21T10:22:14Z</time>
      </trkpt>
      <trkpt lat="43.8158" lon="5.46938">
        <ele>1094.598145</ele>
        <time>2011-04-21T10:22:21Z</time>
      </trkpt>
      <trkpt lat="43.81549" lon="5.46956">
        <ele>1092.675781</ele>
        <time>2011-04-21T10:22:36Z</time>
      </trkpt>
      <trkpt lat="43.81531" lon="5.46962">
        <ele>1087.869141</ele>
        <time>2011-04-21T10:24:17Z</time>
      </trkpt>
      <trkpt lat="43.81533" lon="5.46966">
        <ele>1093.636963</ele>
        <time>2011-04-21T10:24:48Z</time>
      </trkpt>
      <trkpt lat="43.81529" lon="5.4697">
        <ele>1095.55957</ele>
        <time>2011-04-21T10:24:55Z</time>
      </trkpt>
      <trkpt lat="43.81531" lon="5.46971">
        <ele>1095.078857</ele>
        <time>2011-04-21T10:24:58Z</time>
      </trkpt>
      <trkpt lat="43.81539" lon="5.46957">
        <ele>1096.040283</ele>
        <time>2011-04-21T10:25:10Z</time>
      </trkpt>
      <trkpt lat="43.81533" lon="5.4696">
        <ele>1095.55957</ele>
        <time>2011-04-21T10:25:23Z</time>
      </trkpt>
      <trkpt lat="43.81533" lon="5.46958">
        <ele>1092.675781</ele>
        <time>2011-04-21T10:25:45Z</time>
      </trkpt>
      <trkpt lat="43.81503" lon="5.46991">
        <ele>1091.233643</ele>
        <time>2011-04-21T10:26:01Z</time>
      </trkpt>
      <trkpt lat="43.8149" lon="5.4702">
        <ele>1090.272461</ele>
        <time>2011-04-21T10:26:07Z</time>
      </trkpt>
      <trkpt lat="43.81489" lon="5.47032">
        <ele>1089.311035</ele>
        <time>2011-04-21T10:26:09Z</time>
      </trkpt>
      <trkpt lat="43.81496" lon="5.47071">
        <ele>1084.504639</ele>
        <time>2011-04-21T10:26:15Z</time>
      </trkpt>
      <trkpt lat="43.81528" lon="5.47172">
        <ele>1079.697754</ele>
        <time>2011-04-21T10:26:30Z</time>
      </trkpt>
      <trkpt lat="43.81533" lon="5.47195">
        <ele>1079.217041</ele>
        <time>2011-04-21T10:26:33Z</time>
      </trkpt>
      <trkpt lat="43.81535" lon="5.47219">
        <ele>1079.217041</ele>
        <time>2011-04-21T10:26:36Z</time>
      </trkpt>
      <trkpt lat="43.81537" lon="5.47283">
        <ele>1078.255859</ele>
        <time>2011-04-21T10:26:44Z</time>
      </trkpt>
      <trkpt lat="43.81543" lon="5.47329">
        <ele>1078.736572</ele>
        <time>2011-04-21T10:26:51Z</time>
      </trkpt>
      <trkpt lat="43.81554" lon="5.47393">
        <ele>1084.023926</ele>
        <time>2011-04-21T10:27:10Z</time>
      </trkpt>
      <trkpt lat="43.81562" lon="5.47408">
        <ele>1083.542969</ele>
        <time>2011-04-21T10:27:17Z</time>
      </trkpt>
      <trkpt lat="43.81599" lon="5.47443">
        <ele>1087.869141</ele>
        <time>2011-04-21T10:27:43Z</time>
      </trkpt>
      <trkpt lat="43.81625" lon="5.47474">
        <ele>1091.233643</ele>
        <time>2011-04-21T10:28:01Z</time>
      </trkpt>
      <trkpt lat="43.81649" lon="5.47496">
        <ele>1091.233643</ele>
        <time>2011-04-21T10:28:15Z</time>
      </trkpt>
      <trkpt lat="43.81667" lon="5.47509">
        <ele>1089.791748</ele>
        <time>2011-04-21T10:28:23Z</time>
      </trkpt>
      <trkpt lat="43.81693" lon="5.47536">
        <ele>1102.288818</ele>
        <time>2011-04-21T10:31:02Z</time>
      </trkpt>
      <trkpt lat="43.81681" lon="5.47553">
        <ele>1100.846924</ele>
        <time>2011-04-21T10:31:11Z</time>
      </trkpt>
      <trkpt lat="43.81671" lon="5.47575">
        <ele>1097.001465</ele>
        <time>2011-04-21T10:31:15Z</time>
      </trkpt>
      <trkpt lat="43.81642" lon="5.47655">
        <ele>1084.504639</ele>
        <time>2011-04-21T10:31:24Z</time>
      </trkpt>
      <trkpt lat="43.81634" lon="5.47683">
        <ele>1077.294678</ele>
        <time>2011-04-21T10:31:27Z</time>
      </trkpt>
      <trkpt lat="43.81637" lon="5.4773">
        <ele>1067.200684</ele>
        <time>2011-04-21T10:31:31Z</time>
      </trkpt>
      <trkpt lat="43.81644" lon="5.47753">
        <ele>1063.355469</ele>
        <time>2011-04-21T10:31:33Z</time>
      </trkpt>
      <trkpt lat="43.81671" lon="5.47818">
        <ele>1052.300293</ele>
        <time>2011-04-21T10:31:38Z</time>
      </trkpt>
      <trkpt lat="43.81714" lon="5.4798">
        <ele>1040.764404</ele>
        <time>2011-04-21T10:31:51Z</time>
      </trkpt>
      <trkpt lat="43.81731" lon="5.48025">
        <ele>1034.515869</ele>
        <time>2011-04-21T10:31:56Z</time>
      </trkpt>
      <trkpt lat="43.81734" lon="5.48062">
        <ele>1028.267334</ele>
        <time>2011-04-21T10:32:00Z</time>
      </trkpt>
      <trkpt lat="43.81729" lon="5.48072">
        <ele>1023.941406</ele>
        <time>2011-04-21T10:32:08Z</time>
      </trkpt>
      <trkpt lat="43.81721" lon="5.48066">
        <ele>1022.980225</ele>
        <time>2011-04-21T10:34:55Z</time>
      </trkpt>
      <trkpt lat="43.81705" lon="5.48068">
        <ele>1019.615479</ele>
        <time>2011-04-21T10:34:59Z</time>
      </trkpt>
      <trkpt lat="43.8169" lon="5.48067">
        <ele>1016.250732</ele>
        <time>2011-04-21T10:35:04Z</time>
      </trkpt>
      <trkpt lat="43.81683" lon="5.48075">
        <ele>1012.405518</ele>
        <time>2011-04-21T10:35:08Z</time>
      </trkpt>
      <trkpt lat="43.8168" lon="5.48088">
        <ele>1011.925049</ele>
        <time>2011-04-21T10:35:11Z</time>
      </trkpt>
      <trkpt lat="43.81673" lon="5.48106">
        <ele>1009.041016</ele>
        <time>2011-04-21T10:35:16Z</time>
      </trkpt>
      <trkpt lat="43.81669" lon="5.48126">
        <ele>1006.637695</ele>
        <time>2011-04-21T10:35:21Z</time>
      </trkpt>
      <trkpt lat="43.81665" lon="5.48124">
        <ele>1004.715088</ele>
        <time>2011-04-21T10:35:26Z</time>
      </trkpt>
      <trkpt lat="43.8166" lon="5.48125">
        <ele>1009.521729</ele>
        <time>2011-04-21T10:35:42Z</time>
      </trkpt>
      <trkpt lat="43.81659" lon="5.4813">
        <ele>1012.405518</ele>
        <time>2011-04-21T10:36:02Z</time>
      </trkpt>
      <trkpt lat="43.81656" lon="5.48135">
        <ele>1010.963623</ele>
        <time>2011-04-21T10:37:07Z</time>
      </trkpt>
      <trkpt lat="43.81627" lon="5.481">
        <ele>996.063232</ele>
        <time>2011-04-21T10:37:22Z</time>
      </trkpt>
      <trkpt lat="43.81593" lon="5.48071">
        <ele>980.201416</ele>
        <time>2011-04-21T10:37:35Z</time>
      </trkpt>
      <trkpt lat="43.81584" lon="5.48066">
        <ele>975.875488</ele>
        <time>2011-04-21T10:37:39Z</time>
      </trkpt>
      <trkpt lat="43.81572" lon="5.48056">
        <ele>970.107422</ele>
        <time>2011-04-21T10:37:58Z</time>
      </trkpt>
      <trkpt lat="43.81574" lon="5.48047">
        <ele>962.897705</ele>
        <time>2011-04-21T10:38:46Z</time>
      </trkpt>
      <trkpt lat="43.8157" lon="5.48081">
        <ele>966.262207</ele>
        <time>2011-04-21T10:38:57Z</time>
      </trkpt>
      <trkpt lat="43.81566" lon="5.48099">
        <ele>965.781738</ele>
        <time>2011-04-21T10:39:01Z</time>
      </trkpt>
      <trkpt lat="43.81564" lon="5.48123">
        <ele>964.3396</ele>
        <time>2011-04-21T10:39:06Z</time>
      </trkpt>
      <trkpt lat="43.81556" lon="5.48164">
        <ele>958.091309</ele>
        <time>2011-04-21T10:39:16Z</time>
      </trkpt>
      <trkpt lat="43.81557" lon="5.48169">
        <ele>955.207031</ele>
        <time>2011-04-21T10:39:17Z</time>
      </trkpt>
      <trkpt lat="43.8155" lon="5.48169">
        <ele>950.881104</ele>
        <time>2011-04-21T10:39:22Z</time>
      </trkpt>
      <trkpt lat="43.81523" lon="5.48133">
        <ele>942.229492</ele>
        <time>2011-04-21T10:39:35Z</time>
      </trkpt>
      <trkpt lat="43.81504" lon="5.48116">
        <ele>938.384033</ele>
        <time>2011-04-21T10:39:43Z</time>
      </trkpt>
      <trkpt lat="43.81462" lon="5.48064">
        <ele>920.599609</ele>
        <time>2011-04-21T10:39:58Z</time>
      </trkpt>
      <trkpt lat="43.81444" lon="5.4805">
        <ele>912.428467</ele>
        <time>2011-04-21T10:40:04Z</time>
      </trkpt>
      <trkpt lat="43.81429" lon="5.48035">
        <ele>903.295898</ele>
        <time>2011-04-21T10:40:09Z</time>
      </trkpt>
      <trkpt lat="43.81419" lon="5.48041">
        <ele>894.644043</ele>
        <time>2011-04-21T10:40:14Z</time>
      </trkpt>
      <trkpt lat="43.81416" lon="5.4809">
        <ele>887.914795</ele>
        <time>2011-04-21T10:40:23Z</time>
      </trkpt>
      <trkpt lat="43.8141" lon="5.4813">
        <ele>885.511475</ele>
        <time>2011-04-21T10:40:29Z</time>
      </trkpt>
      <trkpt lat="43.81408" lon="5.48172">
        <ele>878.301758</ele>
        <time>2011-04-21T10:40:36Z</time>
      </trkpt>
      <trkpt lat="43.81402" lon="5.48196">
        <ele>873.495117</ele>
        <time>2011-04-21T10:40:41Z</time>
      </trkpt>
      <trkpt lat="43.8139" lon="5.48277">
        <ele>861.47876</ele>
        <time>2011-04-21T10:40:54Z</time>
      </trkpt>
      <trkpt lat="43.81374" lon="5.48309">
        <ele>847.539551</ele>
        <time>2011-04-21T10:41:13Z</time>
      </trkpt>
      <trkpt lat="43.81369" lon="5.48311">
        <ele>845.616943</ele>
        <time>2011-04-21T10:41:38Z</time>
      </trkpt>
      <trkpt lat="43.81352" lon="5.48284">
        <ele>839.368164</ele>
        <time>2011-04-21T10:41:46Z</time>
      </trkpt>
      <trkpt lat="43.81343" lon="5.48258">
        <ele>835.522949</ele>
        <time>2011-04-21T10:41:50Z</time>
      </trkpt>
      <trkpt lat="43.81325" lon="5.48225">
        <ele>831.197266</ele>
        <time>2011-04-21T10:41:57Z</time>
      </trkpt>
      <trkpt lat="43.81314" lon="5.48217">
        <ele>829.274414</ele>
        <time>2011-04-21T10:42:00Z</time>
      </trkpt>
      <trkpt lat="43.81301" lon="5.48198">
        <ele>825.428955</ele>
        <time>2011-04-21T10:42:05Z</time>
      </trkpt>
      <trkpt lat="43.81295" lon="5.48193">
        <ele>823.506592</ele>
        <time>2011-04-21T10:42:07Z</time>
      </trkpt>
      <trkpt lat="43.81284" lon="5.48178">
        <ele>817.258057</ele>
        <time>2011-04-21T10:42:12Z</time>
      </trkpt>
      <trkpt lat="43.81272" lon="5.48171">
        <ele>813.893311</ele>
        <time>2011-04-21T10:42:17Z</time>
      </trkpt>
      <trkpt lat="43.81261" lon="5.48151">
        <ele>808.125488</ele>
        <time>2011-04-21T10:42:21Z</time>
      </trkpt>
      <trkpt lat="43.81248" lon="5.48151">
        <ele>804.280273</ele>
        <time>2011-04-21T10:42:24Z</time>
      </trkpt>
      <trkpt lat="43.81234" lon="5.48158">
        <ele>800.435059</ele>
        <time>2011-04-21T10:42:28Z</time>
      </trkpt>
      <trkpt lat="43.81229" lon="5.48156">
        <ele>798.99292</ele>
        <time>2011-04-21T10:42:29Z</time>
      </trkpt>
      <trkpt lat="43.81194" lon="5.48131">
        <ele>791.782959</ele>
        <time>2011-04-21T10:42:38Z</time>
      </trkpt>
      <trkpt lat="43.81183" lon="5.48128">
        <ele>792.263672</ele>
        <time>2011-04-21T10:42:41Z</time>
      </trkpt>
      <trkpt lat="43.81145" lon="5.48107">
        <ele>785.053955</ele>
        <time>2011-04-21T10:42:52Z</time>
      </trkpt>
      <trkpt lat="43.81134" lon="5.48106">
        <ele>778.324463</ele>
        <time>2011-04-21T10:42:57Z</time>
      </trkpt>
      <trkpt lat="43.8113" lon="5.48116">
        <ele>773.518066</ele>
        <time>2011-04-21T10:43:02Z</time>
      </trkpt>
      <trkpt lat="43.81127" lon="5.48153">
        <ele>766.308105</ele>
        <time>2011-04-21T10:43:11Z</time>
      </trkpt>
      <trkpt lat="43.81127" lon="5.48182">
        <ele>759.578857</ele>
        <time>2011-04-21T10:43:16Z</time>
      </trkpt>
      <trkpt lat="43.81131" lon="5.482">
        <ele>757.65625</ele>
        <time>2011-04-21T10:43:19Z</time>
      </trkpt>
      <trkpt lat="43.81133" lon="5.48225">
        <ele>753.811035</ele>
        <time>2011-04-21T10:43:24Z</time>
      </trkpt>
      <trkpt lat="43.81132" lon="5.48241">
        <ele>750.446533</ele>
        <time>2011-04-21T10:43:28Z</time>
      </trkpt>
      <trkpt lat="43.81121" lon="5.48254">
        <ele>745.639648</ele>
        <time>2011-04-21T10:43:33Z</time>
      </trkpt>
      <trkpt lat="43.81119" lon="5.48254">
        <ele>744.197754</ele>
        <time>2011-04-21T10:43:39Z</time>
      </trkpt>
      <trkpt lat="43.81115" lon="5.48249">
        <ele>741.794434</ele>
        <time>2011-04-21T10:43:51Z</time>
      </trkpt>
      <trkpt lat="43.81112" lon="5.48249">
        <ele>749.485107</ele>
        <time>2011-04-21T10:44:31Z</time>
      </trkpt>
      <trkpt lat="43.81089" lon="5.48267">
        <ele>744.678223</ele>
        <time>2011-04-21T10:44:41Z</time>
      </trkpt>
      <trkpt lat="43.81055" lon="5.48317">
        <ele>726.894043</ele>
        <time>2011-04-21T10:44:55Z</time>
      </trkpt>
      <trkpt lat="43.8104" lon="5.48346">
        <ele>716.800293</ele>
        <time>2011-04-21T10:45:03Z</time>
      </trkpt>
      <trkpt lat="43.81037" lon="5.48348">
        <ele>716.800293</ele>
        <time>2011-04-21T10:45:04Z</time>
      </trkpt>
      <trkpt lat="43.81017" lon="5.48383">
        <ele>714.877441</ele>
        <time>2011-04-21T10:45:12Z</time>
      </trkpt>
      <trkpt lat="43.80994" lon="5.48413">
        <ele>703.82251</ele>
        <time>2011-04-21T10:45:19Z</time>
      </trkpt>
      <trkpt lat="43.80971" lon="5.48438">
        <ele>698.534912</ele>
        <time>2011-04-21T10:45:25Z</time>
      </trkpt>
      <trkpt lat="43.80946" lon="5.48454">
        <ele>692.286621</ele>
        <time>2011-04-21T10:45:32Z</time>
      </trkpt>
      <trkpt lat="43.8087" lon="5.48516">
        <ele>678.347412</ele>
        <time>2011-04-21T10:45:50Z</time>
      </trkpt>
      <trkpt lat="43.80851" lon="5.48534">
        <ele>668.253662</ele>
        <time>2011-04-21T10:45:55Z</time>
      </trkpt>
      <trkpt lat="43.80816" lon="5.4856">
        <ele>658.640381</ele>
        <time>2011-04-21T10:46:02Z</time>
      </trkpt>
      <trkpt lat="43.8078" lon="5.48605">
        <ele>654.795166</ele>
        <time>2011-04-21T10:46:13Z</time>
      </trkpt>
      <trkpt lat="43.8077" lon="5.486">
        <ele>648.546387</ele>
        <time>2011-04-21T10:47:02Z</time>
      </trkpt>
      <trkpt lat="43.80763" lon="5.48618">
        <ele>646.143311</ele>
        <time>2011-04-21T10:47:07Z</time>
      </trkpt>
      <trkpt lat="43.80749" lon="5.48638">
        <ele>644.701172</ele>
        <time>2011-04-21T10:47:11Z</time>
      </trkpt>
      <trkpt lat="43.80739" lon="5.48646">
        <ele>642.778809</ele>
        <time>2011-04-21T10:47:13Z</time>
      </trkpt>
      <trkpt lat="43.80721" lon="5.48652">
        <ele>639.894775</ele>
        <time>2011-04-21T10:47:17Z</time>
      </trkpt>
      <trkpt lat="43.80697" lon="5.48647">
        <ele>635.088135</ele>
        <time>2011-04-21T10:47:21Z</time>
      </trkpt>
      <trkpt lat="43.80697" lon="5.48629">
        <ele>624.513672</ele>
        <time>2011-04-21T10:47:25Z</time>
      </trkpt>
      <trkpt lat="43.8069" lon="5.48643">
        <ele>620.668457</ele>
        <time>2011-04-21T10:47:28Z</time>
      </trkpt>
      <trkpt lat="43.80685" lon="5.4866">
        <ele>616.342285</ele>
        <time>2011-04-21T10:47:31Z</time>
      </trkpt>
      <trkpt lat="43.80695" lon="5.48694">
        <ele>609.132568</ele>
        <time>2011-04-21T10:47:37Z</time>
      </trkpt>
      <trkpt lat="43.80702" lon="5.48707">
        <ele>605.768066</ele>
        <time>2011-04-21T10:47:40Z</time>
      </trkpt>
      <trkpt lat="43.80705" lon="5.48728">
        <ele>605.768066</ele>
        <time>2011-04-21T10:47:44Z</time>
      </trkpt>
      <trkpt lat="43.80688" lon="5.48786">
        <ele>597.115967</ele>
        <time>2011-04-21T10:47:53Z</time>
      </trkpt>
      <trkpt lat="43.80639" lon="5.48836">
        <ele>591.828857</ele>
        <time>2011-04-21T10:48:03Z</time>
      </trkpt>
      <trkpt lat="43.80623" lon="5.48865">
        <ele>586.541504</ele>
        <time>2011-04-21T10:48:07Z</time>
      </trkpt>
      <trkpt lat="43.80605" lon="5.48921">
        <ele>582.215576</ele>
        <time>2011-04-21T10:48:17Z</time>
      </trkpt>
      <trkpt lat="43.80603" lon="5.48923">
        <ele>580.292969</ele>
        <time>2011-04-21T10:48:39Z</time>
      </trkpt>
      <trkpt lat="43.80599" lon="5.48918">
        <ele>577.40918</ele>
        <time>2011-04-21T10:48:53Z</time>
      </trkpt>
      <trkpt lat="43.80602" lon="5.4892">
        <ele>585.099609</ele>
        <time>2011-04-21T10:49:17Z</time>
      </trkpt>
      <trkpt lat="43.806" lon="5.48927">
        <ele>583.657471</ele>
        <time>2011-04-21T10:49:53Z</time>
      </trkpt>
      <trkpt lat="43.80605" lon="5.48927">
        <ele>584.138184</ele>
        <time>2011-04-21T10:50:07Z</time>
      </trkpt>
      <trkpt lat="43.80606" lon="5.48929">
        <ele>589.425537</ele>
        <time>2011-04-21T10:50:34Z</time>
      </trkpt>
      <trkpt lat="43.80605" lon="5.4892">
        <ele>588.945068</ele>
        <time>2011-04-21T10:50:51Z</time>
      </trkpt>
      <trkpt lat="43.80602" lon="5.48915">
        <ele>596.154785</ele>
        <time>2011-04-21T10:51:16Z</time>
      </trkpt>
      <trkpt lat="43.80603" lon="5.48915">
        <ele>590.867432</ele>
        <time>2011-04-21T10:51:44Z</time>
      </trkpt>
      <trkpt lat="43.80602" lon="5.48917">
        <ele>589.425537</ele>
        <time>2011-04-21T10:51:59Z</time>
      </trkpt>
      <trkpt lat="43.80641" lon="5.48982">
        <ele>589.425537</ele>
        <time>2011-04-21T10:52:20Z</time>
      </trkpt>
      <trkpt lat="43.80665" lon="5.49017">
        <ele>592.30957</ele>
        <time>2011-04-21T10:52:33Z</time>
      </trkpt>
      <trkpt lat="43.80746" lon="5.49102">
        <ele>603.845215</ele>
        <time>2011-04-21T10:53:15Z</time>
      </trkpt>
      <trkpt lat="43.80814" lon="5.49186">
        <ele>610.574463</ele>
        <time>2011-04-21T10:54:00Z</time>
      </trkpt>
      <trkpt lat="43.80815" lon="5.49191">
        <ele>612.016602</ele>
        <time>2011-04-21T10:54:02Z</time>
      </trkpt>
      <trkpt lat="43.80809" lon="5.49209">
        <ele>614.900391</ele>
        <time>2011-04-21T10:54:07Z</time>
      </trkpt>
      <trkpt lat="43.80777" lon="5.49258">
        <ele>611.535889</ele>
        <time>2011-04-21T10:54:25Z</time>
      </trkpt>
      <trkpt lat="43.8077" lon="5.49277">
        <ele>612.49707</ele>
        <time>2011-04-21T10:54:31Z</time>
      </trkpt>
      <trkpt lat="43.80772" lon="5.49294">
        <ele>612.49707</ele>
        <time>2011-04-21T10:54:36Z</time>
      </trkpt>
      <trkpt lat="43.80782" lon="5.49323">
        <ele>611.055176</ele>
        <time>2011-04-21T10:54:45Z</time>
      </trkpt>
      <trkpt lat="43.80825" lon="5.49419">
        <ele>615.861816</ele>
        <time>2011-04-21T10:55:17Z</time>
      </trkpt>
      <trkpt lat="43.80845" lon="5.49476">
        <ele>623.55249</ele>
        <time>2011-04-21T10:55:32Z</time>
      </trkpt>
      <trkpt lat="43.80856" lon="5.4951">
        <ele>624.032959</ele>
        <time>2011-04-21T10:55:40Z</time>
      </trkpt>
      <trkpt lat="43.80887" lon="5.49592">
        <ele>624.513672</ele>
        <time>2011-04-21T10:55:56Z</time>
      </trkpt>
      <trkpt lat="43.80949" lon="5.4972">
        <ele>626.436279</ele>
        <time>2011-04-21T10:56:31Z</time>
      </trkpt>
      <trkpt lat="43.80959" lon="5.49752">
        <ele>628.358887</ele>
        <time>2011-04-21T10:56:41Z</time>
      </trkpt>
      <trkpt lat="43.80982" lon="5.4981">
        <ele>627.878174</ele>
        <time>2011-04-21T10:56:56Z</time>
      </trkpt>
      <trkpt lat="43.80991" lon="5.49837">
        <ele>627.878174</ele>
        <time>2011-04-21T10:57:04Z</time>
      </trkpt>
      <trkpt lat="43.81014" lon="5.49932">
        <ele>633.165283</ele>
        <time>2011-04-21T10:57:27Z</time>
      </trkpt>
      <trkpt lat="43.81022" lon="5.49974">
        <ele>634.607422</ele>
        <time>2011-04-21T10:57:34Z</time>
      </trkpt>
      <trkpt lat="43.81026" lon="5.50005">
        <ele>636.049561</ele>
        <time>2011-04-21T10:57:39Z</time>
      </trkpt>
      <trkpt lat="43.81025" lon="5.50054">
        <ele>635.568604</ele>
        <time>2011-04-21T10:57:46Z</time>
      </trkpt>
      <trkpt lat="43.81021" lon="5.50082">
        <ele>636.049561</ele>
        <time>2011-04-21T10:57:50Z</time>
      </trkpt>
      <trkpt lat="43.8101" lon="5.50114">
        <ele>637.491455</ele>
        <time>2011-04-21T10:57:55Z</time>
      </trkpt>
      <trkpt lat="43.80999" lon="5.50128">
        <ele>637.491455</ele>
        <time>2011-04-21T10:57:58Z</time>
      </trkpt>
      <trkpt lat="43.80974" lon="5.50149">
        <ele>637.491455</ele>
        <time>2011-04-21T10:58:04Z</time>
      </trkpt>
      <trkpt lat="43.80956" lon="5.50178">
        <ele>635.568604</ele>
        <time>2011-04-21T10:58:09Z</time>
      </trkpt>
      <trkpt lat="43.80936" lon="5.50238">
        <ele>634.607422</ele>
        <time>2011-04-21T10:58:18Z</time>
      </trkpt>
      <trkpt lat="43.80925" lon="5.50292">
        <ele>632.684814</ele>
        <time>2011-04-21T10:58:26Z</time>
      </trkpt>
      <trkpt lat="43.80931" lon="5.50321">
        <ele>632.204102</ele>
        <time>2011-04-21T10:58:30Z</time>
      </trkpt>
      <trkpt lat="43.80945" lon="5.50335">
        <ele>631.24292</ele>
        <time>2011-04-21T10:58:33Z</time>
      </trkpt>
      <trkpt lat="43.80965" lon="5.50346">
        <ele>629.800781</ele>
        <time>2011-04-21T10:58:37Z</time>
      </trkpt>
      <trkpt lat="43.81" lon="5.50358">
        <ele>627.397705</ele>
        <time>2011-04-21T10:58:43Z</time>
      </trkpt>
      <trkpt lat="43.81023" lon="5.50378">
        <ele>627.878174</ele>
        <time>2011-04-21T10:58:47Z</time>
      </trkpt>
      <trkpt lat="43.81054" lon="5.50431">
        <ele>626.916992</ele>
        <time>2011-04-21T10:58:54Z</time>
      </trkpt>
      <trkpt lat="43.81078" lon="5.50451">
        <ele>626.916992</ele>
        <time>2011-04-21T10:58:58Z</time>
      </trkpt>
      <trkpt lat="43.81092" lon="5.50481">
        <ele>628.358887</ele>
        <time>2011-04-21T10:59:02Z</time>
      </trkpt>
      <trkpt lat="43.81092" lon="5.50504">
        <ele>629.320068</ele>
        <time>2011-04-21T10:59:05Z</time>
      </trkpt>
      <trkpt lat="43.81088" lon="5.50522">
        <ele>628.8396</ele>
        <time>2011-04-21T10:59:07Z</time>
      </trkpt>
      <trkpt lat="43.81072" lon="5.50555">
        <ele>627.397705</ele>
        <time>2011-04-21T10:59:11Z</time>
      </trkpt>
      <trkpt lat="43.81022" lon="5.50602">
        <ele>621.629639</ele>
        <time>2011-04-21T10:59:20Z</time>
      </trkpt>
      <trkpt lat="43.81011" lon="5.50628">
        <ele>620.668457</ele>
        <time>2011-04-21T10:59:23Z</time>
      </trkpt>
      <trkpt lat="43.80989" lon="5.50648">
        <ele>619.226318</ele>
        <time>2011-04-21T10:59:27Z</time>
      </trkpt>
      <trkpt lat="43.80967" lon="5.50644">
        <ele>618.264893</ele>
        <time>2011-04-21T10:59:30Z</time>
      </trkpt>
      <trkpt lat="43.80954" lon="5.50645">
        <ele>616.822998</ele>
        <time>2011-04-21T10:59:32Z</time>
      </trkpt>
      <trkpt lat="43.80907" lon="5.50638">
        <ele>615.381104</ele>
        <time>2011-04-21T10:59:39Z</time>
      </trkpt>
      <trkpt lat="43.80859" lon="5.5061">
        <ele>614.419678</ele>
        <time>2011-04-21T10:59:47Z</time>
      </trkpt>
      <trkpt lat="43.80833" lon="5.5061">
        <ele>612.977783</ele>
        <time>2011-04-21T10:59:51Z</time>
      </trkpt>
      <trkpt lat="43.80828" lon="5.50615">
        <ele>612.49707</ele>
        <time>2011-04-21T10:59:52Z</time>
      </trkpt>
      <trkpt lat="43.80792" lon="5.50663">
        <ele>607.690674</ele>
        <time>2011-04-21T10:59:59Z</time>
      </trkpt>
      <trkpt lat="43.80741" lon="5.50769">
        <ele>602.883789</ele>
        <time>2011-04-21T11:00:12Z</time>
      </trkpt>
      <trkpt lat="43.80717" lon="5.50815">
        <ele>601.441895</ele>
        <time>2011-04-21T11:00:18Z</time>
      </trkpt>
      <trkpt lat="43.80696" lon="5.5086">
        <ele>601.441895</ele>
        <time>2011-04-21T11:00:24Z</time>
      </trkpt>
      <trkpt lat="43.8068" lon="5.50907">
        <ele>601.922607</ele>
        <time>2011-04-21T11:00:30Z</time>
      </trkpt>
      <trkpt lat="43.80671" lon="5.50945">
        <ele>603.364502</ele>
        <time>2011-04-21T11:00:35Z</time>
      </trkpt>
      <trkpt lat="43.80656" lon="5.50973">
        <ele>604.806641</ele>
        <time>2011-04-21T11:00:39Z</time>
      </trkpt>
      <trkpt lat="43.80629" lon="5.51012">
        <ele>603.845215</ele>
        <time>2011-04-21T11:00:45Z</time>
      </trkpt>
      <trkpt lat="43.8062" lon="5.51034">
        <ele>603.845215</ele>
        <time>2011-04-21T11:00:48Z</time>
      </trkpt>
      <trkpt lat="43.80608" lon="5.51106">
        <ele>605.768066</ele>
        <time>2011-04-21T11:00:57Z</time>
      </trkpt>
      <trkpt lat="43.80597" lon="5.51141">
        <ele>607.209961</ele>
        <time>2011-04-21T11:01:02Z</time>
      </trkpt>
      <trkpt lat="43.80574" lon="5.51192">
        <ele>605.287354</ele>
        <time>2011-04-21T11:01:10Z</time>
      </trkpt>
      <trkpt lat="43.80564" lon="5.51235">
        <ele>605.287354</ele>
        <time>2011-04-21T11:01:16Z</time>
      </trkpt>
      <trkpt lat="43.80561" lon="5.51262">
        <ele>603.845215</ele>
        <time>2011-04-21T11:01:20Z</time>
      </trkpt>
      <trkpt lat="43.8057" lon="5.51277">
        <ele>603.364502</ele>
        <time>2011-04-21T11:01:23Z</time>
      </trkpt>
      <trkpt lat="43.80583" lon="5.51289">
        <ele>601.441895</ele>
        <time>2011-04-21T11:01:27Z</time>
      </trkpt>
      <trkpt lat="43.80608" lon="5.51291">
        <ele>601.441895</ele>
        <time>2011-04-21T11:01:35Z</time>
      </trkpt>
      <trkpt lat="43.80621" lon="5.51302">
        <ele>601.922607</ele>
        <time>2011-04-21T11:01:41Z</time>
      </trkpt>
      <trkpt lat="43.80656" lon="5.51349">
        <ele>607.209961</ele>
        <time>2011-04-21T11:01:54Z</time>
      </trkpt>
      <trkpt lat="43.80669" lon="5.51359">
        <ele>608.171387</ele>
        <time>2011-04-21T11:01:57Z</time>
      </trkpt>
      <trkpt lat="43.8068" lon="5.51378">
        <ele>611.535889</ele>
        <time>2011-04-21T11:02:01Z</time>
      </trkpt>
      <trkpt lat="43.80687" lon="5.5144">
        <ele>616.822998</ele>
        <time>2011-04-21T11:02:13Z</time>
      </trkpt>
      <trkpt lat="43.80685" lon="5.51471">
        <ele>616.822998</ele>
        <time>2011-04-21T11:02:19Z</time>
      </trkpt>
      <trkpt lat="43.80675" lon="5.51524">
        <ele>618.264893</ele>
        <time>2011-04-21T11:02:30Z</time>
      </trkpt>
      <trkpt lat="43.80655" lon="5.51545">
        <ele>618.264893</ele>
        <time>2011-04-21T11:02:37Z</time>
      </trkpt>
      <trkpt lat="43.80641" lon="5.51566">
        <ele>616.822998</ele>
        <time>2011-04-21T11:02:44Z</time>
      </trkpt>
      <trkpt lat="43.80632" lon="5.5159">
        <ele>619.707031</ele>
        <time>2011-04-21T11:02:51Z</time>
      </trkpt>
      <trkpt lat="43.80625" lon="5.51624">
        <ele>622.591064</ele>
        <time>2011-04-21T11:03:02Z</time>
      </trkpt>
      <trkpt lat="43.80629" lon="5.51643">
        <ele>627.397705</ele>
        <time>2011-04-21T11:03:10Z</time>
      </trkpt>
      <trkpt lat="43.80629" lon="5.51661">
        <ele>628.8396</ele>
        <time>2011-04-21T11:03:17Z</time>
      </trkpt>
      <trkpt lat="43.80633" lon="5.51674">
        <ele>631.723389</ele>
        <time>2011-04-21T11:03:23Z</time>
      </trkpt>
      <trkpt lat="43.80651" lon="5.51691">
        <ele>633.165283</ele>
        <time>2011-04-21T11:03:35Z</time>
      </trkpt>
      <trkpt lat="43.80658" lon="5.517">
        <ele>633.645996</ele>
        <time>2011-04-21T11:03:41Z</time>
      </trkpt>
      <trkpt lat="43.80673" lon="5.51744">
        <ele>633.165283</ele>
        <time>2011-04-21T11:03:59Z</time>
      </trkpt>
      <trkpt lat="43.80701" lon="5.51804">
        <ele>639.414062</ele>
        <time>2011-04-21T11:04:24Z</time>
      </trkpt>
      <trkpt lat="43.80708" lon="5.51826">
        <ele>638.933594</ele>
        <time>2011-04-21T11:04:31Z</time>
      </trkpt>
      <trkpt lat="43.80724" lon="5.51911">
        <ele>642.298096</ele>
        <time>2011-04-21T11:04:56Z</time>
      </trkpt>
      <trkpt lat="43.80723" lon="5.51934">
        <ele>643.259277</ele>
        <time>2011-04-21T11:05:02Z</time>
      </trkpt>
      <trkpt lat="43.80704" lon="5.51951">
        <ele>643.259277</ele>
        <time>2011-04-21T11:05:08Z</time>
      </trkpt>
      <trkpt lat="43.80698" lon="5.51963">
        <ele>640.375488</ele>
        <time>2011-04-21T11:05:10Z</time>
      </trkpt>
      <trkpt lat="43.8069" lon="5.51995">
        <ele>638.933594</ele>
        <time>2011-04-21T11:05:14Z</time>
      </trkpt>
      <trkpt lat="43.80695" lon="5.52032">
        <ele>636.530273</ele>
        <time>2011-04-21T11:05:18Z</time>
      </trkpt>
      <trkpt lat="43.80711" lon="5.52049">
        <ele>634.607422</ele>
        <time>2011-04-21T11:05:21Z</time>
      </trkpt>
      <trkpt lat="43.8073" lon="5.52054">
        <ele>633.645996</ele>
        <time>2011-04-21T11:05:24Z</time>
      </trkpt>
      <trkpt lat="43.80735" lon="5.52075">
        <ele>632.684814</ele>
        <time>2011-04-21T11:05:27Z</time>
      </trkpt>
      <trkpt lat="43.80726" lon="5.52084">
        <ele>631.723389</ele>
        <time>2011-04-21T11:05:29Z</time>
      </trkpt>
      <trkpt lat="43.80713" lon="5.52117">
        <ele>632.684814</ele>
        <time>2011-04-21T11:05:35Z</time>
      </trkpt>
      <trkpt lat="43.80708" lon="5.52131">
        <ele>633.645996</ele>
        <time>2011-04-21T11:05:38Z</time>
      </trkpt>
      <trkpt lat="43.80709" lon="5.52156">
        <ele>636.530273</ele>
        <time>2011-04-21T11:05:43Z</time>
      </trkpt>
      <trkpt lat="43.80693" lon="5.52224">
        <ele>634.607422</ele>
        <time>2011-04-21T11:05:53Z</time>
      </trkpt>
      <trkpt lat="43.80693" lon="5.52248">
        <ele>633.165283</ele>
        <time>2011-04-21T11:05:56Z</time>
      </trkpt>
      <trkpt lat="43.80701" lon="5.52261">
        <ele>631.24292</ele>
        <time>2011-04-21T11:05:58Z</time>
      </trkpt>
      <trkpt lat="43.80722" lon="5.52302">
        <ele>629.800781</ele>
        <time>2011-04-21T11:06:03Z</time>
      </trkpt>
      <trkpt lat="43.80723" lon="5.52324">
        <ele>631.24292</ele>
        <time>2011-04-21T11:06:06Z</time>
      </trkpt>
      <trkpt lat="43.80729" lon="5.52371">
        <ele>627.878174</ele>
        <time>2011-04-21T11:06:13Z</time>
      </trkpt>
      <trkpt lat="43.80746" lon="5.52426">
        <ele>628.358887</ele>
        <time>2011-04-21T11:06:25Z</time>
      </trkpt>
      <trkpt lat="43.8074" lon="5.5245">
        <ele>632.204102</ele>
        <time>2011-04-21T11:06:32Z</time>
      </trkpt>
      <trkpt lat="43.80772" lon="5.52464">
        <ele>633.165283</ele>
        <time>2011-04-21T11:06:51Z</time>
      </trkpt>
      <trkpt lat="43.80781" lon="5.52466">
        <ele>632.684814</ele>
        <time>2011-04-21T11:06:57Z</time>
      </trkpt>
      <trkpt lat="43.80794" lon="5.52473">
        <ele>631.723389</ele>
        <time>2011-04-21T11:07:05Z</time>
      </trkpt>
      <trkpt lat="43.80806" lon="5.52477">
        <ele>632.684814</ele>
        <time>2011-04-21T11:07:12Z</time>
      </trkpt>
      <trkpt lat="43.80828" lon="5.52469">
        <ele>633.645996</ele>
        <time>2011-04-21T11:07:26Z</time>
      </trkpt>
      <trkpt lat="43.80837" lon="5.52468">
        <ele>633.645996</ele>
        <time>2011-04-21T11:07:32Z</time>
      </trkpt>
      <trkpt lat="43.80849" lon="5.52464">
        <ele>635.568604</ele>
        <time>2011-04-21T11:07:40Z</time>
      </trkpt>
      <trkpt lat="43.80863" lon="5.52453">
        <ele>637.491455</ele>
        <time>2011-04-21T11:07:49Z</time>
      </trkpt>
      <trkpt lat="43.80877" lon="5.52447">
        <ele>639.894775</ele>
        <time>2011-04-21T11:07:57Z</time>
      </trkpt>
      <trkpt lat="43.80912" lon="5.5244">
        <ele>639.894775</ele>
        <time>2011-04-21T11:08:10Z</time>
      </trkpt>
      <trkpt lat="43.80925" lon="5.52447">
        <ele>640.375488</ele>
        <time>2011-04-21T11:08:13Z</time>
      </trkpt>
      <trkpt lat="43.80922" lon="5.52488">
        <ele>645.662598</ele>
        <time>2011-04-21T11:08:23Z</time>
      </trkpt>
      <trkpt lat="43.80934" lon="5.52499">
        <ele>646.624023</ele>
        <time>2011-04-21T11:08:27Z</time>
      </trkpt>
      <trkpt lat="43.8095" lon="5.52507">
        <ele>647.585205</ele>
        <time>2011-04-21T11:08:30Z</time>
      </trkpt>
      <trkpt lat="43.80949" lon="5.52525">
        <ele>649.0271</ele>
        <time>2011-04-21T11:08:33Z</time>
      </trkpt>
      <trkpt lat="43.8093" lon="5.52556">
        <ele>648.546387</ele>
        <time>2011-04-21T11:08:39Z</time>
      </trkpt>
      <trkpt lat="43.80886" lon="5.52587">
        <ele>645.181885</ele>
        <time>2011-04-21T11:08:50Z</time>
      </trkpt>
      <trkpt lat="43.80856" lon="5.52602">
        <ele>643.259277</ele>
        <time>2011-04-21T11:08:57Z</time>
      </trkpt>
      <trkpt lat="43.8084" lon="5.52616">
        <ele>641.817383</ele>
        <time>2011-04-21T11:09:05Z</time>
      </trkpt>
      <trkpt lat="43.80819" lon="5.52623">
        <ele>641.817383</ele>
        <time>2011-04-21T11:09:12Z</time>
      </trkpt>
      <trkpt lat="43.80796" lon="5.52624">
        <ele>641.33667</ele>
        <time>2011-04-21T11:09:18Z</time>
      </trkpt>
      <trkpt lat="43.80775" lon="5.52634">
        <ele>639.414062</ele>
        <time>2011-04-21T11:09:22Z</time>
      </trkpt>
      <trkpt lat="43.80717" lon="5.5267">
        <ele>634.607422</ele>
        <time>2011-04-21T11:09:32Z</time>
      </trkpt>
      <trkpt lat="43.80695" lon="5.52699">
        <ele>634.126709</ele>
        <time>2011-04-21T11:09:37Z</time>
      </trkpt>
      <trkpt lat="43.80684" lon="5.52725">
        <ele>635.088135</ele>
        <time>2011-04-21T11:09:41Z</time>
      </trkpt>
      <trkpt lat="43.80667" lon="5.5274">
        <ele>634.607422</ele>
        <time>2011-04-21T11:09:45Z</time>
      </trkpt>
      <trkpt lat="43.80656" lon="5.52766">
        <ele>636.530273</ele>
        <time>2011-04-21T11:09:49Z</time>
      </trkpt>
      <trkpt lat="43.8064" lon="5.52796">
        <ele>633.645996</ele>
        <time>2011-04-21T11:09:54Z</time>
      </trkpt>
      <trkpt lat="43.80622" lon="5.52833">
        <ele>629.800781</ele>
        <time>2011-04-21T11:09:59Z</time>
      </trkpt>
      <trkpt lat="43.80617" lon="5.5285">
        <ele>629.320068</ele>
        <time>2011-04-21T11:10:01Z</time>
      </trkpt>
      <trkpt lat="43.80598" lon="5.52874">
        <ele>627.878174</ele>
        <time>2011-04-21T11:10:06Z</time>
      </trkpt>
      <trkpt lat="43.80589" lon="5.5288">
        <ele>627.878174</ele>
        <time>2011-04-21T11:10:08Z</time>
      </trkpt>
      <trkpt lat="43.80561" lon="5.52909">
        <ele>624.032959</ele>
        <time>2011-04-21T11:10:14Z</time>
      </trkpt>
      <trkpt lat="43.80516" lon="5.52936">
        <ele>619.707031</ele>
        <time>2011-04-21T11:10:22Z</time>
      </trkpt>
      <trkpt lat="43.80475" lon="5.52935">
        <ele>613.938965</ele>
        <time>2011-04-21T11:10:29Z</time>
      </trkpt>
      <trkpt lat="43.8046" lon="5.5293">
        <ele>612.016602</ele>
        <time>2011-04-21T11:10:31Z</time>
      </trkpt>
      <trkpt lat="43.80401" lon="5.52901">
        <ele>604.326172</ele>
        <time>2011-04-21T11:10:40Z</time>
      </trkpt>
      <trkpt lat="43.80355" lon="5.5288">
        <ele>598.077393</ele>
        <time>2011-04-21T11:10:49Z</time>
      </trkpt>
      <trkpt lat="43.80339" lon="5.52865">
        <ele>595.193359</ele>
        <time>2011-04-21T11:10:54Z</time>
      </trkpt>
      <trkpt lat="43.80331" lon="5.52868">
        <ele>592.790283</ele>
        <time>2011-04-21T11:10:58Z</time>
      </trkpt>
      <trkpt lat="43.80327" lon="5.52861">
        <ele>584.618896</ele>
        <time>2011-04-21T11:11:25Z</time>
      </trkpt>
      <trkpt lat="43.80327" lon="5.52905">
        <ele>590.867432</ele>
        <time>2011-04-21T11:11:46Z</time>
      </trkpt>
      <trkpt lat="43.80339" lon="5.52956">
        <ele>591.348145</ele>
        <time>2011-04-21T11:11:53Z</time>
      </trkpt>
      <trkpt lat="43.80346" lon="5.53012">
        <ele>596.154785</ele>
        <time>2011-04-21T11:12:01Z</time>
      </trkpt>
      <trkpt lat="43.80315" lon="5.53077">
        <ele>586.541504</ele>
        <time>2011-04-21T11:12:12Z</time>
      </trkpt>
      <trkpt lat="43.80315" lon="5.53094">
        <ele>584.618896</ele>
        <time>2011-04-21T11:12:15Z</time>
      </trkpt>
      <trkpt lat="43.80322" lon="5.53119">
        <ele>582.215576</ele>
        <time>2011-04-21T11:12:19Z</time>
      </trkpt>
      <trkpt lat="43.8032" lon="5.53136">
        <ele>579.331543</ele>
        <time>2011-04-21T11:12:22Z</time>
      </trkpt>
      <trkpt lat="43.80309" lon="5.53149">
        <ele>572.121826</ele>
        <time>2011-04-21T11:12:25Z</time>
      </trkpt>
      <trkpt lat="43.80296" lon="5.53162">
        <ele>564.431152</ele>
        <time>2011-04-21T11:12:29Z</time>
      </trkpt>
      <trkpt lat="43.80277" lon="5.5316">
        <ele>560.105225</ele>
        <time>2011-04-21T11:12:33Z</time>
      </trkpt>
      <trkpt lat="43.8026" lon="5.53153">
        <ele>556.26001</ele>
        <time>2011-04-21T11:12:37Z</time>
      </trkpt>
      <trkpt lat="43.80246" lon="5.53164">
        <ele>551.453369</ele>
        <time>2011-04-21T11:12:42Z</time>
      </trkpt>
      <trkpt lat="43.80241" lon="5.53185">
        <ele>549.050049</ele>
        <time>2011-04-21T11:12:47Z</time>
      </trkpt>
      <trkpt lat="43.80244" lon="5.53189">
        <ele>548.569336</ele>
        <time>2011-04-21T11:12:48Z</time>
      </trkpt>
      <trkpt lat="43.80245" lon="5.53216">
        <ele>546.646851</ele>
        <time>2011-04-21T11:12:54Z</time>
      </trkpt>
      <trkpt lat="43.80235" lon="5.53232">
        <ele>548.088867</ele>
        <time>2011-04-21T11:12:57Z</time>
      </trkpt>
      <trkpt lat="43.80202" lon="5.53263">
        <ele>541.359497</ele>
        <time>2011-04-21T11:13:04Z</time>
      </trkpt>
      <trkpt lat="43.80177" lon="5.53306">
        <ele>533.668945</ele>
        <time>2011-04-21T11:13:10Z</time>
      </trkpt>
      <trkpt lat="43.80155" lon="5.53352">
        <ele>525.978394</ele>
        <time>2011-04-21T11:13:17Z</time>
      </trkpt>
      <trkpt lat="43.80148" lon="5.53362">
        <ele>524.536499</ele>
        <time>2011-04-21T11:13:19Z</time>
      </trkpt>
      <trkpt lat="43.8014" lon="5.53379">
        <ele>521.171997</ele>
        <time>2011-04-21T11:13:23Z</time>
      </trkpt>
      <trkpt lat="43.80125" lon="5.53385">
        <ele>516.365234</ele>
        <time>2011-04-21T11:13:28Z</time>
      </trkpt>
      <trkpt lat="43.80113" lon="5.53397">
        <ele>514.442627</ele>
        <time>2011-04-21T11:13:32Z</time>
      </trkpt>
      <trkpt lat="43.80106" lon="5.53391">
        <ele>522.613892</ele>
        <time>2011-04-21T11:14:19Z</time>
      </trkpt>
      <trkpt lat="43.80094" lon="5.53431">
        <ele>519.249268</ele>
        <time>2011-04-21T11:14:27Z</time>
      </trkpt>
      <trkpt lat="43.80072" lon="5.53483">
        <ele>516.845947</ele>
        <time>2011-04-21T11:14:37Z</time>
      </trkpt>
      <trkpt lat="43.80064" lon="5.53495">
        <ele>515.404053</ele>
        <time>2011-04-21T11:14:40Z</time>
      </trkpt>
      <trkpt lat="43.80056" lon="5.53521">
        <ele>509.636108</ele>
        <time>2011-04-21T11:14:46Z</time>
      </trkpt>
      <trkpt lat="43.80046" lon="5.53536">
        <ele>501.945557</ele>
        <time>2011-04-21T11:14:59Z</time>
      </trkpt>
      <trkpt lat="43.80038" lon="5.53543">
        <ele>499.061523</ele>
        <time>2011-04-21T11:15:06Z</time>
      </trkpt>
      <trkpt lat="43.80015" lon="5.53583">
        <ele>487.525635</ele>
        <time>2011-04-21T11:15:18Z</time>
      </trkpt>
      <trkpt lat="43.80003" lon="5.53596">
        <ele>483.199829</ele>
        <time>2011-04-21T11:15:22Z</time>
      </trkpt>
      <trkpt lat="43.79999" lon="5.53606">
        <ele>481.757812</ele>
        <time>2011-04-21T11:15:24Z</time>
      </trkpt>
      <trkpt lat="43.79995" lon="5.53624">
        <ele>478.393188</ele>
        <time>2011-04-21T11:15:29Z</time>
      </trkpt>
      <trkpt lat="43.79985" lon="5.53635">
        <ele>473.106079</ele>
        <time>2011-04-21T11:15:34Z</time>
      </trkpt>
      <trkpt lat="43.7997" lon="5.53647">
        <ele>466.857422</ele>
        <time>2011-04-21T11:15:38Z</time>
      </trkpt>
      <trkpt lat="43.7994" lon="5.53663">
        <ele>461.57019</ele>
        <time>2011-04-21T11:15:45Z</time>
      </trkpt>
      <trkpt lat="43.79922" lon="5.53684">
        <ele>456.76355</ele>
        <time>2011-04-21T11:15:50Z</time>
      </trkpt>
      <trkpt lat="43.7989" lon="5.53704">
        <ele>450.995605</ele>
        <time>2011-04-21T11:15:58Z</time>
      </trkpt>
      <trkpt lat="43.79872" lon="5.53719">
        <ele>451.957031</ele>
        <time>2011-04-21T11:16:03Z</time>
      </trkpt>
      <trkpt lat="43.7984" lon="5.53759">
        <ele>453.398926</ele>
        <time>2011-04-21T11:16:13Z</time>
      </trkpt>
      <trkpt lat="43.79824" lon="5.5376">
        <ele>455.802246</ele>
        <time>2011-04-21T11:16:17Z</time>
      </trkpt>
      <trkpt lat="43.79819" lon="5.53764">
        <ele>463.973389</ele>
        <time>2011-04-21T11:16:30Z</time>
      </trkpt>
      <trkpt lat="43.79817" lon="5.53759">
        <ele>466.857422</ele>
        <time>2011-04-21T11:16:47Z</time>
      </trkpt>
      <trkpt lat="43.79813" lon="5.53782">
        <ele>469.741333</ele>
        <time>2011-04-21T11:17:14Z</time>
      </trkpt>
      <trkpt lat="43.79805" lon="5.53801">
        <ele>465.896118</ele>
        <time>2011-04-21T11:17:18Z</time>
      </trkpt>
      <trkpt lat="43.79793" lon="5.53822">
        <ele>462.531372</ele>
        <time>2011-04-21T11:17:22Z</time>
      </trkpt>
      <trkpt lat="43.79789" lon="5.53846">
        <ele>462.050781</ele>
        <time>2011-04-21T11:17:26Z</time>
      </trkpt>
      <trkpt lat="43.79753" lon="5.53913">
        <ele>452.437622</ele>
        <time>2011-04-21T11:17:39Z</time>
      </trkpt>
      <trkpt lat="43.79741" lon="5.53928">
        <ele>450.034424</ele>
        <time>2011-04-21T11:17:42Z</time>
      </trkpt>
      <trkpt lat="43.79732" lon="5.53936">
        <ele>450.034424</ele>
        <time>2011-04-21T11:17:44Z</time>
      </trkpt>
      <trkpt lat="43.79711" lon="5.53943">
        <ele>449.072998</ele>
        <time>2011-04-21T11:17:48Z</time>
      </trkpt>
      <trkpt lat="43.79696" lon="5.5394">
        <ele>448.111816</ele>
        <time>2011-04-21T11:17:52Z</time>
      </trkpt>
      <trkpt lat="43.79679" lon="5.53942">
        <ele>446.669678</ele>
        <time>2011-04-21T11:17:57Z</time>
      </trkpt>
      <trkpt lat="43.79671" lon="5.53953">
        <ele>444.266479</ele>
        <time>2011-04-21T11:18:01Z</time>
      </trkpt>
      <trkpt lat="43.79656" lon="5.54">
        <ele>444.266479</ele>
        <time>2011-04-21T11:18:13Z</time>
      </trkpt>
      <trkpt lat="43.79648" lon="5.54009">
        <ele>443.305054</ele>
        <time>2011-04-21T11:18:17Z</time>
      </trkpt>
      <trkpt lat="43.79623" lon="5.54016">
        <ele>439.459717</ele>
        <time>2011-04-21T11:18:30Z</time>
      </trkpt>
      <trkpt lat="43.79616" lon="5.54028">
        <ele>438.979126</ele>
        <time>2011-04-21T11:18:36Z</time>
      </trkpt>
      <trkpt lat="43.79609" lon="5.54031">
        <ele>439.94043</ele>
        <time>2011-04-21T11:18:44Z</time>
      </trkpt>
      <trkpt lat="43.79589" lon="5.54032">
        <ele>436.095215</ele>
        <time>2011-04-21T11:18:55Z</time>
      </trkpt>
      <trkpt lat="43.7956" lon="5.54041">
        <ele>434.65332</ele>
        <time>2011-04-21T11:19:04Z</time>
      </trkpt>
      <trkpt lat="43.79544" lon="5.54043">
        <ele>433.211304</ele>
        <time>2011-04-21T11:19:09Z</time>
      </trkpt>
      <trkpt lat="43.79515" lon="5.5405">
        <ele>427.443359</ele>
        <time>2011-04-21T11:19:17Z</time>
      </trkpt>
      <trkpt lat="43.79467" lon="5.54069">
        <ele>424.078735</ele>
        <time>2011-04-21T11:19:28Z</time>
      </trkpt>
      <trkpt lat="43.79445" lon="5.54082">
        <ele>428.404663</ele>
        <time>2011-04-21T11:20:01Z</time>
      </trkpt>
      <trkpt lat="43.79433" lon="5.54081">
        <ele>428.885376</ele>
        <time>2011-04-21T11:20:06Z</time>
      </trkpt>
      <trkpt lat="43.79397" lon="5.54058">
        <ele>433.691895</ele>
        <time>2011-04-21T11:20:18Z</time>
      </trkpt>
      <trkpt lat="43.79384" lon="5.54045">
        <ele>433.691895</ele>
        <time>2011-04-21T11:20:22Z</time>
      </trkpt>
      <trkpt lat="43.79349" lon="5.54019">
        <ele>438.979126</ele>
        <time>2011-04-21T11:20:34Z</time>
      </trkpt>
      <trkpt lat="43.79336" lon="5.54006">
        <ele>443.785767</ele>
        <time>2011-04-21T11:20:39Z</time>
      </trkpt>
      <trkpt lat="43.79317" lon="5.53994">
        <ele>441.382446</ele>
        <time>2011-04-21T11:20:45Z</time>
      </trkpt>
      <trkpt lat="43.79296" lon="5.53986">
        <ele>441.382446</ele>
        <time>2011-04-21T11:20:51Z</time>
      </trkpt>
      <trkpt lat="43.79272" lon="5.53981">
        <ele>439.94043</ele>
        <time>2011-04-21T11:20:57Z</time>
      </trkpt>
      <trkpt lat="43.7926" lon="5.53984">
        <ele>439.459717</ele>
        <time>2011-04-21T11:21:00Z</time>
      </trkpt>
      <trkpt lat="43.7924" lon="5.53996">
        <ele>437.537109</ele>
        <time>2011-04-21T11:21:05Z</time>
      </trkpt>
      <trkpt lat="43.79225" lon="5.54011">
        <ele>434.65332</ele>
        <time>2011-04-21T11:21:09Z</time>
      </trkpt>
      <trkpt lat="43.79162" lon="5.54059">
        <ele>434.172607</ele>
        <time>2011-04-21T11:21:23Z</time>
      </trkpt>
      <trkpt lat="43.7914" lon="5.54073">
        <ele>436.095215</ele>
        <time>2011-04-21T11:21:28Z</time>
      </trkpt>
      <trkpt lat="43.79091" lon="5.54131">
        <ele>434.172607</ele>
        <time>2011-04-21T11:21:42Z</time>
      </trkpt>
      <trkpt lat="43.7907" lon="5.54161">
        <ele>433.691895</ele>
        <time>2011-04-21T11:21:49Z</time>
      </trkpt>
      <trkpt lat="43.7905" lon="5.54204">
        <ele>435.133911</ele>
        <time>2011-04-21T11:21:57Z</time>
      </trkpt>
      <trkpt lat="43.79032" lon="5.54252">
        <ele>433.211304</ele>
        <time>2011-04-21T11:22:04Z</time>
      </trkpt>
      <trkpt lat="43.79016" lon="5.54276">
        <ele>432.25</ele>
        <time>2011-04-21T11:22:08Z</time>
      </trkpt>
      <trkpt lat="43.78963" lon="5.54316">
        <ele>429.365967</ele>
        <time>2011-04-21T11:22:18Z</time>
      </trkpt>
      <trkpt lat="43.78937" lon="5.54322">
        <ele>428.885376</ele>
        <time>2011-04-21T11:22:22Z</time>
      </trkpt>
      <trkpt lat="43.78875" lon="5.54316">
        <ele>427.443359</ele>
        <time>2011-04-21T11:22:31Z</time>
      </trkpt>
      <trkpt lat="43.78836" lon="5.54316">
        <ele>424.559448</ele>
        <time>2011-04-21T11:22:36Z</time>
      </trkpt>
      <trkpt lat="43.78769" lon="5.54321">
        <ele>419.752808</ele>
        <time>2011-04-21T11:22:44Z</time>
      </trkpt>
      <trkpt lat="43.78727" lon="5.54332">
        <ele>415.907471</ele>
        <time>2011-04-21T11:22:49Z</time>
      </trkpt>
      <trkpt lat="43.78632" lon="5.5437">
        <ele>409.178345</ele>
        <time>2011-04-21T11:23:00Z</time>
      </trkpt>
      <trkpt lat="43.78601" lon="5.54366">
        <ele>408.217041</ele>
        <time>2011-04-21T11:23:04Z</time>
      </trkpt>
      <trkpt lat="43.78585" lon="5.54349">
        <ele>406.774902</ele>
        <time>2011-04-21T11:23:07Z</time>
      </trkpt>
      <trkpt lat="43.78577" lon="5.5432">
        <ele>403.4104</ele>
        <time>2011-04-21T11:23:10Z</time>
      </trkpt>
      <trkpt lat="43.78582" lon="5.54269">
        <ele>400.526489</ele>
        <time>2011-04-21T11:23:15Z</time>
      </trkpt>
      <trkpt lat="43.78577" lon="5.54239">
        <ele>401.00708</ele>
        <time>2011-04-21T11:23:19Z</time>
      </trkpt>
      <trkpt lat="43.78557" lon="5.54244">
        <ele>402.929688</ele>
        <time>2011-04-21T11:23:23Z</time>
      </trkpt>
      <trkpt lat="43.78528" lon="5.54245">
        <ele>403.4104</ele>
        <time>2011-04-21T11:23:29Z</time>
      </trkpt>
      <trkpt lat="43.78502" lon="5.54234">
        <ele>403.891113</ele>
        <time>2011-04-21T11:23:35Z</time>
      </trkpt>
      <trkpt lat="43.78488" lon="5.5422">
        <ele>407.736328</ele>
        <time>2011-04-21T11:23:39Z</time>
      </trkpt>
      <trkpt lat="43.7847" lon="5.54195">
        <ele>411.581665</ele>
        <time>2011-04-21T11:23:45Z</time>
      </trkpt>
      <trkpt lat="43.78452" lon="5.54176">
        <ele>412.062256</ele>
        <time>2011-04-21T11:23:51Z</time>
      </trkpt>
      <trkpt lat="43.78418" lon="5.54129">
        <ele>412.542847</ele>
        <time>2011-04-21T11:24:01Z</time>
      </trkpt>
      <trkpt lat="43.78407" lon="5.541">
        <ele>410.620239</ele>
        <time>2011-04-21T11:24:06Z</time>
      </trkpt>
      <trkpt lat="43.78395" lon="5.54028">
        <ele>407.736328</ele>
        <time>2011-04-21T11:24:18Z</time>
      </trkpt>
      <trkpt lat="43.78372" lon="5.53841">
        <ele>395.719849</ele>
        <time>2011-04-21T11:24:39Z</time>
      </trkpt>
      <trkpt lat="43.7836" lon="5.53776">
        <ele>392.835938</ele>
        <time>2011-04-21T11:24:45Z</time>
      </trkpt>
      <trkpt lat="43.78347" lon="5.53721">
        <ele>390.432617</ele>
        <time>2011-04-21T11:24:50Z</time>
      </trkpt>
      <trkpt lat="43.78342" lon="5.53711">
        <ele>389.951904</ele>
        <time>2011-04-21T11:24:51Z</time>
      </trkpt>
      <trkpt lat="43.78325" lon="5.53645">
        <ele>387.067993</ele>
        <time>2011-04-21T11:24:57Z</time>
      </trkpt>
      <trkpt lat="43.7831" lon="5.53552">
        <ele>386.587402</ele>
        <time>2011-04-21T11:25:05Z</time>
      </trkpt>
      <trkpt lat="43.78286" lon="5.53441">
        <ele>391.393799</ele>
        <time>2011-04-21T11:25:16Z</time>
      </trkpt>
      <trkpt lat="43.7825" lon="5.53295">
        <ele>399.084351</ele>
        <time>2011-04-21T11:25:32Z</time>
      </trkpt>
      <trkpt lat="43.78237" lon="5.53238">
        <ele>403.891113</ele>
        <time>2011-04-21T11:25:39Z</time>
      </trkpt>
      <trkpt lat="43.7822" lon="5.53195">
        <ele>405.333008</ele>
        <time>2011-04-21T11:25:45Z</time>
      </trkpt>
      <trkpt lat="43.78193" lon="5.53148">
        <ele>406.294312</ele>
        <time>2011-04-21T11:25:52Z</time>
      </trkpt>
      <trkpt lat="43.78107" lon="5.53015">
        <ele>405.813721</ele>
        <time>2011-04-21T11:26:13Z</time>
      </trkpt>
      <trkpt lat="43.78008" lon="5.52869">
        <ele>400.526489</ele>
        <time>2011-04-21T11:26:35Z</time>
      </trkpt>
      <trkpt lat="43.77983" lon="5.52829">
        <ele>401.487793</ele>
        <time>2011-04-21T11:26:41Z</time>
      </trkpt>
      <trkpt lat="43.77961" lon="5.52784">
        <ele>401.00708</ele>
        <time>2011-04-21T11:26:47Z</time>
      </trkpt>
      <trkpt lat="43.77951" lon="5.52759">
        <ele>400.526489</ele>
        <time>2011-04-21T11:26:50Z</time>
      </trkpt>
      <trkpt lat="43.7794" lon="5.52704">
        <ele>398.60376</ele>
        <time>2011-04-21T11:26:56Z</time>
      </trkpt>
      <trkpt lat="43.77928" lon="5.52589">
        <ele>386.106689</ele>
        <time>2011-04-21T11:27:06Z</time>
      </trkpt>
      <trkpt lat="43.77913" lon="5.52528">
        <ele>382.742065</ele>
        <time>2011-04-21T11:27:11Z</time>
      </trkpt>
      <trkpt lat="43.77895" lon="5.52501">
        <ele>381.78064</ele>
        <time>2011-04-21T11:27:14Z</time>
      </trkpt>
      <trkpt lat="43.77871" lon="5.52494">
        <ele>380.338745</ele>
        <time>2011-04-21T11:27:17Z</time>
      </trkpt>
      <trkpt lat="43.77855" lon="5.52498">
        <ele>379.377441</ele>
        <time>2011-04-21T11:27:19Z</time>
      </trkpt>
      <trkpt lat="43.77746" lon="5.52563">
        <ele>374.090088</ele>
        <time>2011-04-21T11:27:34Z</time>
      </trkpt>
      <trkpt lat="43.77684" lon="5.52594">
        <ele>370.725586</ele>
        <time>2011-04-21T11:27:43Z</time>
      </trkpt>
      <trkpt lat="43.776" lon="5.52622">
        <ele>365.438354</ele>
        <time>2011-04-21T11:27:55Z</time>
      </trkpt>
      <trkpt lat="43.7751" lon="5.52637">
        <ele>361.112427</ele>
        <time>2011-04-21T11:28:08Z</time>
      </trkpt>
      <trkpt lat="43.77483" lon="5.52625">
        <ele>361.112427</ele>
        <time>2011-04-21T11:28:12Z</time>
      </trkpt>
      <trkpt lat="43.77472" lon="5.52596">
        <ele>359.67041</ele>
        <time>2011-04-21T11:28:15Z</time>
      </trkpt>
      <trkpt lat="43.7745" lon="5.52509">
        <ele>355.344482</ele>
        <time>2011-04-21T11:28:23Z</time>
      </trkpt>
      <trkpt lat="43.77429" lon="5.52478">
        <ele>353.902588</ele>
        <time>2011-04-21T11:28:27Z</time>
      </trkpt>
      <trkpt lat="43.77405" lon="5.52473">
        <ele>353.421875</ele>
        <time>2011-04-21T11:28:30Z</time>
      </trkpt>
      <trkpt lat="43.7732" lon="5.52471">
        <ele>351.499146</ele>
        <time>2011-04-21T11:28:43Z</time>
      </trkpt>
      <trkpt lat="43.77306" lon="5.52455">
        <ele>351.499146</ele>
        <time>2011-04-21T11:28:47Z</time>
      </trkpt>
      <trkpt lat="43.77301" lon="5.52379">
        <ele>347.173218</ele>
        <time>2011-04-21T11:28:58Z</time>
      </trkpt>
      <trkpt lat="43.77306" lon="5.52354">
        <ele>347.653931</ele>
        <time>2011-04-21T11:29:02Z</time>
      </trkpt>
      <trkpt lat="43.77327" lon="5.5231">
        <ele>350.057251</ele>
        <time>2011-04-21T11:29:10Z</time>
      </trkpt>
      <trkpt lat="43.77347" lon="5.52275">
        <ele>353.902588</ele>
        <time>2011-04-21T11:29:17Z</time>
      </trkpt>
      <trkpt lat="43.77354" lon="5.52259">
        <ele>354.383179</ele>
        <time>2011-04-21T11:29:20Z</time>
      </trkpt>
      <trkpt lat="43.77357" lon="5.52236">
        <ele>355.344482</ele>
        <time>2011-04-21T11:29:24Z</time>
      </trkpt>
      <trkpt lat="43.77354" lon="5.5221">
        <ele>356.305786</ele>
        <time>2011-04-21T11:29:29Z</time>
      </trkpt>
      <trkpt lat="43.77341" lon="5.52186">
        <ele>359.189697</ele>
        <time>2011-04-21T11:29:35Z</time>
      </trkpt>
      <trkpt lat="43.77325" lon="5.52176">
        <ele>360.631714</ele>
        <time>2011-04-21T11:29:41Z</time>
      </trkpt>
      <trkpt lat="43.77304" lon="5.52179">
        <ele>362.07373</ele>
        <time>2011-04-21T11:29:47Z</time>
      </trkpt>
      <trkpt lat="43.77283" lon="5.52171">
        <ele>363.996338</ele>
        <time>2011-04-21T11:29:53Z</time>
      </trkpt>
      <trkpt lat="43.77271" lon="5.52152">
        <ele>361.59314</ele>
        <time>2011-04-21T11:29:58Z</time>
      </trkpt>
      <trkpt lat="43.77251" lon="5.52107">
        <ele>364.476929</ele>
        <time>2011-04-21T11:30:08Z</time>
      </trkpt>
      <trkpt lat="43.77248" lon="5.52079">
        <ele>362.07373</ele>
        <time>2011-04-21T11:30:12Z</time>
      </trkpt>
      <trkpt lat="43.77246" lon="5.5203">
        <ele>359.189697</ele>
        <time>2011-04-21T11:30:17Z</time>
      </trkpt>
      <trkpt lat="43.77229" lon="5.51931">
        <ele>356.305786</ele>
        <time>2011-04-21T11:30:27Z</time>
      </trkpt>
      <trkpt lat="43.77214" lon="5.51883">
        <ele>356.786377</ele>
        <time>2011-04-21T11:30:33Z</time>
      </trkpt>
      <trkpt lat="43.77191" lon="5.51817">
        <ele>354.86377</ele>
        <time>2011-04-21T11:30:42Z</time>
      </trkpt>
      <trkpt lat="43.77173" lon="5.51774">
        <ele>355.344482</ele>
        <time>2011-04-21T11:30:48Z</time>
      </trkpt>
      <trkpt lat="43.77156" lon="5.5175">
        <ele>355.825195</ele>
        <time>2011-04-21T11:30:52Z</time>
      </trkpt>
      <trkpt lat="43.7713" lon="5.5173">
        <ele>359.67041</ele>
        <time>2011-04-21T11:30:58Z</time>
      </trkpt>
      <trkpt lat="43.7711" lon="5.51706">
        <ele>359.67041</ele>
        <time>2011-04-21T11:31:03Z</time>
      </trkpt>
      <trkpt lat="43.771" lon="5.51679">
        <ele>362.07373</ele>
        <time>2011-04-21T11:31:08Z</time>
      </trkpt>
      <trkpt lat="43.77085" lon="5.5166">
        <ele>362.554321</ele>
        <time>2011-04-21T11:31:12Z</time>
      </trkpt>
      <trkpt lat="43.77042" lon="5.51584">
        <ele>360.631714</ele>
        <time>2011-04-21T11:31:23Z</time>
      </trkpt>
      <trkpt lat="43.77019" lon="5.51535">
        <ele>355.825195</ele>
        <time>2011-04-21T11:31:29Z</time>
      </trkpt>
      <trkpt lat="43.77001" lon="5.51464">
        <ele>352.460571</ele>
        <time>2011-04-21T11:31:38Z</time>
      </trkpt>
      <trkpt lat="43.76985" lon="5.51428">
        <ele>353.421875</ele>
        <time>2011-04-21T11:31:43Z</time>
      </trkpt>
      <trkpt lat="43.76976" lon="5.51417">
        <ele>352.941162</ele>
        <time>2011-04-21T11:31:45Z</time>
      </trkpt>
      <trkpt lat="43.76937" lon="5.5139">
        <ele>354.383179</ele>
        <time>2011-04-21T11:31:52Z</time>
      </trkpt>
      <trkpt lat="43.76819" lon="5.51331">
        <ele>354.383179</ele>
        <time>2011-04-21T11:32:11Z</time>
      </trkpt>
      <trkpt lat="43.76783" lon="5.51305">
        <ele>354.383179</ele>
        <time>2011-04-21T11:32:18Z</time>
      </trkpt>
      <trkpt lat="43.76744" lon="5.51265">
        <ele>357.26709</ele>
        <time>2011-04-21T11:32:26Z</time>
      </trkpt>
      <trkpt lat="43.76663" lon="5.51202">
        <ele>354.383179</ele>
        <time>2011-04-21T11:32:40Z</time>
      </trkpt>
      <trkpt lat="43.76623" lon="5.51183">
        <ele>353.421875</ele>
        <time>2011-04-21T11:32:46Z</time>
      </trkpt>
      <trkpt lat="43.76598" lon="5.51174">
        <ele>351.979858</ele>
        <time>2011-04-21T11:32:51Z</time>
      </trkpt>
      <trkpt lat="43.76595" lon="5.51159">
        <ele>348.134644</ele>
        <time>2011-04-21T11:33:02Z</time>
      </trkpt>
      <trkpt lat="43.76588" lon="5.51153">
        <ele>346.212036</ele>
        <time>2011-04-21T11:33:06Z</time>
      </trkpt>
      <trkpt lat="43.76587" lon="5.51146">
        <ele>343.327881</ele>
        <time>2011-04-21T11:33:10Z</time>
      </trkpt>
      <trkpt lat="43.76548" lon="5.51094">
        <ele>339.963379</ele>
        <time>2011-04-21T11:33:20Z</time>
      </trkpt>
      <trkpt lat="43.76538" lon="5.51059">
        <ele>336.118164</ele>
        <time>2011-04-21T11:33:24Z</time>
      </trkpt>
      <trkpt lat="43.76542" lon="5.50993">
        <ele>329.869507</ele>
        <time>2011-04-21T11:33:30Z</time>
      </trkpt>
      <trkpt lat="43.76547" lon="5.50962">
        <ele>327.946777</ele>
        <time>2011-04-21T11:33:33Z</time>
      </trkpt>
      <trkpt lat="43.76546" lon="5.50928">
        <ele>326.504883</ele>
        <time>2011-04-21T11:33:37Z</time>
      </trkpt>
      <trkpt lat="43.76545" lon="5.50914">
        <ele>326.02417</ele>
        <time>2011-04-21T11:33:39Z</time>
      </trkpt>
      <trkpt lat="43.76546" lon="5.50889">
        <ele>326.985596</ele>
        <time>2011-04-21T11:33:43Z</time>
      </trkpt>
      <trkpt lat="43.76543" lon="5.50876">
        <ele>329.388916</ele>
        <time>2011-04-21T11:33:47Z</time>
      </trkpt>
      <trkpt lat="43.76539" lon="5.50878">
        <ele>329.869507</ele>
        <time>2011-04-21T11:33:51Z</time>
      </trkpt>
      <trkpt lat="43.76525" lon="5.5087">
        <ele>331.311523</ele>
        <time>2011-04-21T11:33:56Z</time>
      </trkpt>
      <trkpt lat="43.76497" lon="5.50865">
        <ele>331.311523</ele>
        <time>2011-04-21T11:34:02Z</time>
      </trkpt>
      <trkpt lat="43.76483" lon="5.50849">
        <ele>331.792114</ele>
        <time>2011-04-21T11:34:06Z</time>
      </trkpt>
      <trkpt lat="43.76464" lon="5.50799">
        <ele>331.792114</ele>
        <time>2011-04-21T11:34:13Z</time>
      </trkpt>
      <trkpt lat="43.76443" lon="5.50734">
        <ele>341.885986</ele>
        <time>2011-04-21T11:34:23Z</time>
      </trkpt>
      <trkpt lat="43.76426" lon="5.50691">
        <ele>340.924683</ele>
        <time>2011-04-21T11:34:31Z</time>
      </trkpt>
      <trkpt lat="43.76411" lon="5.50667">
        <ele>341.405273</ele>
        <time>2011-04-21T11:34:36Z</time>
      </trkpt>
      <trkpt lat="43.76395" lon="5.50628">
        <ele>338.521484</ele>
        <time>2011-04-21T11:34:44Z</time>
      </trkpt>
      <trkpt lat="43.76379" lon="5.50599">
        <ele>337.560059</ele>
        <time>2011-04-21T11:34:50Z</time>
      </trkpt>
      <trkpt lat="43.76372" lon="5.5057">
        <ele>338.040771</ele>
        <time>2011-04-21T11:34:55Z</time>
      </trkpt>
      <trkpt lat="43.76356" lon="5.50543">
        <ele>339.002075</ele>
        <time>2011-04-21T11:35:01Z</time>
      </trkpt>
      <trkpt lat="43.76349" lon="5.50526">
        <ele>338.040771</ele>
        <time>2011-04-21T11:35:04Z</time>
      </trkpt>
      <trkpt lat="43.76344" lon="5.50498">
        <ele>337.079468</ele>
        <time>2011-04-21T11:35:08Z</time>
      </trkpt>
      <trkpt lat="43.76333" lon="5.50458">
        <ele>333.234131</ele>
        <time>2011-04-21T11:35:14Z</time>
      </trkpt>
      <trkpt lat="43.76332" lon="5.50435">
        <ele>328.427612</ele>
        <time>2011-04-21T11:35:18Z</time>
      </trkpt>
      <trkpt lat="43.76327" lon="5.50409">
        <ele>325.543579</ele>
        <time>2011-04-21T11:35:22Z</time>
      </trkpt>
      <trkpt lat="43.76332" lon="5.50366">
        <ele>323.620972</ele>
        <time>2011-04-21T11:35:28Z</time>
      </trkpt>
      <trkpt lat="43.7633" lon="5.5033">
        <ele>323.620972</ele>
        <time>2011-04-21T11:35:33Z</time>
      </trkpt>
      <trkpt lat="43.76332" lon="5.50313">
        <ele>323.620972</ele>
        <time>2011-04-21T11:35:35Z</time>
      </trkpt>
      <trkpt lat="43.76326" lon="5.50263">
        <ele>323.140381</ele>
        <time>2011-04-21T11:35:41Z</time>
      </trkpt>
      <trkpt lat="43.76316" lon="5.5023">
        <ele>324.582275</ele>
        <time>2011-04-21T11:35:46Z</time>
      </trkpt>
      <trkpt lat="43.76303" lon="5.50209">
        <ele>326.504883</ele>
        <time>2011-04-21T11:35:50Z</time>
      </trkpt>
      <trkpt lat="43.7629" lon="5.50192">
        <ele>327.466187</ele>
        <time>2011-04-21T11:35:54Z</time>
      </trkpt>
      <trkpt lat="43.76281" lon="5.50191">
        <ele>327.946777</ele>
        <time>2011-04-21T11:35:56Z</time>
      </trkpt>
      <trkpt lat="43.76263" lon="5.502">
        <ele>326.504883</ele>
        <time>2011-04-21T11:36:01Z</time>
      </trkpt>
      <trkpt lat="43.76245" lon="5.50219">
        <ele>325.543579</ele>
        <time>2011-04-21T11:36:07Z</time>
      </trkpt>
      <trkpt lat="43.76224" lon="5.50231">
        <ele>325.543579</ele>
        <time>2011-04-21T11:36:12Z</time>
      </trkpt>
      <trkpt lat="43.76209" lon="5.50245">
        <ele>323.140381</ele>
        <time>2011-04-21T11:36:16Z</time>
      </trkpt>
      <trkpt lat="43.7618" lon="5.50263">
        <ele>320.256348</ele>
        <time>2011-04-21T11:36:23Z</time>
      </trkpt>
      <trkpt lat="43.7611" lon="5.50285">
        <ele>317.372437</ele>
        <time>2011-04-21T11:36:39Z</time>
      </trkpt>
      <trkpt lat="43.76039" lon="5.50318">
        <ele>315.93042</ele>
        <time>2011-04-21T11:36:55Z</time>
      </trkpt>
      <trkpt lat="43.75975" lon="5.50354">
        <ele>317.853027</ele>
        <time>2011-04-21T11:37:10Z</time>
      </trkpt>
      <trkpt lat="43.7592" lon="5.50381">
        <ele>320.737061</ele>
        <time>2011-04-21T11:37:27Z</time>
      </trkpt>
      <trkpt lat="43.75909" lon="5.50391">
        <ele>319.295044</ele>
        <time>2011-04-21T11:37:33Z</time>
      </trkpt>
      <trkpt lat="43.75904" lon="5.50401">
        <ele>319.775635</ele>
        <time>2011-04-21T11:37:40Z</time>
      </trkpt>
      <trkpt lat="43.75871" lon="5.50431">
        <ele>322.659668</ele>
        <time>2011-04-21T11:38:09Z</time>
      </trkpt>
      <trkpt lat="43.75871" lon="5.50433">
        <ele>323.140381</ele>
        <time>2011-04-21T11:38:34Z</time>
      </trkpt>
    </trkseg>
  </trk>
</gpx>